Provisional Data: Hunts Run near Cameron, PA


Please select a monitoring station.
Please select start date.
Please select start date.

Toggle Unit: C/F Toggle Unit: C/F
Sample Time Temperature (C) Temperature (F) Specific Conductivity (mS/cm) pH   Turbidity (NTU+) DO (mg/L)
1/12/2021 12:00:00 AM 2.52 36.536 0.031 6.77 1.85 13.27
1/12/2021 12:15:00 AM 2.52 36.536 0.031 6.78 1.82 13.27
1/12/2021 12:30:00 AM 2.52 36.536 0.031 6.78 1.9 13.28
1/12/2021 12:45:00 AM 2.52 36.536 0.031 6.78 2.02 13.27
1/12/2021 1:00:00 AM 2.53 36.554 0.031 6.78 1.94 13.27
1/12/2021 1:15:00 AM 2.53 36.554 0.031 6.76 1.98 13.27
1/12/2021 1:30:00 AM 2.53 36.554 0.031 6.78 1.83 13.26
1/12/2021 1:45:00 AM 2.53 36.554 0.031 6.76 1.92 13.27
1/12/2021 2:00:00 AM 2.53 36.554 0.031 6.78 1.92 13.27
1/12/2021 2:15:00 AM 2.52 36.536 0.031 6.77 1.89 13.27
1/12/2021 2:30:00 AM 2.51 36.518 0.031 6.78 2 13.27
1/12/2021 2:45:00 AM 2.5 36.5 0.031 6.77 2 13.28
1/12/2021 3:00:00 AM 2.5 36.5 0.031 6.78 2 13.28
1/12/2021 3:15:00 AM 2.49 36.482 0.031 6.78 2.02 13.27
1/12/2021 3:30:00 AM 2.48 36.464 0.031 6.78 1.83 13.28
1/12/2021 3:45:00 AM 2.48 36.464 0.031 6.77 1.9 13.28
1/12/2021 4:00:00 AM 2.47 36.446 0.031 6.78 1.97 13.29
1/12/2021 4:15:00 AM 2.46 36.428 0.031 6.77 1.95 13.28
1/12/2021 4:30:00 AM 2.46 36.428 0.031 6.77 1.93 13.28
1/12/2021 4:45:00 AM 2.45 36.41 0.031 6.77 1.93 13.28
1/12/2021 5:00:00 AM 2.44 36.392 0.031 6.78 1.92 13.29
1/12/2021 5:15:00 AM 2.43 36.374 0.031 6.78 2.01 13.29
1/12/2021 5:30:00 AM 2.43 36.374 0.031 6.77 1.99 13.29
1/12/2021 5:45:00 AM 2.41 36.338 0.031 6.78 1.93 13.3
1/12/2021 6:00:00 AM 2.4 36.32 0.031 6.78 1.96 13.3
1/12/2021 6:15:00 AM 2.39 36.302 0.031 6.77 1.97 13.3
1/12/2021 6:30:00 AM 2.38 36.284 0.031 6.77 1.97 13.31
1/12/2021 6:45:00 AM 2.36 36.248 0.031 6.78 1.98 13.32
1/12/2021 7:00:00 AM 2.35 36.23 0.031 6.78 1.91 13.33
1/12/2021 7:15:00 AM 2.34 36.212 0.031 6.79 2.11 13.33
1/12/2021 7:30:00 AM 2.31 36.158 0.031 6.77 1.85 13.35
1/12/2021 7:45:00 AM 2.31 36.158 0.031 6.78 1.85 13.36
1/12/2021 8:00:00 AM 2.31 36.158 0.031 6.77 2.1 13.35
1/12/2021 8:15:00 AM 2.3 36.14 0.031 6.78 3.27 13.38
1/12/2021 8:30:00 AM 2.3 36.14 0.031 6.78 2.88 13.39
1/12/2021 8:45:00 AM 2.3 36.14 0.031 6.78 2.43 13.41
1/12/2021 9:00:00 AM 2.3 36.14 0.031 6.79 2.83 13.42
1/12/2021 9:15:00 AM 2.3 36.14 0.031 6.79 2.48 13.43
1/12/2021 9:30:00 AM 2.31 36.158 0.031 6.78 2.58 13.43
1/12/2021 9:45:00 AM 2.32 36.176 0.031 6.79 2.74 13.44
1/12/2021 10:00:00 AM 2.34 36.212 0.031 6.8 5.98 13.46
1/12/2021 10:15:00 AM 2.37 36.266 0.031 6.8 2.8 13.46
1/12/2021 10:30:00 AM 2.39 36.302 0.031 6.81 2.54 13.47
1/12/2021 10:45:00 AM 2.43 36.374 0.031 6.8 2.55 13.46
1/12/2021 11:00:00 AM 2.44 36.392 0.031 6.81 2.75 13.45
1/12/2021 11:15:00 AM 2.45 36.41 0.031 6.8 1.98 13.45
1/12/2021 11:30:00 AM 2.49 36.482 0.031 6.81 4.47 13.45
1/12/2021 11:45:00 AM 2.55 36.59 0.031 6.81 4.77 13.43
1/12/2021 12:00:00 PM 2.6 36.68 0.031 6.81 4.14 13.41
1/12/2021 12:15:00 PM 2.64 36.752 0.031 6.82 4.09 13.41
1/12/2021 12:30:00 PM 2.68 36.824 0.031 6.8 3 13.39
1/12/2021 12:45:00 PM 2.72 36.896 0.031 6.81 3.98 13.37
1/12/2021 1:00:00 PM 2.76 36.968 0.031 6.81 2.92 13.35
1/12/2021 1:15:00 PM 2.8 37.04 0.031 6.82 4.53 13.33
1/12/2021 1:30:00 PM 2.86 37.148 0.031 6.8 4.61 13.31
1/12/2021 1:45:00 PM 2.9 37.22 0.031 6.8 3.66 13.29
1/12/2021 2:00:00 PM 2.93 37.274 0.031 6.81 3.91 13.28
1/12/2021 2:15:00 PM 2.94 37.292 0.031 6.81 6.89 13.27
1/12/2021 2:30:00 PM 2.94 37.292 0.031 6.81 4.47 13.25
1/12/2021 2:45:00 PM 2.93 37.274 0.031 6.81 4.66 13.24
1/12/2021 3:00:00 PM 2.91 37.238 0.031 6.8 2.98 13.23
1/12/2021 3:15:00 PM 2.89 37.202 0.031 6.82 2.79 13.22
1/12/2021 3:30:00 PM 2.88 37.184 0.031 6.8 4.24 13.21
1/12/2021 3:45:00 PM 2.87 37.166 0.031 6.81 3.65 13.21
1/12/2021 4:00:00 PM 2.86 37.148 0.031 6.79 3.57 13.19
1/12/2021 4:15:00 PM 2.83 37.094 0.031 6.79 5.08 13.19
1/12/2021 4:30:00 PM 2.82 37.076 0.031 6.79 5.38 13.18
1/12/2021 4:45:00 PM 2.81 37.058 0.031 6.77 4.51 13.17
1/12/2021 5:00:00 PM 2.79 37.022 0.031 6.79 5.09 13.17
1/12/2021 5:15:00 PM 2.78 37.004 0.031 6.78 4.53 13.16
1/12/2021 5:30:00 PM 2.77 36.986 0.031 6.79 3.8 13.16
1/12/2021 5:45:00 PM 2.75 36.95 0.031 6.78 2.61 13.15
1/12/2021 6:00:00 PM 2.74 36.932 0.031 6.78 1.8 13.16
1/12/2021 6:15:00 PM 2.73 36.914 0.031 6.78 1.83 13.16
1/12/2021 6:30:00 PM 2.72 36.896 0.031 6.78 1.84 13.17
1/12/2021 6:45:00 PM 2.7 36.86 0.031 6.78 1.85 13.17
1/12/2021 7:00:00 PM 2.7 36.86 0.031 6.77 2.13 13.17
1/12/2021 7:15:00 PM 2.68 36.824 0.031 6.78 1.75 13.18
1/12/2021 7:30:00 PM 2.68 36.824 0.031 6.77 1.81 13.18
1/12/2021 7:45:00 PM 2.67 36.806 0.031 6.78 1.82 13.18
1/12/2021 8:00:00 PM 2.67 36.806 0.031 6.77 1.78 13.18
1/12/2021 8:15:00 PM 2.66 36.788 0.031 6.77 1.88 13.18
1/12/2021 8:30:00 PM 2.65 36.77 0.031 6.78 1.78 13.19
1/12/2021 8:45:00 PM 2.65 36.77 0.031 6.77 1.82 13.19
1/12/2021 9:00:00 PM 2.64 36.752 0.031 6.77 1.8 13.19
1/12/2021 9:15:00 PM 2.63 36.734 0.031 6.77 1.89 13.2
1/12/2021 9:30:00 PM 2.62 36.716 0.031 6.77 1.82 13.2
1/12/2021 9:45:00 PM 2.61 36.698 0.031 6.78 1.86 13.21
1/12/2021 10:00:00 PM 2.61 36.698 0.031 6.78 1.75 13.21
1/12/2021 10:15:00 PM 2.6 36.68 0.031 6.78 1.81 13.22
1/12/2021 10:30:00 PM 2.59 36.662 0.031 6.78 1.72 13.22
1/12/2021 10:45:00 PM 2.59 36.662 0.031 6.78 1.83 13.22
1/12/2021 11:00:00 PM 2.58 36.644 0.031 6.78 1.83 13.22
1/12/2021 11:15:00 PM 2.57 36.626 0.031 6.77 1.9 13.21
1/12/2021 11:30:00 PM 2.56 36.608 0.031 6.78 1.81 13.23
1/12/2021 11:45:00 PM 2.54 36.572 0.031 6.77 1.76 13.23
1/13/2021 12:00:00 AM 2.54 36.572 0.031 6.77 1.76 13.22
1/13/2021 12:15:00 AM 2.53 36.554 0.031 6.79 1.81 13.24
1/13/2021 12:30:00 AM 2.51 36.518 0.031 6.78 1.81 13.24
1/13/2021 12:45:00 AM 2.5 36.5 0.031 6.78 1.78 13.24
1/13/2021 1:00:00 AM 2.49 36.482 0.031 6.79 1.83 13.25
1/13/2021 1:15:00 AM 2.48 36.464 0.031 6.8 1.8 13.26
1/13/2021 1:30:00 AM 2.47 36.446 0.031 6.77 1.89 13.25
1/13/2021 1:45:00 AM 2.45 36.41 0.031 6.78 1.94 13.26
1/13/2021 2:00:00 AM 2.43 36.374 0.031 6.77 1.83 13.26
1/13/2021 2:15:00 AM 2.43 36.374 0.031 6.77 1.85 13.27
1/13/2021 2:30:00 AM 2.41 36.338 0.031 6.8 1.88 13.29
1/13/2021 2:45:00 AM 2.4 36.32 0.031 6.78 1.7 13.28
1/13/2021 3:00:00 AM 2.38 36.284 0.031 6.78 1.78 13.29
1/13/2021 3:15:00 AM 2.38 36.284 0.031 6.78 1.9 13.29
1/13/2021 3:30:00 AM 2.36 36.248 0.031 6.79 1.82 13.29
1/13/2021 3:45:00 AM 2.35 36.23 0.031 6.78 1.88 13.3
1/13/2021 4:00:00 AM 2.33 36.194 0.031 6.78 1.77 13.3
1/13/2021 4:15:00 AM 2.32 36.176 0.031 6.78 1.79 13.3
1/13/2021 4:30:00 AM 2.31 36.158 0.031 6.78 1.88 13.31
1/13/2021 4:45:00 AM 2.3 36.14 0.031 6.78 1.78 13.31
1/13/2021 5:00:00 AM 2.29 36.122 0.031 6.77 1.8 13.31
1/13/2021 5:15:00 AM 2.28 36.104 0.031 6.79 1.79 13.33
1/13/2021 5:30:00 AM 2.27 36.086 0.031 6.78 1.8 13.32
1/13/2021 5:45:00 AM 2.27 36.086 0.031 6.78 1.8 13.33
1/13/2021 6:00:00 AM 2.26 36.068 0.031 6.78 1.85 13.32
1/13/2021 6:15:00 AM 2.26 36.068 0.031 6.78 1.8 13.33
1/13/2021 6:30:00 AM 2.24 36.032 0.031 6.8 1.74 13.34
1/13/2021 6:45:00 AM 2.23 36.014 0.031 6.77 2.05 13.33
1/13/2021 7:00:00 AM 2.23 36.014 0.032 6.77 2 13.32
1/13/2021 7:15:00 AM 2.22 35.996 0.031 6.77 1.85 13.34
1/13/2021 7:30:00 AM 2.21 35.978 0.031 6.77 1.89 13.34
1/13/2021 7:45:00 AM 2.2 35.96 0.031 6.78 2.25 13.33
1/13/2021 8:00:00 AM 2.18 35.924 0.031 6.77 2.06 13.35
1/13/2021 8:15:00 AM 2.18 35.924 0.031 6.79 1.89 13.36
1/13/2021 8:30:00 AM 2.17 35.906 0.031 6.79 1.73 13.37
1/13/2021 8:45:00 AM 2.18 35.924 0.031 6.78 1.77 13.37
1/13/2021 9:00:00 AM 2.18 35.924 0.031 6.79 1.71 13.37
1/13/2021 9:15:00 AM 2.19 35.942 0.031 6.78 1.68 13.39
1/13/2021 9:30:00 AM 2.19 35.942 0.031 6.79 5.44 13.41
1/13/2021 9:45:00 AM 2.2 35.96 0.031 6.78 4.29 13.42
1/13/2021 10:00:00 AM 2.22 35.996 0.031 6.78 2.48 13.42
1/13/2021 10:15:00 AM 2.24 36.032 0.031 6.79 3.04 13.43
1/13/2021 10:30:00 AM 2.27 36.086 0.031 6.78 3.43 13.44
1/13/2021 10:45:00 AM 2.31 36.158 0.031 6.79 5.24 13.44
1/13/2021 11:00:00 AM 2.35 36.23 0.031 6.82 4.02 13.44
1/13/2021 11:15:00 AM 2.39 36.302 0.031 6.8 1.85 13.42
1/13/2021 11:30:00 AM 2.42 36.356 0.031 6.81 1.86 13.41
1/13/2021 11:45:00 AM 2.44 36.392 0.031 6.81 2.62 13.4
1/13/2021 12:00:00 PM 2.46 36.428 0.031 6.82 2.77 13.39
1/13/2021 12:15:00 PM 2.5 36.5 0.031 6.82 2.94 13.38
1/13/2021 12:30:00 PM 2.55 36.59 0.031 6.81 5.67 13.35
1/13/2021 12:45:00 PM 2.59 36.662 0.031 6.81 5.05 13.33
1/13/2021 1:00:00 PM 2.66 36.788 0.031 6.81 2.35 13.32
1/13/2021 1:15:00 PM 2.7 36.86 0.031 6.81 2.66 13.3
1/13/2021 1:30:00 PM 2.73 36.914 0.031 6.83 1.74 13.28
1/13/2021 1:45:00 PM 2.78 37.004 0.031 6.82 2.08 13.27
1/13/2021 2:00:00 PM 2.8 37.04 0.031 6.81 2.68 13.24
1/13/2021 2:15:00 PM 2.83 37.094 0.031 6.8 2.55 13.22
1/13/2021 2:30:00 PM 2.87 37.166 0.031 6.81 2.9 13.21
1/13/2021 2:45:00 PM 2.9 37.22 0.031 6.81 2.92 13.19
1/13/2021 3:00:00 PM 2.91 37.238 0.031 6.82 3.03 13.17
1/13/2021 3:15:00 PM 2.92 37.256 0.031 6.8 2.57 13.15
1/13/2021 3:30:00 PM 2.93 37.274 0.031 6.82 2.72 13.17
1/13/2021 3:45:00 PM 2.96 37.328 0.031 6.82 2.69 13.14
1/13/2021 4:00:00 PM 2.97 37.346 0.031 6.8 2.76 13.13
1/13/2021 4:15:00 PM 2.97 37.346 0.031 6.81 2.79 13.11
1/13/2021 4:30:00 PM 2.96 37.328 0.031 6.82 2.72 13.1
1/13/2021 4:45:00 PM 2.95 37.31 0.031 6.8 2.49 13.07
1/13/2021 5:00:00 PM 2.93 37.274 0.031 6.8 3.75 13.05
1/13/2021 5:15:00 PM 2.91 37.238 0.031 6.79 3.78 13.03
1/13/2021 5:30:00 PM 2.89 37.202 0.031 6.79 5.97 13.02
1/13/2021 5:45:00 PM 2.88 37.184 0.031 6.78 6.59 13.01
1/13/2021 6:00:00 PM 2.87 37.166 0.031 6.78 10.98 13.01
1/13/2021 6:15:00 PM 2.86 37.148 0.031 6.77 4.72 13
1/13/2021 6:30:00 PM 2.84 37.112 0.031 6.78 1.76 13.01
1/13/2021 6:45:00 PM 2.83 37.094 0.031 6.79 1.76 13.02
1/13/2021 7:00:00 PM 2.82 37.076 0.031 6.77 1.79 13.02
1/13/2021 7:15:00 PM 2.81 37.058 0.031 6.8 1.75 13.03
1/13/2021 7:30:00 PM 2.8 37.04 0.031 6.78 1.7 13.03
1/13/2021 7:45:00 PM 2.8 37.04 0.031 6.78 1.89 13.02
1/13/2021 8:00:00 PM 2.78 37.004 0.031 6.78 1.78 13.04
1/13/2021 8:15:00 PM 2.77 36.986 0.031 6.78 1.82 13.03
1/13/2021 8:30:00 PM 2.76 36.968 0.031 6.78 1.76 13.04
1/13/2021 8:45:00 PM 2.75 36.95 0.031 6.79 1.81 13.05
1/13/2021 9:00:00 PM 2.74 36.932 0.031 6.76 1.89 13.04
1/13/2021 9:15:00 PM 2.73 36.914 0.031 6.78 1.78 13.05
1/13/2021 9:30:00 PM 2.71 36.878 0.031 6.8 1.82 13.07
1/13/2021 9:45:00 PM 2.7 36.86 0.031 6.79 1.8 13.06
1/13/2021 10:00:00 PM 2.7 36.86 0.031 6.78 1.82 13.06
1/13/2021 10:15:00 PM 2.69 36.842 0.031 6.78 1.8 13.06
1/13/2021 10:30:00 PM 2.69 36.842 0.031 6.76 1.83 13.07
1/13/2021 10:45:00 PM 2.68 36.824 0.031 6.78 1.78 13.06
1/13/2021 11:00:00 PM 2.67 36.806 0.031 6.78 1.78 13.07
1/13/2021 11:15:00 PM 2.67 36.806 0.031 6.79 1.79 13.07
1/13/2021 11:30:00 PM 2.66 36.788 0.031 6.77 1.85 13.07
1/13/2021 11:45:00 PM 2.66 36.788 0.031 6.78 1.82 13.07
1/14/2021 12:00:00 AM 2.65 36.77 0.031 6.79 1.77 13.08
1/14/2021 12:15:00 AM 2.65 36.77 0.031 6.78 1.74 13.08
1/14/2021 12:30:00 AM 2.65 36.77 0.031 6.77 1.74 13.07
1/14/2021 12:45:00 AM 2.65 36.77 0.031 6.78 1.75 13.08
1/14/2021 1:00:00 AM 2.64 36.752 0.031 6.77 1.8 13.07
1/14/2021 1:15:00 AM 2.63 36.734 0.031 6.78 1.84 13.08
1/14/2021 1:30:00 AM 2.63 36.734 0.031 6.78 1.82 13.07
1/14/2021 1:45:00 AM 2.62 36.716 0.031 6.79 1.76 13.08
1/14/2021 2:00:00 AM 2.62 36.716 0.031 6.76 1.72 13.07
1/14/2021 2:15:00 AM 2.62 36.716 0.031 6.77 1.76 13.07
1/14/2021 2:30:00 AM 2.62 36.716 0.031 6.77 1.81 13.07
1/14/2021 2:45:00 AM 2.62 36.716 0.031 6.78 1.83 13.07
1/14/2021 3:00:00 AM 2.62 36.716 0.031 6.77 1.78 13.08
1/14/2021 3:15:00 AM 2.63 36.734 0.032 6.76 1.77 13.07
1/14/2021 3:30:00 AM 2.62 36.716 0.031 6.78 1.77 13.07
1/14/2021 3:45:00 AM 2.62 36.716 0.031 6.77 1.91 13.07
1/14/2021 4:00:00 AM 2.63 36.734 0.031 6.77 1.76 13.08
1/14/2021 4:15:00 AM 2.63 36.734 0.031 6.77 1.78 13.06
1/14/2021 4:30:00 AM 2.63 36.734 0.031 6.79 1.77 13.07
1/14/2021 4:45:00 AM 2.63 36.734 0.032 6.77 1.78 13.06
1/14/2021 5:00:00 AM 2.63 36.734 0.031 6.78 1.88 13.07
1/14/2021 5:15:00 AM 2.63 36.734 0.031 6.78 1.88 13.06
1/14/2021 5:30:00 AM 2.63 36.734 0.032 6.78 1.9 13.07
1/14/2021 5:45:00 AM 2.64 36.752 0.031 6.78 1.9 13.07
1/14/2021 6:00:00 AM 2.64 36.752 0.032 6.77 1.91 13.06
1/14/2021 6:15:00 AM 2.63 36.734 0.032 6.78 1.9 13.07
1/14/2021 6:30:00 AM 2.63 36.734 0.032 6.77 1.88 13.07
1/14/2021 6:45:00 AM 2.63 36.734 0.032 6.77 1.85 13.06
1/14/2021 7:00:00 AM 2.64 36.752 0.032 6.77 1.76 13.07
1/14/2021 7:15:00 AM 2.64 36.752 0.032 6.77 1.67 13.06
1/14/2021 7:30:00 AM 2.64 36.752 0.031 6.77 1.87 13.07
1/14/2021 7:45:00 AM 2.65 36.77 0.032 6.77 2.08 13.07
1/14/2021 8:00:00 AM 2.65 36.77 0.032 6.78 1.77 13.08
1/14/2021 8:15:00 AM 2.65 36.77 0.031 6.78 1.76 13.08
1/14/2021 8:30:00 AM 2.65 36.77 0.031 6.8 1.77 13.11
1/14/2021 8:45:00 AM 2.65 36.77 0.031 6.79 1.92 13.12
1/14/2021 9:00:00 AM 2.67 36.806 0.032 6.79 3.01 13.13
1/14/2021 9:15:00 AM 2.69 36.842 0.031 6.79 2.38 13.15
1/14/2021 9:30:00 AM 2.71 36.878 0.031 6.82 2.58 13.17
1/14/2021 9:45:00 AM 2.75 36.95 0.031 6.81 2.74 13.17
1/14/2021 10:00:00 AM 2.79 37.022 0.031 6.8 2.37 13.17
1/14/2021 10:15:00 AM 2.83 37.094 0.031 6.8 3.26 13.18
1/14/2021 10:30:00 AM 2.9 37.22 0.031 6.8 1.63 13.17
1/14/2021 10:45:00 AM 3 37.4 0.031 6.82 1.86 13.16
1/14/2021 11:00:00 AM 3.1 37.58 0.031 6.82 6.8 13.12
1/14/2021 11:15:00 AM 3.17 37.706 0.031 6.83 7.3 13.1
1/14/2021 11:30:00 AM 3.22 37.796 0.031 6.83 8.32 13.08
1/14/2021 11:45:00 AM 3.31 37.958 0.031 6.82 7.97 13.05
1/14/2021 12:00:00 PM 3.38 38.084 0.031 6.83 2.6 13.03
1/14/2021 12:15:00 PM 3.4 38.12 0.031 6.84 3.6 13
1/14/2021 12:30:00 PM 3.4 38.12 0.031 6.82 7.72 12.97
1/14/2021 12:45:00 PM 3.42 38.156 0.031 6.82 3.33 12.95
1/14/2021 1:00:00 PM 3.46 38.228 0.031 6.83 3.29 12.94
1/14/2021 1:15:00 PM 3.52 38.336 0.031 6.78 2.01 12.92
1/14/2021 1:30:00 PM 3.59 38.462 0.031 6.79 3.04 12.91
1/14/2021 1:45:00 PM 3.67 38.606 0.031 6.86 3.83 12.91
1/14/2021 2:00:00 PM 3.75 38.75 0.031 6.8 4.03 12.86
1/14/2021 2:15:00 PM 3.79 38.822 0.031 6.82 5.22 12.84
1/14/2021 2:30:00 PM 3.81 38.858 0.031 6.82 4.07 12.82
1/14/2021 2:45:00 PM 3.83 38.894 0.031 6.86 1.63 12.82
1/14/2021 3:00:00 PM 3.89 39.002 0.031 6.81 2.84 12.79
1/14/2021 3:15:00 PM 3.93 39.074 0.031 6.81 2.26 12.77
1/14/2021 3:30:00 PM 3.96 39.128 0.031 6.79 2.05 12.76
1/14/2021 3:45:00 PM 3.98 39.164 0.031 6.83 10.68 12.76
1/14/2021 4:00:00 PM 3.97 39.146 0.031 6.8 3.94 12.73
1/14/2021 4:15:00 PM 3.92 39.056 0.031 6.81 3.22 12.71
1/14/2021 4:30:00 PM 3.85 38.93 0.031 6.8 3.24 12.7
1/14/2021 4:45:00 PM 3.79 38.822 0.031 6.82 3.4 12.7
1/14/2021 5:00:00 PM 3.74 38.732 0.031 6.79 2 12.69
1/14/2021 5:15:00 PM 3.69 38.642 0.031 6.8 7.8 12.68
1/14/2021 5:30:00 PM 3.64 38.552 0.031 6.79 1.76 12.68
1/14/2021 5:45:00 PM 3.6 38.48 0.031 6.78 1.84 12.69
1/14/2021 6:00:00 PM 3.55 38.39 0.031 6.8 1.86 12.71
1/14/2021 6:15:00 PM 3.5 38.3 0.031 6.77 1.77 12.7
1/14/2021 6:30:00 PM 3.45 38.21 0.031 6.8 1.86 12.74
1/14/2021 6:45:00 PM 3.4 38.12 0.031 6.78 1.83 12.76
1/14/2021 7:00:00 PM 3.36 38.048 0.031 6.79 1.86 12.76
1/14/2021 7:15:00 PM 3.32 37.976 0.031 6.81 1.96 12.8
1/14/2021 7:30:00 PM 3.28 37.904 0.031 6.79 1.88 12.79
1/14/2021 7:45:00 PM 3.24 37.832 0.031 6.79 1.8 12.81
1/14/2021 8:00:00 PM 3.2 37.76 0.031 6.78 1.84 12.84
1/14/2021 8:15:00 PM 3.16 37.688 0.031 6.79 1.82 12.84
1/14/2021 8:30:00 PM 3.12 37.616 0.031 6.79 1.86 12.86
1/14/2021 8:45:00 PM 3.09 37.562 0.031 6.8 1.84 12.89
1/14/2021 9:00:00 PM 3.06 37.508 0.031 6.79 1.83 12.89
1/14/2021 9:15:00 PM 3.03 37.454 0.031 6.77 1.8 12.91
1/14/2021 9:30:00 PM 3 37.4 0.031 6.79 1.87 12.92
1/14/2021 9:45:00 PM 2.99 37.382 0.031 6.78 1.78 12.92
1/14/2021 10:00:00 PM 2.97 37.346 0.031 6.77 1.91 12.93
1/14/2021 10:15:00 PM 2.95 37.31 0.031 6.79 1.81 12.94
1/14/2021 10:30:00 PM 2.92 37.256 0.032 6.78 1.82 12.95
1/14/2021 10:45:00 PM 2.9 37.22 0.032 6.78 1.81 12.95
1/14/2021 11:00:00 PM 2.87 37.166 0.031 6.8 1.74 12.98
1/14/2021 11:15:00 PM 2.85 37.13 0.032 6.79 1.78 12.98
1/14/2021 11:30:00 PM 2.82 37.076 0.031 6.78 2.67 12.99
1/14/2021 11:45:00 PM 2.79 37.022 0.032 6.76 1.78 12.99
1/15/2021 12:00:00 AM 2.77 36.986 0.032 6.77 1.75 13
1/15/2021 12:15:00 AM 2.73 36.914 0.032 6.79 1.78 13.03
1/15/2021 12:30:00 AM 2.7 36.86 0.032 6.78 1.77 13.03
1/15/2021 12:45:00 AM 2.67 36.806 0.031 6.8 1.76 13.05
1/15/2021 1:00:00 AM 2.65 36.77 0.032 6.77 1.79 13.05
1/15/2021 1:15:00 AM 2.62 36.716 0.032 6.76 1.8 13.06
1/15/2021 1:30:00 AM 2.59 36.662 0.032 6.77 1.79 13.05
1/15/2021 1:45:00 AM 2.57 36.626 0.032 6.78 1.81 13.08
1/15/2021 2:00:00 AM 2.56 36.608 0.032 6.77 1.82 13.1
1/15/2021 2:15:00 AM 2.53 36.554 0.032 6.79 1.77 13.11
1/15/2021 2:30:00 AM 2.53 36.554 0.032 6.77 1.69 13.1
1/15/2021 2:45:00 AM 2.51 36.518 0.032 6.77 1.8 13.1
1/15/2021 3:00:00 AM 2.49 36.482 0.032 6.77 1.86 13.12
1/15/2021 3:15:00 AM 2.49 36.482 0.032 6.77 1.93 13.11
1/15/2021 3:30:00 AM 2.47 36.446 0.032 6.79 1.71 13.14
1/15/2021 3:45:00 AM 2.47 36.446 0.032 6.77 1.78 13.12
1/15/2021 4:00:00 AM 2.45 36.41 0.032 6.79 1.85 13.14
1/15/2021 4:15:00 AM 2.44 36.392 0.032 6.78 1.84 13.14
1/15/2021 4:30:00 AM 2.42 36.356 0.032 6.77 1.77 13.14
1/15/2021 4:45:00 AM 2.39 36.302 0.032 6.78 1.89 13.15
1/15/2021 5:00:00 AM 2.38 36.284 0.032 6.77 1.86 13.15
1/15/2021 5:15:00 AM 2.36 36.248 0.032 6.76 1.96 13.15
1/15/2021 5:30:00 AM 2.35 36.23 0.032 6.77 1.84 13.16
1/15/2021 5:45:00 AM 2.34 36.212 0.032 6.78 1.84 13.16
1/15/2021 6:00:00 AM 2.33 36.194 0.032 6.76 1.81 13.17
1/15/2021 6:15:00 AM 2.32 36.176 0.032 6.78 1.81 13.17
1/15/2021 6:30:00 AM 2.32 36.176 0.032 6.76 1.86 13.17
1/15/2021 6:45:00 AM 2.32 36.176 0.032 6.77 1.86 13.18
1/15/2021 7:00:00 AM 2.31 36.158 0.032 6.77 1.84 13.18
1/15/2021 7:15:00 AM 2.32 36.176 0.032 6.77 1.77 13.17
1/15/2021 7:30:00 AM 2.32 36.176 0.032 6.77 1.77 13.18
1/15/2021 7:45:00 AM 2.34 36.212 0.032 6.77 1.81 13.17
1/15/2021 8:00:00 AM 2.35 36.23 0.032 6.77 1.75 13.19
1/15/2021 8:15:00 AM 2.36 36.248 0.032 6.78 2.24 13.2
1/15/2021 8:30:00 AM 2.38 36.284 0.032 6.78 2.47 13.22
1/15/2021 8:45:00 AM 2.41 36.338 0.031 6.78 3.3 13.22
1/15/2021 9:00:00 AM 2.45 36.41 0.031 6.8 1.77 13.26
1/15/2021 9:15:00 AM 2.49 36.482 0.032 6.79 2.55 13.24
1/15/2021 9:30:00 AM 2.54 36.572 0.031 6.8 2.9 13.24
1/15/2021 9:45:00 AM 2.6 36.68 0.031 6.82 4.1 13.25
1/15/2021 10:00:00 AM 2.66 36.788 0.031 6.83 4.17 13.23
1/15/2021 10:15:00 AM 2.71 36.878 0.031 6.83 4.75 13.22
1/15/2021 10:30:00 AM 2.75 36.95 0.031 6.81 10.24 13.19
1/15/2021 10:45:00 AM 2.8 37.04 0.031 6.81 4.54 13.17
1/15/2021 11:00:00 AM 2.85 37.13 0.031 6.82 6.38 13.16
1/15/2021 11:15:00 AM 2.9 37.22 0.031 6.81 9.31 13.12
1/15/2021 11:30:00 AM 2.95 37.31 0.031 6.79 6.48 13.11
1/15/2021 11:45:00 AM 3 37.4 0.031 6.82 3.59 13.1
1/15/2021 12:00:00 PM 3.07 37.526 0.031 6.82 2.72 13.08
1/15/2021 12:15:00 PM 3.14 37.652 0.031 6.82 1.6 13.05
1/15/2021 12:30:00 PM 3.18 37.724 0.031 6.83 1.58 13.04
1/15/2021 12:45:00 PM 3.2 37.76 0.031 6.81 5.99 13.01
1/15/2021 1:00:00 PM 3.24 37.832 0.031 6.82 2.51 13
1/15/2021 1:15:00 PM 3.3 37.94 0.031 6.82 1.93 12.98
1/15/2021 1:30:00 PM 3.43 38.174 0.031 6.83 1.61 12.95
1/15/2021 1:45:00 PM 3.53 38.354 0.031 6.81 1.73 12.91
1/15/2021 2:00:00 PM 3.58 38.444 0.031 6.81 1.73 12.88
1/15/2021 2:15:00 PM 3.56 38.408 0.031 6.84 1.74 12.87
1/15/2021 2:30:00 PM 3.51 38.318 0.031 6.81 1.66 12.84
1/15/2021 2:45:00 PM 3.49 38.282 0.031 6.83 1.71 12.84
1/15/2021 3:00:00 PM 3.51 38.318 0.031 6.81 2.52 12.83
1/15/2021 3:15:00 PM 3.53 38.354 0.031 6.83 1.68 12.84
1/15/2021 3:30:00 PM 3.54 38.372 0.031 6.84 1.59 12.82
1/15/2021 3:45:00 PM 3.55 38.39 0.031 6.81 1.6 12.8
1/15/2021 4:00:00 PM 3.54 38.372 0.031 6.81 1.73 12.78
1/15/2021 4:15:00 PM 3.54 38.372 0.031 6.79 1.76 12.75
1/15/2021 4:30:00 PM 3.53 38.354 0.031 6.82 1.79 12.74
1/15/2021 4:45:00 PM 3.52 38.336 0.031 6.77 4.61 12.7
1/15/2021 5:00:00 PM 3.51 38.318 0.031 6.79 9.26 12.71
1/15/2021 5:15:00 PM 3.5 38.3 0.031 6.79 4.14 12.7
1/15/2021 5:30:00 PM 3.48 38.264 0.032 6.78 3.62 12.7
1/15/2021 5:45:00 PM 3.47 38.246 0.031 6.79 3.81 12.7
1/15/2021 6:00:00 PM 3.46 38.228 0.032 6.77 4.05 12.7
1/15/2021 6:15:00 PM 3.44 38.192 0.031 6.78 4.6 12.71
1/15/2021 6:30:00 PM 3.44 38.192 0.031 6.79 4.82 12.7
1/15/2021 6:45:00 PM 3.42 38.156 0.031 6.78 7.17 12.71
1/15/2021 7:00:00 PM 3.41 38.138 0.031 6.78 26.36 12.7
1/15/2021 7:15:00 PM 3.4 38.12 0.031 6.75 6.29 12.72
1/15/2021 7:30:00 PM 3.39 38.102 0.031 6.8 10.54 12.72
1/15/2021 7:45:00 PM 3.39 38.102 0.032 6.75 2.97 12.74
1/15/2021 8:00:00 PM 3.38 38.084 0.032 6.79 8.53 12.73
1/15/2021 8:15:00 PM 3.38 38.084 0.032 6.78 14.86 12.73
1/15/2021 8:30:00 PM 3.37 38.066 0.032 6.8 11.12 12.74
1/15/2021 8:45:00 PM 3.36 38.048 0.032 6.77 7.32 12.75
1/15/2021 9:00:00 PM 3.35 38.03 0.032 6.79 6.94 12.75
1/15/2021 9:15:00 PM 3.34 38.012 0.032 6.79 5.74 12.75
1/15/2021 9:30:00 PM 3.34 38.012 0.032 6.79 8.29 12.76
1/15/2021 9:45:00 PM 3.33 37.994 0.032 6.79 7.19 12.76
1/15/2021 10:00:00 PM 3.31 37.958 0.032 6.79 7.28 12.76
1/15/2021 10:15:00 PM 3.28 37.904 0.032 6.8 6.43 12.77
1/15/2021 10:30:00 PM 3.26 37.868 0.032 6.79 6.71 12.78
1/15/2021 10:45:00 PM 3.25 37.85 0.032 6.78 7.43 12.78
1/15/2021 11:00:00 PM 3.25 37.85 0.032 6.8 5.68 12.79
1/15/2021 11:15:00 PM 3.24 37.832 0.032 6.79 5.88 12.79
1/15/2021 11:30:00 PM 3.22 37.796 0.032 6.8 6.36 12.8
1/15/2021 11:45:00 PM 3.19 37.742 0.031 6.78 6.44 12.8
1/16/2021 12:00:00 AM 3.18 37.724 0.031 6.8 6.6 12.81
1/16/2021 12:15:00 AM 3.17 37.706 0.031 6.78 6.59 12.81
1/16/2021 12:30:00 AM 3.17 37.706 0.031 6.8 6.77 12.82
1/16/2021 12:45:00 AM 3.17 37.706 0.031 6.8 12.47 12.82
1/16/2021 1:00:00 AM 3.16 37.688 0.031 6.8 4.16 12.82
1/16/2021 1:15:00 AM 3.16 37.688 0.031 6.8 6.08 12.83
1/16/2021 1:30:00 AM 3.14 37.652 0.031 6.8 6.28 12.83
1/16/2021 1:45:00 AM 3.13 37.634 0.031 6.81 4.59 12.83
1/16/2021 2:00:00 AM 3.13 37.634 0.031 6.8 8.23 12.84
1/16/2021 2:15:00 AM 3.12 37.616 0.031 6.8 8.07 12.84
1/16/2021 2:30:00 AM 3.11 37.598 0.031 6.82 5.31 12.85
1/16/2021 2:45:00 AM 3.1 37.58 0.031 6.81 5.11 12.84
1/16/2021 3:00:00 AM 3.08 37.544 0.031 6.78 5.44 12.84
1/16/2021 3:15:00 AM 3.06 37.508 0.031 6.8 5.7 12.85
1/16/2021 3:30:00 AM 3.04 37.472 0.031 6.8 5.46 12.86
1/16/2021 3:45:00 AM 3.01 37.418 0.031 6.78 5.48 12.85
1/16/2021 4:00:00 AM 3 37.4 0.031 6.8 5.38 12.86
1/16/2021 4:15:00 AM 2.97 37.346 0.031 6.8 5.4 12.87
1/16/2021 4:30:00 AM 2.96 37.328 0.031 6.79 5.2 12.87
1/16/2021 4:45:00 AM 2.94 37.292 0.031 6.81 5.54 12.88
1/16/2021 5:00:00 AM 2.92 37.256 0.031 6.8 5.54 12.89
1/16/2021 5:15:00 AM 2.9 37.22 0.031 6.81 5.89 12.9
1/16/2021 5:30:00 AM 2.88 37.184 0.031 6.81 5.53 12.9
1/16/2021 5:45:00 AM 2.86 37.148 0.031 6.8 4.81 12.9
1/16/2021 6:00:00 AM 2.85 37.13 0.031 6.8 5.68 12.91
1/16/2021 6:15:00 AM 2.84 37.112 0.031 6.81 6.04 12.92
1/16/2021 6:30:00 AM 2.84 37.112 0.031 6.79 5.4 12.91
1/16/2021 6:45:00 AM 2.83 37.094 0.031 6.8 5.36 12.92
1/16/2021 7:00:00 AM 2.82 37.076 0.031 6.8 4.76 12.92
1/16/2021 7:15:00 AM 2.8 37.04 0.031 6.8 4.36 12.93
1/16/2021 7:30:00 AM 2.78 37.004 0.031 6.8 4.03 12.94
1/16/2021 7:45:00 AM 2.76 36.968 0.031 6.8 5.19 12.95
1/16/2021 8:00:00 AM 2.76 36.968 0.031 6.8 6.02 12.96
1/16/2021 8:15:00 AM 2.75 36.95 0.031 6.8 5.02 12.97
1/16/2021 8:30:00 AM 2.75 36.95 0.031 6.8 5.31 12.99
1/16/2021 8:45:00 AM 2.75 36.95 0.031 6.82 4.29 13.01
1/16/2021 9:00:00 AM 2.75 36.95 0.031 6.81 4.42 13.01
1/16/2021 9:15:00 AM 2.76 36.968 0.031 6.81 5.54 13.02
1/16/2021 9:30:00 AM 2.77 36.986 0.031 6.83 4.92 13.05
1/16/2021 9:45:00 AM 2.79 37.022 0.031 6.84 5.3 13.05
1/16/2021 10:00:00 AM 2.82 37.076 0.031 6.82 4.36 13.07
1/16/2021 10:15:00 AM 2.87 37.166 0.031 6.81 6.39 13.06
1/16/2021 10:30:00 AM 2.88 37.184 0.031 6.85 5.42 13.06
1/16/2021 10:45:00 AM 2.91 37.238 0.031 6.83 4.76 13.06
1/16/2021 11:00:00 AM 2.94 37.292 0.031 6.83 4.1 13.04
1/16/2021 11:15:00 AM 2.98 37.364 0.031 6.83 5.34 13.04
1/16/2021 11:30:00 AM 3 37.4 0.031 6.83 4.31 13.02
1/16/2021 11:45:00 AM 3.06 37.508 0.031 6.85 3.08 13.02
1/16/2021 12:00:00 PM 3.15 37.67 0.031 6.85 2.1 13
1/16/2021 12:15:00 PM 3.16 37.688 0.031 6.82 14.58 12.96
1/16/2021 12:30:00 PM 3.14 37.652 0.031 6.84 3.55 12.95
1/16/2021 12:45:00 PM 3.14 37.652 0.031 6.82 5.05 12.94
1/16/2021 1:00:00 PM 3.16 37.688 0.031 6.83 4.41 12.93
1/16/2021 1:15:00 PM 3.2 37.76 0.031 6.83 5.12 12.92
1/16/2021 1:30:00 PM 3.21 37.778 0.031 6.84 5.3 12.91
1/16/2021 1:45:00 PM 3.21 37.778 0.031 6.82 3.85 12.9
1/16/2021 2:00:00 PM 3.25 37.85 0.031 6.84 3.97 12.9
1/16/2021 2:15:00 PM 3.29 37.922 0.031 6.82 4.94 12.89
1/16/2021 2:30:00 PM 3.32 37.976 0.031 6.83 5.37 12.87
1/16/2021 2:45:00 PM 3.33 37.994 0.031 6.84 4.97 12.87
1/16/2021 3:00:00 PM 3.34 38.012 0.031 6.84 4.13 12.86
1/16/2021 3:15:00 PM 3.36 38.048 0.031 6.83 7.84 12.85
1/16/2021 3:30:00 PM 3.37 38.066 0.031 6.84 4.99 12.84
1/16/2021 3:45:00 PM 3.37 38.066 0.031 6.83 4.7 12.84
1/16/2021 4:00:00 PM 3.35 38.03 0.031 6.83 4.71 12.83
1/16/2021 4:15:00 PM 3.34 38.012 0.031 6.84 5.51 12.82
1/16/2021 4:30:00 PM 3.31 37.958 0.031 6.85 4.71 12.82
1/16/2021 4:45:00 PM 3.29 37.922 0.031 6.81 7.15 12.79
1/16/2021 5:00:00 PM 3.26 37.868 0.031 6.79 4.78 12.77
1/16/2021 5:15:00 PM 3.25 37.85 0.031 6.81 3.9 12.76
1/16/2021 5:30:00 PM 3.22 37.796 0.031 6.81 3.19 12.75
1/16/2021 5:45:00 PM 3.18 37.724 0.031 6.8 3.47 12.75
1/16/2021 6:00:00 PM 3.14 37.652 0.031 6.8 3.71 12.75
1/16/2021 6:15:00 PM 3.12 37.616 0.031 6.8 4.39 12.76
1/16/2021 6:30:00 PM 3.12 37.616 0.031 6.8 4.69 12.77
1/16/2021 6:45:00 PM 3.12 37.616 0.031 6.8 4.55 12.78
1/16/2021 7:00:00 PM 3.12 37.616 0.031 6.8 4.84 12.77
1/16/2021 7:15:00 PM 3.08 37.544 0.031 6.79 4.68 12.78
1/16/2021 7:30:00 PM 3.04 37.472 0.031 6.8 4.63 12.79
1/16/2021 7:45:00 PM 3.01 37.418 0.031 6.8 5.04 12.8
1/16/2021 8:00:00 PM 3 37.4 0.031 6.78 4.87 12.8
1/16/2021 8:15:00 PM 2.98 37.364 0.031 6.8 4.88 12.81
1/16/2021 8:30:00 PM 2.96 37.328 0.031 6.79 4.75 12.82
1/16/2021 8:45:00 PM 2.92 37.256 0.031 6.8 3.95 12.82
1/16/2021 9:00:00 PM 2.89 37.202 0.031 6.8 4.17 12.85
1/16/2021 9:15:00 PM 2.88 37.184 0.031 6.79 4.99 12.85
1/16/2021 9:30:00 PM 2.87 37.166 0.031 6.8 4.89 12.86
1/16/2021 9:45:00 PM 2.86 37.148 0.031 6.79 3.94 12.86
1/16/2021 10:00:00 PM 2.84 37.112 0.031 6.79 4.9 12.87
1/16/2021 10:15:00 PM 2.82 37.076 0.031 6.78 5.07 12.88
1/16/2021 10:30:00 PM 2.8 37.04 0.031 6.79 5 12.88
1/16/2021 10:45:00 PM 2.77 36.986 0.031 6.81 4.82 12.89
1/16/2021 11:00:00 PM 2.75 36.95 0.031 6.8 5.09 12.9
1/16/2021 11:15:00 PM 2.74 36.932 0.031 6.79 5.04 12.91
1/16/2021 11:30:00 PM 2.73 36.914 0.031 6.78 4.8 12.92
1/16/2021 11:45:00 PM 2.72 36.896 0.031 6.79 4.98 12.92
1/17/2021 12:00:00 AM 2.71 36.878 0.031 6.8 4.89 12.93
1/17/2021 12:15:00 AM 2.69 36.842 0.031 6.79 4.98 12.94
1/17/2021 12:30:00 AM 2.68 36.824 0.031 6.79 4.71 12.94
1/17/2021 12:45:00 AM 2.67 36.806 0.031 6.78 4.98 12.94
1/17/2021 1:00:00 AM 2.66 36.788 0.031 6.8 4.95 12.94
1/17/2021 1:15:00 AM 2.65 36.77 0.031 6.79 5.89 12.94
1/17/2021 1:30:00 AM 2.63 36.734 0.031 6.77 5.29 12.95
1/17/2021 1:45:00 AM 2.61 36.698 0.031 6.79 5.06 12.96
1/17/2021 2:00:00 AM 2.6 36.68 0.031 6.8 5.04 12.98
1/17/2021 2:15:00 AM 2.6 36.68 0.031 6.79 4.93 12.97
1/17/2021 2:30:00 AM 2.58 36.644 0.031 6.79 4.19 12.98
1/17/2021 2:45:00 AM 2.56 36.608 0.031 6.79 4.05 12.99
1/17/2021 3:00:00 AM 2.55 36.59 0.031 6.8 4.57 13
1/17/2021 3:15:00 AM 2.53 36.554 0.031 6.79 5.08 13
1/17/2021 3:30:00 AM 2.51 36.518 0.031 6.8 5.06 13.01
1/17/2021 3:45:00 AM 2.5 36.5 0.031 6.79 5.12 13.02
1/17/2021 4:00:00 AM 2.5 36.5 0.031 6.79 5 13.01
1/17/2021 4:15:00 AM 2.5 36.5 0.031 6.8 4.83 13.02
1/17/2021 4:30:00 AM 2.49 36.482 0.031 6.76 4.97 13.03
1/17/2021 4:45:00 AM 2.47 36.446 0.031 6.79 4.82 13.03
1/17/2021 5:00:00 AM 2.47 36.446 0.031 6.8 4.95 13.03
1/17/2021 5:15:00 AM 2.46 36.428 0.031 6.79 3.91 13.04
1/17/2021 5:30:00 AM 2.47 36.446 0.031 6.8 4.16 13.04
1/17/2021 5:45:00 AM 2.46 36.428 0.031 6.78 4.56 13.04
1/17/2021 6:00:00 AM 2.46 36.428 0.031 6.8 5.06 13.04
1/17/2021 6:15:00 AM 2.46 36.428 0.031 6.77 5.04 13.04
1/17/2021 6:30:00 AM 2.46 36.428 0.032 6.79 4.84 13.05
1/17/2021 6:45:00 AM 2.46 36.428 0.032 6.79 4.81 13.05
1/17/2021 7:00:00 AM 2.44 36.392 0.031 6.81 4.6 13.06
1/17/2021 7:15:00 AM 2.44 36.392 0.031 6.79 4.56 13.06
1/17/2021 7:30:00 AM 2.44 36.392 0.031 6.78 4.4 13.06
1/17/2021 7:45:00 AM 2.45 36.41 0.032 6.79 4.03 13.06
1/17/2021 8:00:00 AM 2.46 36.428 0.031 6.79 3.83 13.07
1/17/2021 8:15:00 AM 2.47 36.446 0.031 6.8 3.08 13.07
1/17/2021 8:30:00 AM 2.48 36.464 0.032 6.79 3.17 13.07
1/17/2021 8:45:00 AM 2.49 36.482 0.032 6.78 4.3 13.09
1/17/2021 9:00:00 AM 2.51 36.518 0.032 6.8 5.49 13.11
1/17/2021 9:15:00 AM 2.52 36.536 0.031 6.81 5.09 13.13
1/17/2021 9:30:00 AM 2.54 36.572 0.031 6.82 5.6 13.13
1/17/2021 9:45:00 AM 2.56 36.608 0.031 6.83 5.5 13.14
1/17/2021 10:00:00 AM 2.59 36.662 0.031 6.83 5.39 13.15
1/17/2021 10:15:00 AM 2.61 36.698 0.031 6.82 3.82 13.15
1/17/2021 10:30:00 AM 2.64 36.752 0.031 6.84 4.75 13.16
1/17/2021 10:45:00 AM 2.67 36.806 0.031 6.84 3.98 13.17
1/17/2021 11:00:00 AM 2.7 36.86 0.031 6.85 4.98 13.16
1/17/2021 11:15:00 AM 2.74 36.932 0.031 6.83 4.87 13.15
1/17/2021 11:30:00 AM 2.76 36.968 0.031 6.83 5.01 13.15
1/17/2021 11:45:00 AM 2.78 37.004 0.031 6.83 1.81 13.12
1/17/2021 12:00:00 PM 2.8 37.04 0.031 6.83 1.72 13.11
1/17/2021 12:15:00 PM 2.81 37.058 0.031 6.85 1.85 13.12
1/17/2021 12:30:00 PM 2.84 37.112 0.031 6.86 1.94 13.11
1/17/2021 12:45:00 PM 2.87 37.166 0.031 6.85 2.03 13.1
1/17/2021 1:00:00 PM 2.91 37.238 0.031 6.83 4.03 13.08
1/17/2021 1:15:00 PM 2.93 37.274 0.031 6.83 5.7 13.07
1/17/2021 1:30:00 PM 2.97 37.346 0.031 6.84 5 13.06
1/17/2021 1:45:00 PM 3.01 37.418 0.031 6.84 4.5 13.06
1/17/2021 2:00:00 PM 3.03 37.454 0.031 6.85 4.7 13.04
1/17/2021 2:15:00 PM 3.05 37.49 0.031 6.85 2.46 13.04
1/17/2021 2:30:00 PM 3.08 37.544 0.031 6.83 1.85 13.02
1/17/2021 2:45:00 PM 3.09 37.562 0.031 6.83 1.67 12.99
1/17/2021 3:00:00 PM 3.11 37.598 0.031 6.84 4.99 13
1/17/2021 3:15:00 PM 3.09 37.562 0.031 6.84 1.9 12.98
1/17/2021 3:30:00 PM 3.09 37.562 0.031 6.83 7.2 12.97
1/17/2021 3:45:00 PM 3.1 37.58 0.031 6.83 4.24 12.97
1/17/2021 4:00:00 PM 3.11 37.598 0.031 6.84 4.31 12.97
1/17/2021 4:15:00 PM 3.13 37.634 0.031 6.85 4.73 12.96
1/17/2021 4:30:00 PM 3.14 37.652 0.031 6.84 4.64 12.96
1/17/2021 4:45:00 PM 3.14 37.652 0.031 6.84 4.33 12.93
1/17/2021 5:00:00 PM 3.13 37.634 0.031 6.82 5.21 12.9
1/17/2021 5:15:00 PM 3.12 37.616 0.032 6.8 5.3 12.87
1/17/2021 5:30:00 PM 3.11 37.598 0.032 6.8 3.17 12.86
1/17/2021 5:45:00 PM 3.1 37.58 0.032 6.81 5.63 12.85
1/17/2021 6:00:00 PM 3.08 37.544 0.032 6.8 5.91 12.85
1/17/2021 6:15:00 PM 3.07 37.526 0.032 6.81 4.37 12.85
1/17/2021 6:30:00 PM 3.06 37.508 0.031 6.81 1.76 12.85
1/17/2021 6:45:00 PM 3.05 37.49 0.032 6.82 1.79 12.86
1/17/2021 7:00:00 PM 3.05 37.49 0.032 6.8 1.84 12.85
1/17/2021 7:15:00 PM 3.03 37.454 0.032 6.8 1.82 12.86
1/17/2021 7:30:00 PM 3.02 37.436 0.032 6.8 1.83 12.86
1/17/2021 7:45:00 PM 3.01 37.418 0.032 6.8 1.86 12.86
1/17/2021 8:00:00 PM 3.01 37.418 0.032 6.8 1.81 12.87
1/17/2021 8:15:00 PM 3 37.4 0.032 6.8 1.82 12.87
1/17/2021 8:30:00 PM 3 37.4 0.032 6.81 1.88 12.88
1/17/2021 8:45:00 PM 2.99 37.382 0.032 6.8 1.83 12.88
1/17/2021 9:00:00 PM 2.98 37.364 0.032 6.8 1.81 12.87
1/17/2021 9:15:00 PM 2.97 37.346 0.032 6.8 1.82 12.88
1/17/2021 9:30:00 PM 2.92 37.256 0.032 6.8 1.86 12.89
1/17/2021 9:45:00 PM 2.89 37.202 0.032 6.79 1.85 12.88
1/17/2021 10:00:00 PM 2.88 37.184 0.032 6.79 1.9 12.9
1/17/2021 10:15:00 PM 2.87 37.166 0.032 6.8 1.82 12.9
1/17/2021 10:30:00 PM 2.85 37.13 0.032 6.8 1.8 12.91
1/17/2021 10:45:00 PM 2.84 37.112 0.032 6.77 1.85 12.91
1/17/2021 11:00:00 PM 2.81 37.058 0.032 6.79 1.83 12.92
1/17/2021 11:15:00 PM 2.78 37.004 0.032 6.79 1.82 12.93
1/17/2021 11:30:00 PM 2.76 36.968 0.032 6.82 1.89 12.94
1/17/2021 11:45:00 PM 2.77 36.986 0.032 6.81 1.86 12.95
1/18/2021 12:00:00 AM 2.78 37.004 0.032 6.79 1.84 12.93
1/18/2021 12:15:00 AM 2.78 37.004 0.032 6.81 1.89 12.94
1/18/2021 12:30:00 AM 2.77 36.986 0.032 6.81 1.84 12.96
1/18/2021 12:45:00 AM 2.77 36.986 0.032 6.78 2.04 12.94
1/18/2021 1:00:00 AM 2.77 36.986 0.032 6.79 1.87 12.94
1/18/2021 1:15:00 AM 2.76 36.968 0.032 6.79 1.85 12.94
1/18/2021 1:30:00 AM 2.76 36.968 0.032 6.8 1.8 12.95
1/18/2021 1:45:00 AM 2.75 36.95 0.032 6.78 1.84 12.94
1/18/2021 2:00:00 AM 2.74 36.932 0.032 6.78 1.77 12.94
1/18/2021 2:15:00 AM 2.74 36.932 0.032 6.78 1.91 12.95
1/18/2021 2:30:00 AM 2.74 36.932 0.032 6.79 1.85 12.96
1/18/2021 2:45:00 AM 2.74 36.932 0.032 6.79 1.85 12.95
1/18/2021 3:00:00 AM 2.74 36.932 0.032 6.79 1.87 12.95
1/18/2021 3:15:00 AM 2.74 36.932 0.032 6.79 1.85 12.96
1/18/2021 3:30:00 AM 2.74 36.932 0.032 6.79 1.79 12.96
1/18/2021 3:45:00 AM 2.74 36.932 0.032 6.79 1.78 12.95
1/18/2021 4:00:00 AM 2.73 36.914 0.032 6.8 1.78 12.96
1/18/2021 4:15:00 AM 2.74 36.932 0.032 6.79 1.78 12.96
1/18/2021 4:30:00 AM 2.73 36.914 0.032 6.8 1.76 12.96
1/18/2021 4:45:00 AM 2.73 36.914 0.032 6.77 1.79 12.95
1/18/2021 5:00:00 AM 2.72 36.896 0.032 6.79 1.75 12.96
1/18/2021 5:15:00 AM 2.71 36.878 0.032 6.79 1.81 12.97
1/18/2021 5:30:00 AM 2.71 36.878 0.032 6.79 1.77 12.96
1/18/2021 5:45:00 AM 2.71 36.878 0.032 6.79 1.8 12.97
1/18/2021 6:00:00 AM 2.71 36.878 0.032 6.79 1.81 12.97
1/18/2021 6:15:00 AM 2.71 36.878 0.032 6.79 1.74 12.97
1/18/2021 6:30:00 AM 2.7 36.86 0.032 6.77 1.81 12.98
1/18/2021 6:45:00 AM 2.69 36.842 0.032 6.78 1.78 12.98
1/18/2021 7:00:00 AM 2.69 36.842 0.032 6.78 1.75 12.98
1/18/2021 7:15:00 AM 2.67 36.806 0.032 6.81 1.79 12.99
1/18/2021 7:30:00 AM 2.67 36.806 0.032 6.79 1.8 12.99
1/18/2021 7:45:00 AM 2.66 36.788 0.032 6.79 1.78 13.01
1/18/2021 8:00:00 AM 2.67 36.806 0.032 6.81 1.83 13.02
1/18/2021 8:15:00 AM 2.68 36.824 0.032 6.79 1.75 13.03
1/18/2021 8:30:00 AM 2.7 36.86 0.032 6.81 1.7 13.06
1/18/2021 8:45:00 AM 2.71 36.878 0.032 6.83 1.64 13.1
1/18/2021 9:00:00 AM 2.72 36.896 0.032 6.81 1.62 13.1
1/18/2021 9:15:00 AM 2.74 36.932 0.032 6.84 1.68 13.13
1/18/2021 9:30:00 AM 2.76 36.968 0.032 6.84 1.7 13.13
1/18/2021 9:45:00 AM 2.77 36.986 0.032 6.84 1.7 13.14
1/18/2021 10:00:00 AM 2.79 37.022 0.032 6.84 1.69 13.14
1/18/2021 10:15:00 AM 2.82 37.076 0.032 6.85 1.63 13.15
1/18/2021 10:30:00 AM 2.85 37.13 0.032 6.86 1.68 13.15
1/18/2021 10:45:00 AM 2.88 37.184 0.032 6.84 1.63 13.14
1/18/2021 11:00:00 AM 2.9 37.22 0.032 6.85 1.66 13.14
1/18/2021 11:15:00 AM 2.91 37.238 0.032 6.83 1.68 13.12
1/18/2021 11:30:00 AM 2.91 37.238 0.032 6.84 1.64 13.12
1/18/2021 11:45:00 AM 2.92 37.256 0.032 6.84 1.61 13.12
1/18/2021 12:00:00 PM 2.95 37.31 0.032 6.85 1.72 13.12
1/18/2021 12:15:00 PM 2.97 37.346 0.032 6.83 1.6 13.12
1/18/2021 12:30:00 PM 2.99 37.382 0.032 6.84 1.66 13.1
1/18/2021 12:45:00 PM 3.03 37.454 0.032 6.83 1.65 13.09
1/18/2021 1:00:00 PM 3.05 37.49 0.032 6.84 1.6 13.09
1/18/2021 1:15:00 PM 3.05 37.49 0.032 6.84 1.64 13.08
1/18/2021 1:30:00 PM 3.04 37.472 0.032 6.83 1.68 13.07
1/18/2021 1:45:00 PM 3.03 37.454 0.032 6.87 1.64 13.09
1/18/2021 2:00:00 PM 3.04 37.472 0.032 6.86 1.61 13.08
1/18/2021 2:15:00 PM 3.05 37.49 0.032 6.84 1.67 13.07
1/18/2021 2:30:00 PM 3.05 37.49 0.032 6.85 1.62 13.07
1/18/2021 2:45:00 PM 3.03 37.454 0.032 6.85 1.62 13.06
1/18/2021 3:00:00 PM 3.01 37.418 0.032 6.82 1.59 13.05
1/18/2021 3:15:00 PM 2.99 37.382 0.032 6.83 1.66 13.04
1/18/2021 3:30:00 PM 2.98 37.364 0.032 6.83 2.95 13.04
1/18/2021 3:45:00 PM 2.97 37.346 0.032 6.84 1.62 13.04
1/18/2021 4:00:00 PM 2.95 37.31 0.032 6.82 1.67 13.02
1/18/2021 4:15:00 PM 2.93 37.274 0.032 6.82 1.61 13.03
1/18/2021 4:30:00 PM 2.91 37.238 0.032 6.81 1.68 13.03
1/18/2021 4:45:00 PM 2.9 37.22 0.032 6.81 1.62 13.02
1/18/2021 5:00:00 PM 2.88 37.184 0.032 6.83 25.91 13.03
1/18/2021 5:15:00 PM 2.86 37.148 0.032 6.82 1.81 13.01
1/18/2021 5:30:00 PM 2.85 37.13 0.032 6.79 1.78 13.02
1/18/2021 5:45:00 PM 2.84 37.112 0.032 6.79 1.72 13.01
1/18/2021 6:00:00 PM 2.83 37.094 0.032 6.8 1.75 13.01
1/18/2021 6:15:00 PM 2.81 37.058 0.032 6.81 1.73 13.02
1/18/2021 6:30:00 PM 2.81 37.058 0.032 6.77 1.91 13.02
1/18/2021 6:45:00 PM 2.79 37.022 0.032 6.79 1.8 13.02
1/18/2021 7:00:00 PM 2.78 37.004 0.032 6.79 1.71 13.03
1/18/2021 7:15:00 PM 2.76 36.968 0.032 6.8 1.76 13.05
1/18/2021 7:30:00 PM 2.75 36.95 0.032 6.79 1.68 13.05
1/18/2021 7:45:00 PM 2.74 36.932 0.032 6.8 1.8 13.06
1/18/2021 8:00:00 PM 2.73 36.914 0.032 6.8 1.76 13.07
1/18/2021 8:15:00 PM 2.73 36.914 0.032 6.8 1.77 13.06
1/18/2021 8:30:00 PM 2.72 36.896 0.032 6.77 1.79 13.07
1/18/2021 8:45:00 PM 2.71 36.878 0.032 6.79 1.79 13.07
1/18/2021 9:00:00 PM 2.7 36.86 0.032 6.78 1.75 13.07
1/18/2021 9:15:00 PM 2.69 36.842 0.032 6.78 1.77 13.08
1/18/2021 9:30:00 PM 2.68 36.824 0.032 6.8 1.78 13.09
1/18/2021 9:45:00 PM 2.67 36.806 0.032 6.79 1.77 13.09
1/18/2021 10:00:00 PM 2.67 36.806 0.032 6.79 1.78 13.09
1/18/2021 10:15:00 PM 2.67 36.806 0.032 6.79 1.78 13.1
1/18/2021 10:30:00 PM 2.65 36.77 0.032 6.79 1.81 13.11
1/18/2021 10:45:00 PM 2.64 36.752 0.032 6.8 1.72 13.11
1/18/2021 11:00:00 PM 2.63 36.734 0.032 6.79 1.8 13.11
1/18/2021 11:15:00 PM 2.62 36.716 0.032 6.79 1.79 13.12
1/18/2021 11:30:00 PM 2.61 36.698 0.032 6.78 1.68 13.12
1/18/2021 11:45:00 PM 2.6 36.68 0.032 6.77 1.74 13.13
1/19/2021 12:00:00 AM 2.58 36.644 0.032 6.81 1.77 13.15
1/19/2021 12:15:00 AM 2.58 36.644 0.032 6.78 1.73 13.13
1/19/2021 12:30:00 AM 2.56 36.608 0.032 6.79 1.75 13.14
1/19/2021 12:45:00 AM 2.55 36.59 0.032 6.78 1.76 13.14
1/19/2021 1:00:00 AM 2.54 36.572 0.032 6.78 1.79 13.15
1/19/2021 1:15:00 AM 2.51 36.518 0.032 6.79 1.79 13.15
1/19/2021 1:30:00 AM 2.51 36.518 0.032 6.79 1.73 13.16
1/19/2021 1:45:00 AM 2.49 36.482 0.032 6.79 1.73 13.18
1/19/2021 2:00:00 AM 2.46 36.428 0.032 6.81 1.71 13.19
1/19/2021 2:15:00 AM 2.45 36.41 0.032 6.79 1.72 13.19
1/19/2021 2:30:00 AM 2.43 36.374 0.032 6.82 1.86 13.21
1/19/2021 2:45:00 AM 2.42 36.356 0.032 6.77 1.66 13.21
1/19/2021 3:00:00 AM 2.4 36.32 0.032 6.79 1.73 13.21
1/19/2021 3:15:00 AM 2.39 36.302 0.032 6.78 1.78 13.21
1/19/2021 3:30:00 AM 2.38 36.284 0.032 6.81 1.77 13.23
1/19/2021 3:45:00 AM 2.37 36.266 0.032 6.8 1.74 13.23
1/19/2021 4:00:00 AM 2.36 36.248 0.032 6.79 1.9 13.22
1/19/2021 4:15:00 AM 2.36 36.248 0.032 6.8 1.75 13.24
1/19/2021 4:30:00 AM 2.35 36.23 0.032 6.79 1.77 13.24
1/19/2021 4:45:00 AM 2.34 36.212 0.032 6.79 1.77 13.24
1/19/2021 5:00:00 AM 2.33 36.194 0.032 6.8 1.76 13.25
1/19/2021 5:15:00 AM 2.32 36.176 0.032 6.78 1.76 13.25
1/19/2021 5:30:00 AM 2.31 36.158 0.032 6.79 1.72 13.26
1/19/2021 5:45:00 AM 2.31 36.158 0.032 6.8 1.77 13.27
1/19/2021 6:00:00 AM 2.31 36.158 0.032 6.78 1.7 13.27
1/19/2021 6:15:00 AM 2.29 36.122 0.032 6.81 1.77 13.27
1/19/2021 6:30:00 AM 2.3 36.14 0.032 6.76 1.7 13.27
1/19/2021 6:45:00 AM 2.27 36.086 0.032 6.79 1.71 13.27
1/19/2021 7:00:00 AM 2.24 36.032 0.032 6.78 1.75 13.27
1/19/2021 7:15:00 AM 2.21 35.978 0.032 6.81 1.76 13.3
1/19/2021 7:30:00 AM 2.2 35.96 0.032 6.76 1.73 13.28
1/19/2021 7:45:00 AM 2.2 35.96 0.032 6.78 7.7 13.29
1/19/2021 8:00:00 AM 2.2 35.96 0.032 6.78 2.52 13.3
1/19/2021 8:15:00 AM 2.21 35.978 0.032 6.78 1.72 13.32
1/19/2021 8:30:00 AM 2.21 35.978 0.032 6.8 1.78 13.34
1/19/2021 8:45:00 AM 2.2 35.96 0.032 6.81 1.85 13.35
1/19/2021 9:00:00 AM 2.13 35.834 0.032 6.8 1.68 13.38
1/19/2021 9:15:00 AM 2.11 35.798 0.032 6.81 4.43 13.42
1/19/2021 9:30:00 AM 2.14 35.852 0.032 6.8 4.21 13.43
1/19/2021 9:45:00 AM 2.16 35.888 0.032 6.82 3.19 13.46
1/19/2021 10:00:00 AM 2.19 35.942 0.032 6.81 2.94 13.47
1/19/2021 10:15:00 AM 2.2 35.96 0.032 6.82 2.61 13.48
1/19/2021 10:30:00 AM 2.23 36.014 0.032 6.81 2.81 13.48
1/19/2021 10:45:00 AM 2.24 36.032 0.032 6.81 4.35 13.49
1/19/2021 11:00:00 AM 2.24 36.032 0.032 6.82 1.79 13.47
1/19/2021 11:15:00 AM 2.25 36.05 0.032 6.82 3.81 13.47
1/19/2021 11:30:00 AM 2.29 36.122 0.032 6.82 5.72 13.48
1/19/2021 11:45:00 AM 2.33 36.194 0.032 6.84 3.31 13.49
1/19/2021 12:00:00 PM 2.41 36.338 0.032 6.84 2.21 13.47
1/19/2021 12:15:00 PM 2.45 36.41 0.032 6.82 3.88 13.46
1/19/2021 12:30:00 PM 2.5 36.5 0.032 6.81 1.69 13.44
1/19/2021 12:45:00 PM 2.52 36.536 0.032 6.83 15.48 13.44
1/19/2021 1:00:00 PM 2.57 36.626 0.032 6.83 1.85 13.42
1/19/2021 1:15:00 PM 2.64 36.752 0.032 6.82 2.46 13.39
1/19/2021 1:30:00 PM 2.69 36.842 0.032 6.8 1.75 13.37
1/19/2021 1:45:00 PM 2.73 36.914 0.032 6.83 12.38 13.37
1/19/2021 2:00:00 PM 2.73 36.914 0.032 6.85 1.84 13.35
1/19/2021 2:15:00 PM 2.73 36.914 0.032 6.82 1.82 13.32
1/19/2021 2:30:00 PM 2.74 36.932 0.032 6.81 1.82 13.32
1/19/2021 2:45:00 PM 2.75 36.95 0.032 6.84 1.83 13.33
1/19/2021 3:00:00 PM 2.76 36.968 0.032 6.82 1.78 13.32
1/19/2021 3:15:00 PM 2.75 36.95 0.032 6.83 5.32 13.32
1/19/2021 3:30:00 PM 2.74 36.932 0.032 6.82 6.95 13.3
1/19/2021 3:45:00 PM 2.74 36.932 0.032 6.83 1.6 13.32
1/19/2021 4:00:00 PM 2.73 36.914 0.032 6.83 4.87 13.3
1/19/2021 4:15:00 PM 2.71 36.878 0.032 6.84 1.72 13.31
1/19/2021 4:30:00 PM 2.7 36.86 0.032 6.87 3 13.32
1/19/2021 4:45:00 PM 2.67 36.806 0.032 6.81 1.78 13.29
1/19/2021 5:00:00 PM 2.65 36.77 0.032 6.85 1.86 13.27
1/19/2021 5:15:00 PM 2.63 36.734 0.032 6.81 1.98 13.23
1/19/2021 5:30:00 PM 2.61 36.698 0.032 6.81 1.98 13.21
1/19/2021 5:45:00 PM 2.59 36.662 0.032 6.78 2.01 13.19
1/19/2021 6:00:00 PM 2.56 36.608 0.032 6.8 1.75 13.2
1/19/2021 6:15:00 PM 2.54 36.572 0.032 6.77 1.78 13.19
1/19/2021 6:30:00 PM 2.52 36.536 0.032 6.81 1.75 13.21
1/19/2021 6:45:00 PM 2.51 36.518 0.032 6.79 1.77 13.21
1/19/2021 7:00:00 PM 2.49 36.482 0.032 6.79 1.8 13.21
1/19/2021 7:15:00 PM 2.48 36.464 0.032 6.77 1.77 13.21
1/19/2021 7:30:00 PM 2.46 36.428 0.032 6.79 1.67 13.22
1/19/2021 7:45:00 PM 2.46 36.428 0.032 6.78 1.69 13.21
1/19/2021 8:00:00 PM 2.44 36.392 0.032 6.78 1.72 13.21
1/19/2021 8:15:00 PM 2.43 36.374 0.032 6.79 1.73 13.22
1/19/2021 8:30:00 PM 2.41 36.338 0.032 6.82 1.74 13.25
1/19/2021 8:45:00 PM 2.41 36.338 0.032 6.8 1.66 13.24
1/19/2021 9:00:00 PM 2.4 36.32 0.032 6.76 1.76 13.22
1/19/2021 9:15:00 PM 2.39 36.302 0.032 6.82 1.74 13.25
1/19/2021 9:30:00 PM 2.38 36.284 0.032 6.78 1.78 13.24
1/19/2021 9:45:00 PM 2.37 36.266 0.032 6.81 1.76 13.24
1/19/2021 10:00:00 PM 2.37 36.266 0.032 6.8 1.67 13.24
1/19/2021 10:15:00 PM 2.36 36.248 0.032 6.8 1.71 13.24
1/19/2021 10:30:00 PM 2.35 36.23 0.032 6.8 1.73 13.24
1/19/2021 10:45:00 PM 2.34 36.212 0.032 6.78 1.75 13.23
1/19/2021 11:00:00 PM 2.33 36.194 0.032 6.81 1.71 13.24
1/19/2021 11:15:00 PM 2.33 36.194 0.032 6.78 1.73 13.23
1/19/2021 11:30:00 PM 2.33 36.194 0.032 6.78 1.74 13.23
1/19/2021 11:45:00 PM 2.31 36.158 0.032 6.79 1.77 13.24
1/20/2021 12:00:00 AM 2.31 36.158 0.032 6.79 1.73 13.23
1/20/2021 12:15:00 AM 2.31 36.158 0.032 6.77 1.66 13.23
1/20/2021 12:30:00 AM 2.3 36.14 0.032 6.81 1.64 13.25
1/20/2021 12:45:00 AM 2.3 36.14 0.032 6.78 1.81 13.24
1/20/2021 1:00:00 AM 2.29 36.122 0.032 6.79 1.73 13.23
1/20/2021 1:15:00 AM 2.28 36.104 0.032 6.8 1.71 13.24
1/20/2021 1:30:00 AM 2.28 36.104 0.032 6.79 1.73 13.24
1/20/2021 1:45:00 AM 2.28 36.104 0.032 6.79 1.78 13.23
1/20/2021 2:00:00 AM 2.27 36.086 0.032 6.79 1.77 13.22
1/20/2021 2:15:00 AM 2.24 36.032 0.032 6.81 1.74 13.24
1/20/2021 2:30:00 AM 2.2 35.96 0.032 6.79 1.91 13.22
1/20/2021 2:45:00 AM 2.16 35.888 0.032 6.82 1.8 13.26
1/20/2021 3:00:00 AM 2.15 35.87 0.032 6.78 1.78 13.26
1/20/2021 3:15:00 AM 2.11 35.798 0.032 6.82 1.74 13.28
1/20/2021 3:30:00 AM 2.07 35.726 0.032 6.79 1.69 13.27
1/20/2021 3:45:00 AM 2.04 35.672 0.032 6.81 1.73 13.29
1/20/2021 4:00:00 AM 2.03 35.654 0.033 6.79 1.76 13.29
1/20/2021 4:15:00 AM 2.01 35.618 0.032 6.79 1.79 13.29
1/20/2021 4:30:00 AM 1.99 35.582 0.032 6.8 1.79 13.31
1/20/2021 4:45:00 AM 1.95 35.51 0.032 6.81 1.7 13.32
1/20/2021 5:00:00 AM 1.88 35.384 0.032 6.78 1.86 13.32
1/20/2021 5:15:00 AM 1.87 35.366 0.032 6.79 1.77 13.33
1/20/2021 5:30:00 AM 1.87 35.366 0.032 6.81 1.83 13.36
1/20/2021 5:45:00 AM 1.88 35.384 0.032 6.79 1.63 13.36
1/20/2021 6:00:00 AM 1.87 35.366 0.032 6.79 1.67 13.37
1/20/2021 6:15:00 AM 1.85 35.33 0.032 6.8 1.62 13.38
1/20/2021 6:30:00 AM 1.86 35.348 0.032 6.8 1.88 13.39
1/20/2021 6:45:00 AM 1.86 35.348 0.032 6.79 1.74 13.39
1/20/2021 7:00:00 AM 1.86 35.348 0.032 6.78 2.07 13.39
1/20/2021 7:15:00 AM 1.83 35.294 0.032 6.81 1.75 13.42
1/20/2021 7:30:00 AM 1.81 35.258 0.032 6.77 1.73 13.41
1/20/2021 7:45:00 AM 1.77 35.186 0.032 6.81 1.85 13.45
1/20/2021 8:00:00 AM 1.73 35.114 0.032 6.8 3.46 13.48
1/20/2021 8:15:00 AM 1.72 35.096 0.032 6.79 3.26 13.53
1/20/2021 8:30:00 AM 1.7 35.06 0.032 6.84 3 13.57
1/20/2021 8:45:00 AM 1.71 35.078 0.032 6.81 4.38 13.59
1/20/2021 9:00:00 AM 1.72 35.096 0.032 6.83 4.01 13.62
1/20/2021 9:15:00 AM 1.7 35.06 0.032 6.8 3.57 13.63
1/20/2021 9:30:00 AM 1.66 34.988 0.032 6.82 2.58 13.64
1/20/2021 9:45:00 AM 1.64 34.952 0.032 6.85 3.2 13.7
1/20/2021 10:00:00 AM 1.65 34.97 0.032 6.84 2.01 13.71
1/20/2021 10:15:00 AM 1.68 35.024 0.032 6.86 1.75 13.73
1/20/2021 10:30:00 AM 1.7 35.06 0.032 6.82 1.63 13.71
1/20/2021 10:45:00 AM 1.72 35.096 0.032 6.84 1.73 13.72
1/20/2021 11:00:00 AM 1.73 35.114 0.032 6.86 1.7 13.72
1/20/2021 11:15:00 AM 1.74 35.132 0.032 6.82 1.73 13.71
1/20/2021 11:30:00 AM 1.75 35.15 0.032 6.84 48.17 13.72
1/20/2021 11:45:00 AM 1.76 35.168 0.032 6.83 2.06 13.71
1/20/2021 12:00:00 PM 1.77 35.186 0.032 6.84 59.63 13.7
1/20/2021 12:15:00 PM 1.77 35.186 0.032 6.83 7.51 13.7
1/20/2021 12:30:00 PM 1.8 35.24 0.032 6.84 7.16 13.71
1/20/2021 12:45:00 PM 1.92 35.456 0.032 6.84 7.42 13.7
1/20/2021 1:00:00 PM 2.03 35.654 0.032 6.86 1.67 13.67
1/20/2021 1:15:00 PM 2.09 35.762 0.032 6.85 1.73 13.63
1/20/2021 1:30:00 PM 2.11 35.798 0.032 6.84 1.71 13.62
1/20/2021 1:45:00 PM 2.13 35.834 0.032 6.82 1.69 13.61
1/20/2021 2:00:00 PM 2.12 35.816 0.032 6.82 3.72 13.6
1/20/2021 2:15:00 PM 2.08 35.744 0.032 6.85 6.36 13.61
1/20/2021 2:30:00 PM 2.03 35.654 0.032 6.81 1.61 13.6
1/20/2021 2:45:00 PM 1.99 35.582 0.032 6.84 1.83 13.62
1/20/2021 3:00:00 PM 1.96 35.528 0.032 6.82 5.99 13.62
1/20/2021 3:15:00 PM 1.95 35.51 0.032 6.83 3.78 13.61
1/20/2021 3:30:00 PM 1.92 35.456 0.032 6.83 4.89 13.62
1/20/2021 3:45:00 PM 1.88 35.384 0.032 6.81 4.52 13.63
1/20/2021 4:00:00 PM 1.84 35.312 0.032 6.8 3.92 13.65
1/20/2021 4:15:00 PM 1.8 35.24 0.032 6.79 2.71 13.66
1/20/2021 4:30:00 PM 1.76 35.168 0.032 6.81 4.04 13.68
1/20/2021 4:45:00 PM 1.71 35.078 0.032 6.82 4.63 13.69
1/20/2021 5:00:00 PM 1.66 34.988 0.032 6.81 4.97 13.66
1/20/2021 5:15:00 PM 1.61 34.898 0.032 6.82 4.22 13.64
1/20/2021 5:30:00 PM 1.52 34.736 0.032 6.85 5.43 13.65
1/20/2021 5:45:00 PM 1.47 34.646 0.032 6.8 5.64 13.62
1/20/2021 6:00:00 PM 1.43 34.574 0.032 6.82 5.55 13.63
1/20/2021 6:15:00 PM 1.4 34.52 0.032 6.75 4.56 13.63
1/20/2021 6:30:00 PM 1.35 34.43 0.032 6.8 7.59 13.66
1/20/2021 6:45:00 PM 1.33 34.394 0.033 6.77 3.85 13.64
1/20/2021 7:00:00 PM 1.26 34.268 0.032 6.79 4.31 13.67
1/20/2021 7:15:00 PM 1.23 34.214 0.032 6.79 4.32 13.67
1/20/2021 7:30:00 PM 1.18 34.124 0.032 6.81 4.62 13.72
1/20/2021 7:45:00 PM 1.16 34.088 0.032 6.8 4.43 13.72
1/20/2021 8:00:00 PM 1.15 34.07 0.033 6.79 4.6 13.73
1/20/2021 8:15:00 PM 1.12 34.016 0.032 6.8 6.22 13.75
1/20/2021 8:30:00 PM 1.08 33.944 0.032 6.81 4.59 13.77
1/20/2021 8:45:00 PM 1.04 33.872 0.032 6.8 4.57 13.77
1/20/2021 9:00:00 PM 1.01 33.818 0.033 6.81 4.62 13.79
1/20/2021 9:15:00 PM 0.98 33.764 0.033 6.79 4.77 13.8
1/20/2021 9:30:00 PM 0.95 33.71 0.033 6.76 4.58 13.79
1/20/2021 9:45:00 PM 0.9 33.62 0.032 6.81 4.36 13.85
1/20/2021 10:00:00 PM 0.85 33.53 0.033 6.79 4.51 13.85
1/20/2021 10:15:00 PM 0.83 33.494 0.033 6.8 4.12 13.85
1/20/2021 10:30:00 PM 0.81 33.458 0.033 6.82 4.23 13.88
1/20/2021 10:45:00 PM 0.8 33.44 0.033 6.79 5.62 13.88
1/20/2021 11:00:00 PM 0.79 33.422 0.033 6.81 4.51 13.88
1/20/2021 11:15:00 PM 0.78 33.404 0.033 6.79 4.6 13.89
1/20/2021 11:30:00 PM 0.76 33.368 0.033 6.79 4.46 13.88
1/20/2021 11:45:00 PM 0.73 33.314 0.033 6.82 5.03 13.9
1/21/2021 12:00:00 AM 0.72 33.296 0.033 6.81 4.53 13.89
1/21/2021 12:15:00 AM 0.67 33.206 0.033 6.8 4.67 13.92
1/21/2021 12:30:00 AM 0.62 33.116 0.033 6.82 4.58 13.92
1/21/2021 12:45:00 AM 0.57 33.026 0.033 6.79 4.68 13.92
1/21/2021 1:00:00 AM 0.52 32.936 0.033 6.82 4.6 13.95
1/21/2021 1:15:00 AM 0.48 32.864 0.033 6.8 4.83 13.96
1/21/2021 1:30:00 AM 0.44 32.792 0.033 6.8 5.18 13.96
1/21/2021 1:45:00 AM 0.39 32.702 0.033 6.82 4.75 13.98
1/21/2021 2:00:00 AM 0.34 32.612 0.033 6.82 4.68 14.01
1/21/2021 2:15:00 AM 0.31 32.558 0.033 6.79 4.72 14.01
1/21/2021 2:30:00 AM 0.26 32.468 0.033 6.82 4.09 14.04
1/21/2021 2:45:00 AM 0.2 32.36 0.033 6.83 4.96 14.06
1/21/2021 3:00:00 AM 0.16 32.288 0.033 6.81 4.89 14.07
1/21/2021 3:15:00 AM 0.11 32.198 0.033 6.83 5.68 14.09
1/21/2021 3:30:00 AM 0.07 32.126 0.033 6.83 5.76 14.1
1/21/2021 3:45:00 AM 0.05 32.09 0.033 6.83 4.12 14.12
1/21/2021 4:00:00 AM 0.04 32.072 0.033 6.83 1.72 14.12
1/21/2021 4:15:00 AM 0.03 32.054 0.033 6.83 3.34 14.13
1/21/2021 4:30:00 AM 0.04 32.072 0.033 6.79 1.66 14.12
1/21/2021 4:45:00 AM 0.03 32.054 0.033 6.83 1.72 14.13
1/21/2021 5:00:00 AM 0.02 32.036 0.033 6.81 1.75 14.12
1/21/2021 5:15:00 AM 0.01 32.018 0.033 6.83 1.7 14.13
1/21/2021 5:30:00 AM 0.01 32.018 0.033 6.82 1.73 14.13
1/21/2021 5:45:00 AM 0 32 0.033 6.81 1.74 14.11
1/21/2021 6:00:00 AM 0 32 0.033 6.81 1.77 14.12
1/21/2021 6:15:00 AM 0 32 0.033 6.84 1.82 14.13
1/21/2021 6:30:00 AM 0 32 0.033 6.83 1.81 14.12
1/21/2021 6:45:00 AM -0.01 31.982 0.033 6.84 1.72 14.12
1/21/2021 7:00:00 AM -0.02 31.964 0.033 6.84 1.82 14.12
1/21/2021 7:15:00 AM -0.03 31.946 0.033 6.83 1.66 14.12
1/21/2021 7:30:00 AM -0.02 31.964 0.034 6.82 1.79 14.12
1/21/2021 7:45:00 AM -0.01 31.982 0.034 6.84 1.74 14.12
1/21/2021 8:00:00 AM 0.01 32.018 0.034 6.84 2.38 14.12
1/21/2021 8:15:00 AM 0.03 32.054 0.034 6.86 3.13 14.14
1/21/2021 8:30:00 AM 0.04 32.072 0.034 6.86 2.21 14.15
1/21/2021 8:45:00 AM 0.07 32.126 0.034 6.87 1.94 14.18
1/21/2021 9:00:00 AM 0.1 32.18 0.034 6.87 2.06 14.19
1/21/2021 9:15:00 AM 0.13 32.234 0.034 6.88 2.12 14.21
1/21/2021 9:30:00 AM 0.16 32.288 0.033 6.88 1.69 14.21
1/21/2021 9:45:00 AM 0.19 32.342 0.033 6.88 2.55 14.21
1/21/2021 10:00:00 AM 0.24 32.432 0.033 6.88 3.25 14.2
1/21/2021 10:15:00 AM 0.29 32.522 0.033 6.88 5.73 14.19
1/21/2021 10:30:00 AM 0.33 32.594 0.033 6.89 5.19 14.17
1/21/2021 10:45:00 AM 0.41 32.738 0.033 6.87 3.8 14.15
1/21/2021 11:00:00 AM 0.49 32.882 0.033 6.8 4.13 14.09
1/21/2021 11:15:00 AM 0.56 33.008 0.033 6.89 5.05 14.09
1/21/2021 11:30:00 AM 0.66 33.188 0.033 6.86 4.39 14.05
1/21/2021 11:45:00 AM 0.77 33.386 0.033 6.87 4.39 14.01
1/21/2021 12:00:00 PM 0.89 33.602 0.033 6.88 5.09 13.95
1/21/2021 12:15:00 PM 1.06 33.908 0.033 6.89 5.01 13.88
1/21/2021 12:30:00 PM 1.2 34.16 0.033 6.88 4.53 13.82
1/21/2021 12:45:00 PM 1.32 34.376 0.033 6.87 4.42 13.76
1/21/2021 1:00:00 PM 1.44 34.592 0.033 6.9 4.7 13.73
1/21/2021 1:15:00 PM 1.54 34.772 0.033 6.87 3.92 13.67
1/21/2021 1:30:00 PM 1.63 34.934 0.033 6.89 3.34 13.64
1/21/2021 1:45:00 PM 1.73 35.114 0.033 6.86 3.81 13.59
1/21/2021 2:00:00 PM 1.84 35.312 0.032 6.87 4.59 13.56
1/21/2021 2:15:00 PM 1.93 35.474 0.032 6.87 3.71 13.52
1/21/2021 2:30:00 PM 2 35.6 0.032 6.87 3.66 13.48
1/21/2021 2:45:00 PM 2.04 35.672 0.032 6.87 4.17 13.46
1/21/2021 3:00:00 PM 2.06 35.708 0.032 6.86 4.05 13.44
1/21/2021 3:15:00 PM 2.05 35.69 0.032 6.87 4.66 13.42
1/21/2021 3:30:00 PM 2.01 35.618 0.032 6.84 4.37 13.41
1/21/2021 3:45:00 PM 1.97 35.546 0.032 6.87 4.23 13.42
1/21/2021 4:00:00 PM 1.94 35.492 0.032 6.86 3.86 13.4
1/21/2021 4:15:00 PM 1.9 35.42 0.032 6.82 4.15 13.39
1/21/2021 4:30:00 PM 1.85 35.33 0.032 6.87 9.65 13.41
1/21/2021 4:45:00 PM 1.83 35.294 0.032 6.84 4.15 13.38
1/21/2021 5:00:00 PM 1.77 35.186 0.032 6.84 4.37 13.39
1/21/2021 5:15:00 PM 1.74 35.132 0.032 6.84 5.07 13.37
1/21/2021 5:30:00 PM 1.69 35.042 0.032 6.85 2.33 13.38
1/21/2021 5:45:00 PM 1.66 34.988 0.032 6.81 1.76 13.35
1/21/2021 6:00:00 PM 1.62 34.916 0.032 6.85 1.84 13.37
1/21/2021 6:15:00 PM 1.58 34.844 0.032 6.83 1.9 13.38
1/21/2021 6:30:00 PM 1.59 34.862 0.032 6.8 1.9 13.36
1/21/2021 6:45:00 PM 1.59 34.862 0.032 6.82 1.84 13.37
1/21/2021 7:00:00 PM 1.57 34.826 0.032 6.83 1.76 13.39
1/21/2021 7:15:00 PM 1.57 34.826 0.033 6.82 1.84 13.38
1/21/2021 7:30:00 PM 1.56 34.808 0.032 6.83 1.78 13.4
1/21/2021 7:45:00 PM 1.57 34.826 0.032 6.84 1.91 13.39
1/21/2021 8:00:00 PM 1.57 34.826 0.033 6.8 1.82 13.39
1/21/2021 8:15:00 PM 1.57 34.826 0.033 6.84 1.66 13.4
1/21/2021 8:30:00 PM 1.57 34.826 0.032 6.83 1.77 13.38
1/21/2021 8:45:00 PM 1.58 34.844 0.033 6.83 1.77 13.39
1/21/2021 9:00:00 PM 1.61 34.898 0.033 6.78 1.75 13.38
1/21/2021 9:15:00 PM 1.61 34.898 0.033 6.83 1.68 13.38
1/21/2021 9:30:00 PM 1.64 34.952 0.033 6.83 1.79 13.38
1/21/2021 9:45:00 PM 1.65 34.97 0.033 6.82 1.72 13.36
1/21/2021 10:00:00 PM 1.66 34.988 0.033 6.84 1.72 13.36
1/21/2021 10:15:00 PM 1.69 35.042 0.033 6.83 1.83 13.36
1/21/2021 10:30:00 PM 1.7 35.06 0.033 6.83 1.64 13.34
1/21/2021 10:45:00 PM 1.72 35.096 0.033 6.83 1.78 13.34
1/21/2021 11:00:00 PM 1.74 35.132 0.033 6.83 1.72 13.34
1/21/2021 11:15:00 PM 1.73 35.114 0.033 6.85 1.7 13.34
1/21/2021 11:30:00 PM 1.73 35.114 0.033 6.82 1.66 13.32
1/21/2021 11:45:00 PM 1.74 35.132 0.033 6.82 1.63 13.32
1/22/2021 12:00:00 AM 1.75 35.15 0.033 6.81 1.71 13.32
1/22/2021 12:15:00 AM 1.77 35.186 0.033 6.79 1.83 13.31
1/22/2021 12:30:00 AM 1.77 35.186 0.033 6.83 1.79 13.32
1/22/2021 12:45:00 AM 1.77 35.186 0.033 6.82 1.69 13.31
1/22/2021 1:00:00 AM 1.78 35.204 0.033 6.81 1.62 13.31
1/22/2021 1:15:00 AM 1.79 35.222 0.033 6.82 1.61 13.31
1/22/2021 1:30:00 AM 1.8 35.24 0.033 6.83 1.71 13.3
1/22/2021 1:45:00 AM 1.8 35.24 0.033 6.78 1.72 13.29
1/22/2021 2:00:00 AM 1.81 35.258 0.033 6.8 1.6 13.3
1/22/2021 2:15:00 AM 1.8 35.24 0.033 6.82 1.67 13.32
1/22/2021 2:30:00 AM 1.81 35.258 0.033 6.84 1.65 13.32
1/22/2021 2:45:00 AM 1.81 35.258 0.033 6.82 1.65 13.31
1/22/2021 3:00:00 AM 1.81 35.258 0.033 6.85 1.58 13.33
1/22/2021 3:15:00 AM 1.81 35.258 0.033 6.79 1.65 13.29
1/22/2021 3:30:00 AM 1.81 35.258 0.033 6.8 1.61 13.31
1/22/2021 3:45:00 AM 1.81 35.258 0.033 6.82 1.69 13.3
1/22/2021 4:00:00 AM 1.81 35.258 0.033 6.83 1.63 13.32
1/22/2021 4:15:00 AM 1.82 35.276 0.033 6.84 1.53 13.31
1/22/2021 4:30:00 AM 1.81 35.258 0.033 6.84 1.57 13.32
1/22/2021 4:45:00 AM 1.82 35.276 0.033 6.82 1.82 13.29
1/22/2021 5:00:00 AM 1.83 35.294 0.033 6.83 1.63 13.3
1/22/2021 5:15:00 AM 1.83 35.294 0.033 6.82 1.77 13.3
1/22/2021 5:30:00 AM 1.83 35.294 0.033 6.84 1.64 13.3
1/22/2021 5:45:00 AM 1.83 35.294 0.033 6.83 1.66 13.31
1/22/2021 6:00:00 AM 1.83 35.294 0.033 6.85 1.64 13.32
1/22/2021 6:15:00 AM 1.83 35.294 0.033 6.83 1.59 13.3
1/22/2021 6:30:00 AM 1.82 35.276 0.033 6.85 1.6 13.31
1/22/2021 6:45:00 AM 1.82 35.276 0.033 6.83 1.57 13.3
1/22/2021 7:00:00 AM 1.82 35.276 0.033 6.85 1.61 13.33
1/22/2021 7:15:00 AM 1.81 35.258 0.033 6.86 1.6 13.33
1/22/2021 7:30:00 AM 1.81 35.258 0.033 6.85 1.76 13.34
1/22/2021 7:45:00 AM 1.82 35.276 0.033 6.8 1.93 13.31
1/22/2021 8:00:00 AM 1.82 35.276 0.033 6.85 1.66 13.36
1/22/2021 8:15:00 AM 1.83 35.294 0.033 6.84 4.19 13.38
1/22/2021 8:30:00 AM 1.83 35.294 0.033 6.85 4.65 13.41
1/22/2021 8:45:00 AM 1.85 35.33 0.033 6.87 4.6 13.43
1/22/2021 9:00:00 AM 1.87 35.366 0.033 6.88 4.96 13.45
1/22/2021 9:15:00 AM 1.91 35.438 0.033 6.85 4.46 13.46
1/22/2021 9:30:00 AM 1.94 35.492 0.033 6.89 3.69 13.48
1/22/2021 9:45:00 AM 2 35.6 0.033 6.89 4 13.49
1/22/2021 10:00:00 AM 2.05 35.69 0.033 6.89 4.75 13.48
1/22/2021 10:15:00 AM 2.11 35.798 0.033 6.89 4.66 13.48
1/22/2021 10:30:00 AM 2.15 35.87 0.032 6.9 3.89 13.47
1/22/2021 10:45:00 AM 2.2 35.96 0.033 6.9 3.49 13.45
1/22/2021 11:00:00 AM 2.26 36.068 0.033 6.82 2.57 13.4
1/22/2021 11:15:00 AM 2.27 36.086 0.033 6.84 4.12 13.41
1/22/2021 11:30:00 AM 2.25 36.05 0.033 6.86 17.51 13.38
1/22/2021 11:45:00 AM 2.23 36.014 0.032 6.89 4.32 13.4
1/22/2021 12:00:00 PM 2.25 36.05 0.032 6.9 11.18 13.4
1/22/2021 12:15:00 PM 2.28 36.104 0.032 6.88 1.63 13.39
1/22/2021 12:30:00 PM 2.28 36.104 0.032 6.9 1.82 13.38
1/22/2021 12:45:00 PM 2.28 36.104 0.032 6.85 1.59 13.32
1/22/2021 1:00:00 PM 2.12 35.816 0.032 6.87 1.61 13.32
1/22/2021 1:15:00 PM 2 35.6 0.032 6.8 1.62 13.34
1/22/2021 1:30:00 PM 1.92 35.456 0.032 6.87 2.01 13.39
1/22/2021 1:45:00 PM 1.99 35.582 0.032 6.87 3.29 13.43
1/22/2021 2:00:00 PM 2.07 35.726 0.032 6.9 3.43 13.45
1/22/2021 2:15:00 PM 2.12 35.816 0.032 6.87 3.23 13.45
1/22/2021 2:30:00 PM 2.13 35.834 0.032 6.87 3.64 13.43
1/22/2021 2:45:00 PM 2.12 35.816 0.032 6.87 3.38 13.43
1/22/2021 3:00:00 PM 2.08 35.744 0.032 6.87 2.94 13.43
1/22/2021 3:15:00 PM 2.05 35.69 0.032 6.87 3.12 13.45
1/22/2021 3:30:00 PM 2.06 35.708 0.032 6.87 3.64 13.45
1/22/2021 3:45:00 PM 2.04 35.672 0.032 6.87 4.19 13.45
1/22/2021 4:00:00 PM 2.02 35.636 0.032 6.86 4.14 13.43
1/22/2021 4:15:00 PM 2 35.6 0.032 6.89 4.15 13.43
1/22/2021 4:30:00 PM 2 35.6 0.032 6.85 4.23 13.41
1/22/2021 4:45:00 PM 1.99 35.582 0.032 6.84 4.34 13.4
1/22/2021 5:00:00 PM 1.96 35.528 0.032 6.84 3.97 13.4
1/22/2021 5:15:00 PM 1.95 35.51 0.032 6.84 5.47 13.38
1/22/2021 5:30:00 PM 1.94 35.492 0.032 6.85 3.29 13.39
1/22/2021 5:45:00 PM 1.92 35.456 0.032 6.83 3.59 13.37
1/22/2021 6:00:00 PM 1.89 35.402 0.032 6.84 3.43 13.39
1/22/2021 6:15:00 PM 1.87 35.366 0.033 6.84 3.72 13.39
1/22/2021 6:30:00 PM 1.84 35.312 0.033 6.85 3.51 13.4
1/22/2021 6:45:00 PM 1.81 35.258 0.032 6.84 4.01 13.42
1/22/2021 7:00:00 PM 1.78 35.204 0.033 6.85 3.85 13.43
1/22/2021 7:15:00 PM 1.76 35.168 0.033 6.84 4.14 13.45
1/22/2021 7:30:00 PM 1.73 35.114 0.033 6.84 4.4 13.45
1/22/2021 7:45:00 PM 1.71 35.078 0.033 6.83 5.35 13.47
1/22/2021 8:00:00 PM 1.68 35.024 0.033 6.82 7.21 13.47
1/22/2021 8:15:00 PM 1.64 34.952 0.033 6.84 6.11 13.5
1/22/2021 8:30:00 PM 1.61 34.898 0.033 6.88 2.03 13.51
1/22/2021 8:45:00 PM 1.58 34.844 0.033 6.83 1.88 13.52
1/22/2021 9:00:00 PM 1.52 34.736 0.033 6.87 1.89 13.56
1/22/2021 9:15:00 PM 1.48 34.664 0.033 6.83 2.04 13.56
1/22/2021 9:30:00 PM 1.46 34.628 0.033 6.82 1.88 13.56
1/22/2021 9:45:00 PM 1.44 34.592 0.033 6.84 1.95 13.59
1/22/2021 10:00:00 PM 1.4 34.52 0.033 6.83 1.91 13.61
1/22/2021 10:15:00 PM 1.37 34.466 0.033 6.84 2.02 13.63
1/22/2021 10:30:00 PM 1.35 34.43 0.033 6.81 1.58 13.64
1/22/2021 10:45:00 PM 1.33 34.394 0.033 6.82 1.7 13.63
1/22/2021 11:00:00 PM 1.3 34.34 0.033 6.84 1.61 13.66
1/22/2021 11:15:00 PM 1.28 34.304 0.033 6.8 1.61 13.66
1/22/2021 11:30:00 PM 1.24 34.232 0.033 6.83 1.74 13.69
1/22/2021 11:45:00 PM 1.19 34.142 0.033 6.85 1.62 13.71
1/23/2021 12:00:00 AM 1.16 34.088 0.033 6.84 1.59 13.72
1/23/2021 12:15:00 AM 1.12 34.016 0.033 6.84 1.61 13.74
1/23/2021 12:30:00 AM 1.09 33.962 0.033 6.85 1.68 13.75
1/23/2021 12:45:00 AM 1.03 33.854 0.033 6.86 1.63 13.78
1/23/2021 1:00:00 AM 0.99 33.782 0.033 6.85 1.63 13.79
1/23/2021 1:15:00 AM 0.96 33.728 0.033 6.81 1.62 13.79
1/23/2021 1:30:00 AM 0.91 33.638 0.033 6.86 1.66 13.83
1/23/2021 1:45:00 AM 0.88 33.584 0.033 6.86 1.64 13.85
1/23/2021 2:00:00 AM 0.86 33.548 0.033 6.81 1.62 13.84
1/23/2021 2:15:00 AM 0.82 33.476 0.033 6.85 1.65 13.87
1/23/2021 2:30:00 AM 0.78 33.404 0.033 6.83 1.62 13.89
1/23/2021 2:45:00 AM 0.74 33.332 0.033 6.84 1.65 13.91
1/23/2021 3:00:00 AM 0.72 33.296 0.033 6.84 1.62 13.92
1/23/2021 3:15:00 AM 0.69 33.242 0.033 6.84 1.58 13.94
1/23/2021 3:30:00 AM 0.66 33.188 0.033 6.85 1.59 13.96
1/23/2021 3:45:00 AM 0.61 33.098 0.033 6.84 1.56 13.98
1/23/2021 4:00:00 AM 0.58 33.044 0.033 6.83 1.56 13.98
1/23/2021 4:15:00 AM 0.55 32.99 0.033 6.85 1.6 14
1/23/2021 4:30:00 AM 0.51 32.918 0.033 6.84 1.53 14.01
1/23/2021 4:45:00 AM 0.49 32.882 0.033 6.84 1.56 14.03
1/23/2021 5:00:00 AM 0.44 32.792 0.033 6.84 1.58 14.04
1/23/2021 5:15:00 AM 0.4 32.72 0.033 6.85 1.52 14.07
1/23/2021 5:30:00 AM 0.36 32.648 0.033 6.84 1.56 14.09
1/23/2021 5:45:00 AM 0.35 32.63 0.033 6.84 1.58 14.1
1/23/2021 6:00:00 AM 0.33 32.594 0.033 6.86 1.6 14.11
1/23/2021 6:15:00 AM 0.32 32.576 0.033 6.81 1.56 14.12
1/23/2021 6:30:00 AM 0.29 32.522 0.033 6.85 1.55 14.14
1/23/2021 6:45:00 AM 0.26 32.468 0.033 6.83 1.6 14.16
1/23/2021 7:00:00 AM 0.24 32.432 0.033 6.83 1.59 14.17
1/23/2021 7:15:00 AM 0.2 32.36 0.033 6.84 1.61 14.19
1/23/2021 7:30:00 AM 0.17 32.306 0.033 6.85 9.75 14.21
1/23/2021 7:45:00 AM 0.14 32.252 0.033 6.84 4 14.23
1/23/2021 8:00:00 AM 0.14 32.252 0.033 6.83 4.75 14.25
1/23/2021 8:15:00 AM 0.14 32.252 0.033 6.85 4.62 14.29
1/23/2021 8:30:00 AM 0.13 32.234 0.033 6.87 5.7 14.33
1/23/2021 8:45:00 AM 0.14 32.252 0.033 6.86 5.44 14.35
1/23/2021 9:00:00 AM 0.14 32.252 0.033 6.86 3.27 14.37
1/23/2021 9:15:00 AM 0.15 32.27 0.033 6.87 3.67 14.39
1/23/2021 9:30:00 AM 0.16 32.288 0.033 6.88 4.71 14.41
1/23/2021 9:45:00 AM 0.18 32.324 0.033 6.88 4.74 14.42
1/23/2021 10:00:00 AM 0.2 32.36 0.033 6.87 4.85 14.43
1/23/2021 10:15:00 AM 0.23 32.414 0.033 6.87 4.8 14.43
1/23/2021 10:30:00 AM 0.27 32.486 0.033 6.88 4.41 14.43
1/23/2021 10:45:00 AM 0.3 32.54 0.033 6.88 4.39 14.42
1/23/2021 11:00:00 AM 0.32 32.576 0.033 6.91 4.9 14.42
1/23/2021 11:15:00 AM 0.35 32.63 0.033 6.89 5 14.42
1/23/2021 11:30:00 AM 0.38 32.684 0.033 6.89 4.59 14.41
1/23/2021 11:45:00 AM 0.4 32.72 0.033 6.88 4.67 14.39
1/23/2021 12:00:00 PM 0.41 32.738 0.033 6.89 4.78 14.38
1/23/2021 12:15:00 PM 0.43 32.774 0.033 6.91 4.72 14.38
1/23/2021 12:30:00 PM 0.47 32.846 0.033 6.89 3.9 14.36
1/23/2021 12:45:00 PM 0.5 32.9 0.033 6.91 4.64 14.35
1/23/2021 1:00:00 PM 0.5 32.9 0.033 6.9 4.19 14.34
1/23/2021 1:15:00 PM 0.5 32.9 0.033 6.9 3.48 14.34
1/23/2021 1:30:00 PM 0.52 32.936 0.033 6.89 3.88 14.32
1/23/2021 1:45:00 PM 0.57 33.026 0.033 6.9 1.62 14.32
1/23/2021 2:00:00 PM 0.62 33.116 0.033 6.89 3.93 14.31
1/23/2021 2:15:00 PM 0.66 33.188 0.033 6.9 1.64 14.28
1/23/2021 2:30:00 PM 0.66 33.188 0.033 6.9 2.64 14.29
1/23/2021 2:45:00 PM 0.67 33.206 0.033 6.86 3.17 14.27
1/23/2021 3:00:00 PM 0.67 33.206 0.033 6.91 2.8 14.27
1/23/2021 3:15:00 PM 0.67 33.206 0.033 6.89 2.73 14.26
1/23/2021 3:30:00 PM 0.68 33.224 0.033 6.89 3.63 14.25
1/23/2021 3:45:00 PM 0.68 33.224 0.033 6.9 4.06 14.25
1/23/2021 4:00:00 PM 0.65 33.17 0.033 6.87 3.16 14.25
1/23/2021 4:15:00 PM 0.63 33.134 0.033 6.87 3.1 14.24
1/23/2021 4:30:00 PM 0.6 33.08 0.033 6.86 3.51 14.23
1/23/2021 4:45:00 PM 0.56 33.008 0.033 6.85 3.75 14.21
1/23/2021 5:00:00 PM 0.53 32.954 0.033 6.86 3.9 14.21
1/23/2021 5:15:00 PM 0.51 32.918 0.033 6.84 4.04 14.18
1/23/2021 5:30:00 PM 0.49 32.882 0.033 6.83 4.3 14.17
1/23/2021 5:45:00 PM 0.47 32.846 0.033 6.85 4.55 14.17
1/23/2021 6:00:00 PM 0.45 32.81 0.033 6.83 3.98 14.17
1/23/2021 6:15:00 PM 0.42 32.756 0.033 6.84 4.8 14.18
1/23/2021 6:30:00 PM 0.39 32.702 0.033 6.83 1.57 14.19
1/23/2021 6:45:00 PM 0.38 32.684 0.033 6.86 1.57 14.19
1/23/2021 7:00:00 PM 0.37 32.666 0.033 6.86 1.55 14.21
1/23/2021 7:15:00 PM 0.35 32.63 0.033 6.83 1.58 14.21
1/23/2021 7:30:00 PM 0.32 32.576 0.033 6.86 1.59 14.23
1/23/2021 7:45:00 PM 0.29 32.522 0.033 6.86 1.59 14.24
1/23/2021 8:00:00 PM 0.29 32.522 0.033 6.85 1.56 14.24
1/23/2021 8:15:00 PM 0.29 32.522 0.033 6.85 4.92 14.24
1/23/2021 8:30:00 PM 0.27 32.486 0.033 6.85 4.6 14.25
1/23/2021 8:45:00 PM 0.26 32.468 0.033 6.85 4.66 14.26
1/23/2021 9:00:00 PM 0.25 32.45 0.033 6.86 4.62 14.26
1/23/2021 9:15:00 PM 0.24 32.432 0.033 6.85 4.41 14.26
1/23/2021 9:30:00 PM 0.22 32.396 0.033 6.84 3.96 14.27
1/23/2021 9:45:00 PM 0.2 32.36 0.033 6.85 4.28 14.28
1/23/2021 10:00:00 PM 0.19 32.342 0.033 6.86 4 14.29
1/23/2021 10:15:00 PM 0.19 32.342 0.033 6.84 5.19 14.29
1/23/2021 10:30:00 PM 0.18 32.324 0.033 6.85 4.81 14.29
1/23/2021 10:45:00 PM 0.17 32.306 0.033 6.85 4.99 14.29
1/23/2021 11:00:00 PM 0.15 32.27 0.033 6.84 4.32 14.3
1/23/2021 11:15:00 PM 0.14 32.252 0.033 6.84 4.68 14.31
1/23/2021 11:30:00 PM 0.14 32.252 0.033 6.85 5.06 14.31
1/23/2021 11:45:00 PM 0.13 32.234 0.033 6.85 5.06 14.31
1/24/2021 12:00:00 AM 0.11 32.198 0.033 6.86 1.63 14.33
1/24/2021 12:15:00 AM 0.1 32.18 0.033 6.84 1.54 14.33
1/24/2021 12:30:00 AM 0.09 32.162 0.033 6.86 1.74 14.33
1/24/2021 12:45:00 AM 0.08 32.144 0.033 6.88 5.77 14.33
1/24/2021 1:00:00 AM 0.08 32.144 0.033 6.84 4.27 14.33
1/24/2021 1:15:00 AM 0.06 32.108 0.033 6.83 2.47 14.34
1/24/2021 1:30:00 AM 0.05 32.09 0.033 6.85 4.82 14.34
1/24/2021 1:45:00 AM 0.04 32.072 0.033 6.86 1.7 14.35
1/24/2021 2:00:00 AM 0.02 32.036 0.033 6.86 1.62 14.36
1/24/2021 2:15:00 AM 0.01 32.018 0.033 6.86 1.63 14.36
1/24/2021 2:30:00 AM 0 32 0.033 6.83 1.69 14.37
1/24/2021 2:45:00 AM -0.02 31.964 0.033 6.86 1.58 14.37
1/24/2021 3:00:00 AM -0.03 31.946 0.033 6.83 1.59 14.38
1/24/2021 3:15:00 AM -0.05 31.91 0.033 6.84 1.53 14.39
1/24/2021 3:30:00 AM -0.08 31.856 0.033 6.86 1.91 14.4
1/24/2021 3:45:00 AM -0.06 31.892 0.033 6.86 1.58 14.41
1/24/2021 4:00:00 AM -0.05 31.91 0.034 6.83 1.59 14.4
1/24/2021 4:15:00 AM -0.05 31.91 0.034 6.84 1.59 14.41
1/24/2021 4:30:00 AM -0.06 31.892 0.034 6.86 1.62 14.42
1/24/2021 4:45:00 AM -0.04 31.928 0.034 6.8 1.59 14.4
1/24/2021 5:00:00 AM -0.05 31.91 0.034 6.81 1.56 14.4
1/24/2021 5:15:00 AM -0.05 31.91 0.034 6.82 1.55 14.4
1/24/2021 5:30:00 AM -0.05 31.91 0.034 6.83 1.67 14.41
1/24/2021 5:45:00 AM -0.05 31.91 0.034 6.85 1.69 14.42
1/24/2021 6:00:00 AM -0.06 31.892 0.034 6.83 1.7 14.43
1/24/2021 6:15:00 AM -0.06 31.892 0.034 6.85 1.67 14.43
1/24/2021 6:30:00 AM -0.05 31.91 0.034 6.84 1.59 14.43
1/24/2021 6:45:00 AM -0.05 31.91 0.034 6.85 1.68 14.43
1/24/2021 7:00:00 AM -0.05 31.91 0.034 6.83 1.6 14.43
1/24/2021 7:15:00 AM -0.05 31.91 0.034 6.85 1.63 14.43
1/24/2021 7:30:00 AM -0.04 31.928 0.034 6.83 1.6 14.43
1/24/2021 7:45:00 AM -0.05 31.91 0.034 6.85 1.66 14.44
1/24/2021 8:00:00 AM -0.04 31.928 0.034 6.83 1.59 14.45
1/24/2021 8:15:00 AM -0.04 31.928 0.035 6.85 1.86 14.46
1/24/2021 8:30:00 AM -0.04 31.928 0.035 6.83 1.78 14.47
1/24/2021 8:45:00 AM -0.04 31.928 0.035 6.85 1.74 14.51
1/24/2021 9:00:00 AM -0.03 31.946 0.035 6.84 1.72 14.52
1/24/2021 9:15:00 AM -0.04 31.928 0.035 6.85 1.77 14.54
1/24/2021 9:30:00 AM -0.04 31.928 0.035 6.86 1.78 14.55
1/24/2021 9:45:00 AM -0.03 31.946 0.035 6.86 1.78 14.56
1/24/2021 10:00:00 AM -0.02 31.964 0.035 6.86 1.73 14.56
1/24/2021 10:15:00 AM -0.02 31.964 0.035 6.86 1.75 14.56
1/24/2021 10:30:00 AM -0.01 31.982 0.035 6.87 1.68 14.55
1/24/2021 10:45:00 AM -0.01 31.982 0.035 6.88 1.6 14.55
1/24/2021 11:00:00 AM 0 32 0.035 6.89 1.68 14.53
1/24/2021 11:15:00 AM 0 32 0.035 6.89 1.69 14.53
1/24/2021 11:30:00 AM -0.01 31.982 0.035 6.91 1.72 14.52
1/24/2021 11:45:00 AM 0 32 0.035 6.9 1.83 14.52
1/24/2021 12:00:00 PM 0 32 0.035 6.89 5.26 14.5
1/24/2021 12:15:00 PM 0.01 32.018 0.035 6.87 3.31 14.48
1/24/2021 12:30:00 PM 0.02 32.036 0.035 6.89 2.95 14.46
1/24/2021 12:45:00 PM 0.02 32.036 0.034 6.87 3.53 14.44
1/24/2021 1:00:00 PM 0.07 32.126 0.034 6.88 3.82 14.44
1/24/2021 1:15:00 PM 0.14 32.252 0.034 6.89 3.7 14.44
1/24/2021 1:30:00 PM 0.16 32.288 0.034 6.87 3.69 14.43
1/24/2021 1:45:00 PM 0.2 32.36 0.034 6.89 3.62 14.43
1/24/2021 2:00:00 PM 0.21 32.378 0.034 6.88 4.08 14.43
1/24/2021 2:15:00 PM 0.22 32.396 0.034 6.89 3.4 14.43
1/24/2021 2:30:00 PM 0.23 32.414 0.034 6.89 2.8 14.42
1/24/2021 2:45:00 PM 0.25 32.45 0.034 6.87 3.04 14.41
1/24/2021 3:00:00 PM 0.23 32.414 0.034 6.87 3.07 14.42
1/24/2021 3:15:00 PM 0.19 32.342 0.034 6.89 3.43 14.41
1/24/2021 3:30:00 PM 0.18 32.324 0.034 6.88 3.11 14.41
1/24/2021 3:45:00 PM 0.17 32.306 0.034 6.9 3.63 14.4
1/24/2021 4:00:00 PM 0.17 32.306 0.034 6.89 4.62 14.39
1/24/2021 4:15:00 PM 0.18 32.324 0.034 6.89 5.78 14.37
1/24/2021 4:30:00 PM 0.21 32.378 0.033 6.9 4.71 14.34
1/24/2021 4:45:00 PM 0.24 32.432 0.033 6.89 4.55 14.33
1/24/2021 5:00:00 PM 0.26 32.468 0.033 6.9 4.92 14.31
1/24/2021 5:15:00 PM 0.27 32.486 0.033 6.86 2.23 14.27
1/24/2021 5:30:00 PM 0.28 32.504 0.033 6.86 3.06 14.25
1/24/2021 5:45:00 PM 0.29 32.522 0.033 6.84 10.92 14.22
1/24/2021 6:00:00 PM 0.29 32.522 0.033 6.86 3.3 14.21
1/24/2021 6:15:00 PM 0.29 32.522 0.032 6.86 13.28 14.22
1/24/2021 6:30:00 PM 0.29 32.522 0.032 6.83 3.34 14.2
1/24/2021 6:45:00 PM 0.29 32.522 0.032 6.85 4.2 14.21
1/24/2021 7:00:00 PM 0.29 32.522 0.032 6.84 3.93 14.2
1/24/2021 7:15:00 PM 0.29 32.522 0.032 6.83 4.34 14.19
1/24/2021 7:30:00 PM 0.29 32.522 0.032 6.83 4.25 14.2
1/24/2021 7:45:00 PM 0.29 32.522 0.032 6.83 4.47 14.19
1/24/2021 8:00:00 PM 0.29 32.522 0.032 6.85 4.77 14.2
1/24/2021 8:15:00 PM 0.3 32.54 0.033 6.81 4.87 14.17
1/24/2021 8:30:00 PM 0.29 32.522 0.032 6.8 4.32 14.18
1/24/2021 8:45:00 PM 0.29 32.522 0.032 6.84 4.49 14.19
1/24/2021 9:00:00 PM 0.29 32.522 0.033 6.84 4.5 14.19
1/24/2021 9:15:00 PM 0.29 32.522 0.033 6.84 5.03 14.18
1/24/2021 9:30:00 PM 0.29 32.522 0.033 6.84 4.44 14.19
1/24/2021 9:45:00 PM 0.31 32.558 0.033 6.84 4.6 14.18
1/24/2021 10:00:00 PM 0.3 32.54 0.033 6.85 4.58 14.18
1/24/2021 10:15:00 PM 0.3 32.54 0.033 6.84 4.52 14.18
1/24/2021 10:30:00 PM 0.3 32.54 0.033 6.84 5.82 14.18
1/24/2021 10:45:00 PM 0.31 32.558 0.033 6.85 4.67 14.18
1/24/2021 11:00:00 PM 0.31 32.558 0.033 6.84 3.85 14.18
1/24/2021 11:15:00 PM 0.31 32.558 0.033 6.84 3.83 14.17
1/24/2021 11:30:00 PM 0.31 32.558 0.033 6.85 4.32 14.17
1/24/2021 11:45:00 PM 0.31 32.558 0.033 6.83 4.31 14.17
1/25/2021 12:00:00 AM 0.31 32.558 0.033 6.83 4.33 14.16
1/25/2021 12:15:00 AM 0.3 32.54 0.033 6.84 4.94 14.16
1/25/2021 12:30:00 AM 0.29 32.522 0.033 6.84 5.35 14.16
1/25/2021 12:45:00 AM 0.28 32.504 0.033 6.84 3.9 14.16
1/25/2021 1:00:00 AM 0.29 32.522 0.033 6.83 3.79 14.16
1/25/2021 1:15:00 AM 0.29 32.522 0.033 6.85 4.43 14.16
1/25/2021 1:30:00 AM 0.3 32.54 0.033 6.84 4.36 14.15
1/25/2021 1:45:00 AM 0.3 32.54 0.033 6.86 4.56 14.15
1/25/2021 2:00:00 AM 0.29 32.522 0.033 6.84 4.01 14.15
1/25/2021 2:15:00 AM 0.28 32.504 0.033 6.84 4.36 14.15
1/25/2021 2:30:00 AM 0.26 32.468 0.033 6.86 4.18 14.16
1/25/2021 2:45:00 AM 0.26 32.468 0.033 6.85 4.14 14.16
1/25/2021 3:00:00 AM 0.26 32.468 0.033 6.86 4.28 14.17
1/25/2021 3:15:00 AM 0.27 32.486 0.033 6.85 4.2 14.17
1/25/2021 3:30:00 AM 0.27 32.486 0.033 6.85 4.16 14.16
1/25/2021 3:45:00 AM 0.27 32.486 0.033 6.85 4.37 14.16
1/25/2021 4:00:00 AM 0.27 32.486 0.033 6.84 4.59 14.17
1/25/2021 4:15:00 AM 0.27 32.486 0.033 6.86 4.5 14.17
1/25/2021 4:30:00 AM 0.26 32.468 0.033 6.85 4.29 14.18
1/25/2021 4:45:00 AM 0.26 32.468 0.033 6.86 4.56 14.17
1/25/2021 5:00:00 AM 0.25 32.45 0.033 6.85 4.3 14.18
1/25/2021 5:15:00 AM 0.25 32.45 0.033 6.85 4.24 14.18
1/25/2021 5:30:00 AM 0.25 32.45 0.033 6.86 3.46 14.18
1/25/2021 5:45:00 AM 0.25 32.45 0.033 6.85 4.64 14.19
1/25/2021 6:00:00 AM 0.24 32.432 0.033 6.85 4.38 14.19
1/25/2021 6:15:00 AM 0.24 32.432 0.033 6.84 3.63 14.18
1/25/2021 6:30:00 AM 0.23 32.414 0.033 6.86 3.84 14.19
1/25/2021 6:45:00 AM 0.23 32.414 0.033 6.86 3.75 14.2
1/25/2021 7:00:00 AM 0.23 32.414 0.033 6.85 3.79 14.19
1/25/2021 7:15:00 AM 0.23 32.414 0.033 6.86 4.34 14.2
1/25/2021 7:30:00 AM 0.23 32.414 0.033 6.85 3.42 14.19
1/25/2021 7:45:00 AM 0.23 32.414 0.033 6.86 3.55 14.21
1/25/2021 8:00:00 AM 0.24 32.432 0.033 6.86 3.14 14.23
1/25/2021 8:15:00 AM 0.24 32.432 0.033 6.87 2.5 14.27
1/25/2021 8:30:00 AM 0.26 32.468 0.033 6.9 1.54 14.3
1/25/2021 8:45:00 AM 0.28 32.504 0.033 6.89 3.85 14.32
1/25/2021 9:00:00 AM 0.31 32.558 0.033 6.89 5.35 14.33
1/25/2021 9:15:00 AM 0.34 32.612 0.033 6.9 4.09 14.34
1/25/2021 9:30:00 AM 0.36 32.648 0.033 6.9 4.62 14.34
1/25/2021 9:45:00 AM 0.4 32.72 0.033 6.91 4.42 14.33
1/25/2021 10:00:00 AM 0.44 32.792 0.033 6.89 4.07 14.32
1/25/2021 10:15:00 AM 0.52 32.936 0.033 6.9 6.91 14.31
1/25/2021 10:30:00 AM 0.59 33.062 0.033 6.91 3.12 14.29
1/25/2021 10:45:00 AM 0.66 33.188 0.033 6.92 1.57 14.27
1/25/2021 11:00:00 AM 0.76 33.368 0.033 6.91 1.82 14.25
1/25/2021 11:15:00 AM 0.88 33.584 0.033 6.91 1.96 14.21
1/25/2021 11:30:00 AM 0.98 33.764 0.033 6.93 1.98 14.18
1/25/2021 11:45:00 AM 1.05 33.89 0.033 6.91 1.92 14.14
1/25/2021 12:00:00 PM 1.11 33.998 0.033 6.93 1.92 14.11
1/25/2021 12:15:00 PM 1.18 34.124 0.033 6.93 1.92 14.07
1/25/2021 12:30:00 PM 1.24 34.232 0.033 6.92 2 14.04
1/25/2021 12:45:00 PM 1.35 34.43 0.033 6.92 1.88 14.01
1/25/2021 1:00:00 PM 1.45 34.61 0.033 6.92 1.94 13.96
1/25/2021 1:15:00 PM 1.54 34.772 0.033 6.92 1.64 13.92
1/25/2021 1:30:00 PM 1.59 34.862 0.033 6.91 1.53 13.89
1/25/2021 1:45:00 PM 1.63 34.934 0.033 6.92 1.5 13.86
1/25/2021 2:00:00 PM 1.66 34.988 0.033 6.9 1.51 13.84
1/25/2021 2:15:00 PM 1.69 35.042 0.033 6.93 1.57 13.82
1/25/2021 2:30:00 PM 1.73 35.114 0.033 6.93 1.52 13.81
1/25/2021 2:45:00 PM 1.75 35.15 0.033 6.93 1.53 13.78
1/25/2021 3:00:00 PM 1.77 35.186 0.033 6.91 1.54 13.77
1/25/2021 3:15:00 PM 1.78 35.204 0.033 6.93 1.51 13.76
1/25/2021 3:30:00 PM 1.79 35.222 0.033 6.92 2.99 13.75
1/25/2021 3:45:00 PM 1.79 35.222 0.033 6.92 3.54 13.73
1/25/2021 4:00:00 PM 1.78 35.204 0.033 6.91 3.66 13.71
1/25/2021 4:15:00 PM 1.74 35.132 0.033 6.92 2.9 13.71
1/25/2021 4:30:00 PM 1.72 35.096 0.033 6.92 7.69 13.69
1/25/2021 4:45:00 PM 1.7 35.06 0.033 6.91 2.75 13.68
1/25/2021 5:00:00 PM 1.68 35.024 0.033 6.91 5.05 13.66
1/25/2021 5:15:00 PM 1.66 34.988 0.033 6.88 3.58 13.64
1/25/2021 5:30:00 PM 1.62 34.916 0.033 6.87 4.91 13.63
1/25/2021 5:45:00 PM 1.58 34.844 0.033 6.89 3.6 13.62
1/25/2021 6:00:00 PM 1.55 34.79 0.033 6.88 4.02 13.62
1/25/2021 6:15:00 PM 1.52 34.736 0.033 6.88 4.2 13.62
1/25/2021 6:30:00 PM 1.49 34.682 0.033 6.87 4.22 13.63
1/25/2021 6:45:00 PM 1.47 34.646 0.033 6.9 2 13.63
1/25/2021 7:00:00 PM 1.44 34.592 0.033 6.86 7.87 13.63
1/25/2021 7:15:00 PM 1.42 34.556 0.033 6.87 4.26 13.65
1/25/2021 7:30:00 PM 1.4 34.52 0.033 6.87 4.23 13.65
1/25/2021 7:45:00 PM 1.38 34.484 0.033 6.87 4.46 13.66
1/25/2021 8:00:00 PM 1.37 34.466 0.033 6.86 4.29 13.66
1/25/2021 8:15:00 PM 1.35 34.43 0.033 6.86 1.57 13.67
1/25/2021 8:30:00 PM 1.34 34.412 0.033 6.87 1.81 13.68
1/25/2021 8:45:00 PM 1.33 34.394 0.033 6.87 1.63 13.69
1/25/2021 9:00:00 PM 1.32 34.376 0.033 6.87 1.93 13.69
1/25/2021 9:15:00 PM 1.31 34.358 0.033 6.88 3.37 13.69
1/25/2021 9:30:00 PM 1.31 34.358 0.033 6.87 4.37 13.7
1/25/2021 9:45:00 PM 1.3 34.34 0.033 6.86 4.46 13.69
1/25/2021 10:00:00 PM 1.3 34.34 0.033 6.85 4.29 13.69
1/25/2021 10:15:00 PM 1.29 34.322 0.033 6.87 4.73 13.71
1/25/2021 10:30:00 PM 1.28 34.304 0.033 6.88 4.56 13.71
1/25/2021 10:45:00 PM 1.28 34.304 0.033 6.87 1.79 13.71
1/25/2021 11:00:00 PM 1.28 34.304 0.033 6.86 1.68 13.7
1/25/2021 11:15:00 PM 1.28 34.304 0.033 6.87 1.64 13.71
1/25/2021 11:30:00 PM 1.27 34.286 0.033 6.87 1.83 13.7
1/25/2021 11:45:00 PM 1.27 34.286 0.033 6.87 1.6 13.7
1/26/2021 12:00:00 AM 1.26 34.268 0.033 6.88 12.99 13.7
1/26/2021 12:15:00 AM 1.26 34.268 0.033 6.86 3.55 13.71
1/26/2021 12:30:00 AM 1.26 34.268 0.033 6.87 4.14 13.7
1/26/2021 12:45:00 AM 1.26 34.268 0.033 6.87 4.19 13.7
1/26/2021 1:00:00 AM 1.27 34.286 0.033 6.88 4.2 13.7
1/26/2021 1:15:00 AM 1.26 34.268 0.033 6.85 3.95 13.7
1/26/2021 1:30:00 AM 1.26 34.268 0.033 6.87 5.47 13.69
1/26/2021 1:45:00 AM 1.25 34.25 0.033 6.87 5.21 13.69
1/26/2021 2:00:00 AM 1.25 34.25 0.033 6.88 3.3 13.7
1/26/2021 2:15:00 AM 1.26 34.268 0.033 6.87 3.62 13.69
1/26/2021 2:30:00 AM 1.26 34.268 0.033 6.86 3.42 13.69
1/26/2021 2:45:00 AM 1.26 34.268 0.033 6.87 5.23 13.69
1/26/2021 3:00:00 AM 1.27 34.286 0.033 6.87 5.29 13.68
1/26/2021 3:15:00 AM 1.27 34.286 0.033 6.87 5.34 13.67
1/26/2021 3:30:00 AM 1.27 34.286 0.033 6.88 1.74 13.68
1/26/2021 3:45:00 AM 1.27 34.286 0.033 6.86 1.62 13.66
1/26/2021 4:00:00 AM 1.27 34.286 0.033 6.87 1.71 13.66
1/26/2021 4:15:00 AM 1.28 34.304 0.033 6.88 5.81 13.66
1/26/2021 4:30:00 AM 1.28 34.304 0.033 6.88 4.35 13.65
1/26/2021 4:45:00 AM 1.29 34.322 0.033 6.87 4.04 13.65
1/26/2021 5:00:00 AM 1.28 34.304 0.033 6.87 4.27 13.65
1/26/2021 5:15:00 AM 1.29 34.322 0.033 6.86 4.67 13.64
1/26/2021 5:30:00 AM 1.28 34.304 0.033 6.87 4.61 13.64
1/26/2021 5:45:00 AM 1.28 34.304 0.033 6.88 7.89 13.64
1/26/2021 6:00:00 AM 1.28 34.304 0.033 6.86 1.63 13.64
1/26/2021 6:15:00 AM 1.28 34.304 0.033 6.86 2.66 13.64
1/26/2021 6:30:00 AM 1.27 34.286 0.033 6.86 10.09 13.63
1/26/2021 6:45:00 AM 1.28 34.304 0.033 6.87 3.74 13.63
1/26/2021 7:00:00 AM 1.27 34.286 0.033 6.88 6.21 13.63
1/26/2021 7:15:00 AM 1.26 34.268 0.033 6.88 5.84 13.64
1/26/2021 7:30:00 AM 1.25 34.25 0.033 6.86 4.34 13.63
1/26/2021 7:45:00 AM 1.24 34.232 0.033 6.85 9.05 13.64
1/26/2021 8:00:00 AM 1.23 34.214 0.033 6.88 4.16 13.64
1/26/2021 8:15:00 AM 1.23 34.214 0.033 6.88 1.67 13.66
1/26/2021 8:30:00 AM 1.21 34.178 0.033 6.89 1.59 13.68
1/26/2021 8:45:00 AM 1.14 34.052 0.033 6.9 2.57 13.7
1/26/2021 9:00:00 AM 1.1 33.98 0.033 6.9 2.83 13.74
1/26/2021 9:15:00 AM 1.08 33.944 0.033 6.87 3.11 13.77
1/26/2021 9:30:00 AM 0.88 33.584 0.033 6.89 2.57 13.77
1/26/2021 9:45:00 AM 0.88 33.584 0.033 6.89 2.58 13.82
1/26/2021 10:00:00 AM 0.91 33.638 0.033 6.9 2.83 13.84
1/26/2021 10:15:00 AM 0.94 33.692 0.033 6.88 4.45 13.86
1/26/2021 10:30:00 AM 1 33.8 0.033 6.89 4.28 13.87
1/26/2021 10:45:00 AM 1.06 33.908 0.033 6.88 4.98 13.87
1/26/2021 11:00:00 AM 1.09 33.962 0.033 6.89 4.13 13.85
1/26/2021 11:15:00 AM 1.11 33.998 0.033 6.88 5.27 13.85
1/26/2021 11:30:00 AM 1.12 34.016 0.033 6.88 4.53 13.84
1/26/2021 11:45:00 AM 1.14 34.052 0.033 6.89 3.76 13.83
1/26/2021 12:00:00 PM 1.1 33.98 0.033 6.9 4.02 13.83
1/26/2021 12:15:00 PM 1.1 33.98 0.033 6.91 1.59 13.83
1/26/2021 12:30:00 PM 1.11 33.998 0.033 6.9 1.64 13.83
1/26/2021 12:45:00 PM 1.14 34.052 0.033 6.9 5.21 13.83
1/26/2021 1:00:00 PM 1.13 34.034 0.032 6.92 3.79 13.83
1/26/2021 1:15:00 PM 1.15 34.07 0.032 6.89 5.01 13.82
1/26/2021 1:30:00 PM 1.2 34.16 0.032 6.92 4.52 13.82
1/26/2021 1:45:00 PM 1.24 34.232 0.032 6.91 3.87 13.81
1/26/2021 2:00:00 PM 1.27 34.286 0.032 6.92 3.38 13.8
1/26/2021 2:15:00 PM 1.3 34.34 0.032 6.9 4.15 13.78
1/26/2021 2:30:00 PM 1.32 34.376 0.032 6.91 4.45 13.76
1/26/2021 2:45:00 PM 1.35 34.43 0.032 6.91 3.24 13.75
1/26/2021 3:00:00 PM 1.37 34.466 0.032 6.89 4.83 13.73
1/26/2021 3:15:00 PM 1.39 34.502 0.032 6.92 3.53 13.71
1/26/2021 3:30:00 PM 1.4 34.52 0.032 6.9 3.77 13.69
1/26/2021 3:45:00 PM 1.41 34.538 0.033 6.89 6.61 13.67
1/26/2021 4:00:00 PM 1.43 34.574 0.033 6.9 3.2 13.65
1/26/2021 4:15:00 PM 1.44 34.592 0.033 6.9 2.21 13.63
1/26/2021 4:30:00 PM 1.46 34.628 0.033 6.9 1.66 13.62
1/26/2021 4:45:00 PM 1.47 34.646 0.033 6.87 10.61 13.6
1/26/2021 5:00:00 PM 1.48 34.664 0.033 6.88 3.22 13.59
1/26/2021 5:15:00 PM 1.49 34.682 0.033 6.88 4.35 13.56
1/26/2021 5:30:00 PM 1.5 34.7 0.033 6.86 23.02 13.54
1/26/2021 5:45:00 PM 1.51 34.718 0.033 6.87 3.56 13.53
1/26/2021 6:00:00 PM 1.51 34.718 0.033 6.86 3.44 13.51
1/26/2021 6:15:00 PM 1.52 34.736 0.033 6.85 3.87 13.51
1/26/2021 6:30:00 PM 1.53 34.754 0.033 6.87 3.67 13.5
1/26/2021 6:45:00 PM 1.54 34.772 0.033 6.87 3.02 13.5
1/26/2021 7:00:00 PM 1.55 34.79 0.033 6.87 3.3 13.49
1/26/2021 7:15:00 PM 1.55 34.79 0.033 6.83 3.48 13.49
1/26/2021 7:30:00 PM 1.57 34.826 0.033 6.85 3.94 13.48
1/26/2021 7:45:00 PM 1.57 34.826 0.033 6.86 4.19 13.49
1/26/2021 8:00:00 PM 1.58 34.844 0.033 6.87 1.62 13.49
1/26/2021 8:15:00 PM 1.59 34.862 0.033 6.88 7.64 13.48
1/26/2021 8:30:00 PM 1.59 34.862 0.033 6.86 3.53 13.48
1/26/2021 8:45:00 PM 1.6 34.88 0.033 6.85 3.94 13.48
1/26/2021 9:00:00 PM 1.61 34.898 0.033 6.86 4.21 13.47
1/26/2021 9:15:00 PM 1.62 34.916 0.033 6.87 4.13 13.48
1/26/2021 9:30:00 PM 1.63 34.934 0.033 6.85 1.58 13.48
1/26/2021 9:45:00 PM 1.64 34.952 0.033 6.86 3.4 13.47
1/26/2021 10:00:00 PM 1.65 34.97 0.033 6.85 4.4 13.47
1/26/2021 10:15:00 PM 1.66 34.988 0.033 6.87 3.79 13.47
1/26/2021 10:30:00 PM 1.67 35.006 0.033 6.86 22.24 13.46
1/26/2021 10:45:00 PM 1.67 35.006 0.033 6.86 3.8 13.46
1/26/2021 11:00:00 PM 1.68 35.024 0.033 6.87 4.5 13.46
1/26/2021 11:15:00 PM 1.69 35.042 0.033 6.85 4.42 13.46
1/26/2021 11:30:00 PM 1.69 35.042 0.033 6.87 4.31 13.46
1/26/2021 11:45:00 PM 1.7 35.06 0.033 6.86 4.28 13.46
1/27/2021 12:00:00 AM 1.7 35.06 0.033 6.86 3.81 13.46
1/27/2021 12:15:00 AM 1.71 35.078 0.033 6.85 8.48 13.46
1/27/2021 12:30:00 AM 1.71 35.078 0.033 6.85 3.45 13.46
1/27/2021 12:45:00 AM 1.71 35.078 0.033 6.86 3.77 13.47
1/27/2021 1:00:00 AM 1.71 35.078 0.033 6.86 3.47 13.47
1/27/2021 1:15:00 AM 1.71 35.078 0.033 6.87 4.07 13.47
1/27/2021 1:30:00 AM 1.7 35.06 0.033 6.87 4.25 13.47
1/27/2021 1:45:00 AM 1.7 35.06 0.033 6.84 4.19 13.47
1/27/2021 2:00:00 AM 1.69 35.042 0.033 6.87 4.62 13.48
1/27/2021 2:15:00 AM 1.69 35.042 0.033 6.86 2.96 13.49
1/27/2021 2:30:00 AM 1.68 35.024 0.033 6.86 3.96 13.5
1/27/2021 2:45:00 AM 1.68 35.024 0.033 6.86 3.51 13.5
1/27/2021 3:00:00 AM 1.68 35.024 0.033 6.86 4.44 13.51
1/27/2021 3:15:00 AM 1.67 35.006 0.033 6.87 4.34 13.52
1/27/2021 3:30:00 AM 1.66 34.988 0.033 6.87 4.39 13.52
1/27/2021 3:45:00 AM 1.65 34.97 0.033 6.86 4.81 13.53
1/27/2021 4:00:00 AM 1.65 34.97 0.033 6.87 4.49 13.53
1/27/2021 4:15:00 AM 1.64 34.952 0.033 6.87 4.69 13.54
1/27/2021 4:30:00 AM 1.64 34.952 0.033 6.87 2.44 13.55
1/27/2021 4:45:00 AM 1.63 34.934 0.033 6.86 1.62 13.55
1/27/2021 5:00:00 AM 1.62 34.916 0.033 6.87 1.58 13.55
1/27/2021 5:15:00 AM 1.61 34.898 0.033 6.85 1.54 13.56
1/27/2021 5:30:00 AM 1.6 34.88 0.033 6.88 1.59 13.57
1/27/2021 5:45:00 AM 1.58 34.844 0.033 6.87 1.58 13.58
1/27/2021 6:00:00 AM 1.57 34.826 0.033 6.86 1.59 13.58
1/27/2021 6:15:00 AM 1.55 34.79 0.033 6.87 13.29 13.6
1/27/2021 6:30:00 AM 1.54 34.772 0.033 6.86 2.59 13.6
1/27/2021 6:45:00 AM 1.52 34.736 0.033 6.87 4.44 13.62
1/27/2021 7:00:00 AM 1.51 34.718 0.033 6.87 4.35 13.62
1/27/2021 7:15:00 AM 1.5 34.7 0.033 6.85 4.02 13.63
1/27/2021 7:30:00 AM 1.48 34.664 0.033 6.87 4.64 13.64
1/27/2021 7:45:00 AM 1.47 34.646 0.033 6.86 3.84 13.65
1/27/2021 8:00:00 AM 1.45 34.61 0.033 6.87 4.13 13.68
1/27/2021 8:15:00 AM 1.45 34.61 0.033 6.88 5.71 13.7
1/27/2021 8:30:00 AM 1.44 34.592 0.033 6.88 5 13.74
1/27/2021 8:45:00 AM 1.43 34.574 0.033 6.89 2.15 13.77
1/27/2021 9:00:00 AM 1.43 34.574 0.033 6.9 1.83 13.79
1/27/2021 9:15:00 AM 1.43 34.574 0.033 6.9 1.6 13.82
1/27/2021 9:30:00 AM 1.42 34.556 0.033 6.89 3.39 13.83
1/27/2021 9:45:00 AM 1.42 34.556 0.033 6.9 2 13.84
1/27/2021 10:00:00 AM 1.42 34.556 0.033 6.92 1.71 13.87
1/27/2021 10:15:00 AM 1.43 34.574 0.033 6.91 1.92 13.88
1/27/2021 10:30:00 AM 1.45 34.61 0.033 6.92 2.3 13.89
1/27/2021 10:45:00 AM 1.49 34.682 0.033 6.91 2.89 13.89
1/27/2021 11:00:00 AM 1.53 34.754 0.033 6.92 3.31 13.9
1/27/2021 11:15:00 AM 1.57 34.826 0.033 6.92 3.39 13.9
1/27/2021 11:30:00 AM 1.59 34.862 0.033 6.93 3.64 13.89
1/27/2021 11:45:00 AM 1.59 34.862 0.033 6.92 3.4 13.88
1/27/2021 12:00:00 PM 1.59 34.862 0.033 6.93 2.69 13.87
1/27/2021 12:15:00 PM 1.59 34.862 0.033 6.92 2.89 13.87
1/27/2021 12:30:00 PM 1.62 34.916 0.033 6.93 2.65 13.87
1/27/2021 12:45:00 PM 1.65 34.97 0.033 6.93 2.71 13.86
1/27/2021 1:00:00 PM 1.69 35.042 0.033 6.91 3.08 13.85
1/27/2021 1:15:00 PM 1.71 35.078 0.033 6.91 3.22 13.84
1/27/2021 1:30:00 PM 1.7 35.06 0.033 6.93 2.53 13.84
1/27/2021 1:45:00 PM 1.68 35.024 0.033 6.89 4.48 13.83
1/27/2021 2:00:00 PM 1.66 34.988 0.033 6.92 3.65 13.84
1/27/2021 2:15:00 PM 1.65 34.97 0.033 6.92 3.86 13.83
1/27/2021 2:30:00 PM 1.65 34.97 0.033 6.92 4.47 13.83
1/27/2021 2:45:00 PM 1.64 34.952 0.033 6.89 3.42 13.82
1/27/2021 3:00:00 PM 1.64 34.952 0.033 6.92 4.33 13.82
1/27/2021 3:15:00 PM 1.63 34.934 0.033 6.93 3.09 13.81
1/27/2021 3:30:00 PM 1.63 34.934 0.033 6.89 3.18 13.81
1/27/2021 3:45:00 PM 1.61 34.898 0.033 6.92 3.98 13.8
1/27/2021 4:00:00 PM 1.59 34.862 0.033 6.92 4.07 13.8
1/27/2021 4:15:00 PM 1.56 34.808 0.033 6.9 4.4 13.79
1/27/2021 4:30:00 PM 1.54 34.772 0.033 6.9 3.7 13.77
1/27/2021 4:45:00 PM 1.53 34.754 0.033 6.88 4.03 13.76
1/27/2021 5:00:00 PM 1.51 34.718 0.033 6.89 5.46 13.75
1/27/2021 5:15:00 PM 1.49 34.682 0.033 6.88 4.96 13.74
1/27/2021 5:30:00 PM 1.45 34.61 0.033 6.87 3.92 13.73
1/27/2021 5:45:00 PM 1.4 34.52 0.033 6.87 6.13 13.73
1/27/2021 6:00:00 PM 1.35 34.43 0.033 6.87 5.41 13.73
1/27/2021 6:15:00 PM 1.31 34.358 0.033 6.86 7.06 13.74
1/27/2021 6:30:00 PM 1.27 34.286 0.033 6.87 7.63 13.75
1/27/2021 6:45:00 PM 1.24 34.232 0.033 6.88 5.04 13.77
1/27/2021 7:00:00 PM 1.2 34.16 0.033 6.86 8.75 13.78
1/27/2021 7:15:00 PM 1.16 34.088 0.033 6.85 6.97 13.79
1/27/2021 7:30:00 PM 1.11 33.998 0.033 6.88 2.41 13.81
1/27/2021 7:45:00 PM 1.07 33.926 0.033 6.85 3.92 13.83
1/27/2021 8:00:00 PM 1.04 33.872 0.033 6.86 6.26 13.85
1/27/2021 8:15:00 PM 1.02 33.836 0.033 6.86 1.73 13.85
1/27/2021 8:30:00 PM 1 33.8 0.033 6.87 12.08 13.86
1/27/2021 8:45:00 PM 0.97 33.746 0.033 6.87 4.11 13.88
1/27/2021 9:00:00 PM 0.91 33.638 0.033 6.87 3.95 13.9
1/27/2021 9:15:00 PM 0.86 33.548 0.033 6.86 3.82 13.92
1/27/2021 9:30:00 PM 0.83 33.494 0.033 6.87 4.57 13.93
1/27/2021 9:45:00 PM 0.79 33.422 0.033 6.85 4.36 13.95
1/27/2021 10:00:00 PM 0.76 33.368 0.033 6.86 4.21 13.96
1/27/2021 10:15:00 PM 0.72 33.296 0.033 6.86 4.51 13.98
1/27/2021 10:30:00 PM 0.68 33.224 0.033 6.86 3.13 14
1/27/2021 10:45:00 PM 0.65 33.17 0.033 6.85 3.48 14.01
1/27/2021 11:00:00 PM 0.62 33.116 0.033 6.86 3.82 14.04
1/27/2021 11:15:00 PM 0.61 33.098 0.033 6.85 4.55 14.04
1/27/2021 11:30:00 PM 0.58 33.044 0.033 6.86 4.36 14.06
1/27/2021 11:45:00 PM 0.53 32.954 0.033 6.87 4.79 14.07
1/28/2021 12:00:00 AM 0.5 32.9 0.033 6.86 4.23 14.08
1/28/2021 12:15:00 AM 0.46 32.828 0.033 6.85 4.37 14.1
1/28/2021 12:30:00 AM 0.42 32.756 0.033 6.82 4.46 14.11
1/28/2021 12:45:00 AM 0.39 32.702 0.033 6.85 4.11 14.12
1/28/2021 1:00:00 AM 0.35 32.63 0.033 6.86 4.42 14.13
1/28/2021 1:15:00 AM 0.32 32.576 0.033 6.83 3.93 14.15
1/28/2021 1:30:00 AM 0.28 32.504 0.033 6.86 4.27 14.16
1/28/2021 1:45:00 AM 0.25 32.45 0.033 6.85 4.06 14.18
1/28/2021 2:00:00 AM 0.23 32.414 0.033 6.85 3.35 14.19
1/28/2021 2:15:00 AM 0.22 32.396 0.033 6.82 5.7 14.19
1/28/2021 2:30:00 AM 0.2 32.36 0.033 6.87 6.96 14.21
1/28/2021 2:45:00 AM 0.17 32.306 0.033 6.83 8.75 14.22
1/28/2021 3:00:00 AM 0.15 32.27 0.033 6.85 5.34 14.24
1/28/2021 3:15:00 AM 0.13 32.234 0.033 6.85 5.95 14.25
1/28/2021 3:30:00 AM 0.12 32.216 0.033 6.85 5.59 14.25
1/28/2021 3:45:00 AM 0.09 32.162 0.033 6.85 5.16 14.26
1/28/2021 4:00:00 AM 0.06 32.108 0.033 6.86 5.62 14.29
1/28/2021 4:15:00 AM 0.05 32.09 0.033 6.85 3.14 14.3
1/28/2021 4:30:00 AM 0.04 32.072 0.034 6.85 2.47 14.29
1/28/2021 4:45:00 AM 0.03 32.054 0.033 6.85 2.65 14.3
1/28/2021 5:00:00 AM 0.02 32.036 0.033 6.86 2.64 14.31
1/28/2021 5:15:00 AM 0.01 32.018 0.033 6.84 2.42 14.32
1/28/2021 5:30:00 AM 0 32 0.033 6.86 3.33 14.32
1/28/2021 5:45:00 AM -0.01 31.982 0.033 6.85 2.45 14.33
1/28/2021 6:00:00 AM -0.03 31.946 0.033 6.86 2.95 14.34
1/28/2021 6:15:00 AM -0.05 31.91 0.033 6.85 2.96 14.34
1/28/2021 6:30:00 AM -0.06 31.892 0.034 6.85 2.76 14.37
1/28/2021 6:45:00 AM -0.06 31.892 0.034 6.84 2.85 14.39
1/28/2021 7:00:00 AM -0.06 31.892 0.034 6.86 2.79 14.39
1/28/2021 7:15:00 AM -0.05 31.91 0.034 6.84 2.7 14.39
1/28/2021 7:30:00 AM -0.05 31.91 0.034 6.86 2.75 14.4
1/28/2021 7:45:00 AM -0.05 31.91 0.034 6.85 2.8 14.4
1/28/2021 8:00:00 AM -0.04 31.928 0.034 6.83 3.06 14.42
1/28/2021 8:15:00 AM -0.04 31.928 0.034 6.85 3.04 14.46
1/28/2021 8:30:00 AM -0.05 31.91 0.034 6.87 3.24 14.51
1/28/2021 8:45:00 AM -0.05 31.91 0.034 6.88 3.47 14.54
1/28/2021 9:00:00 AM -0.05 31.91 0.034 6.91 2.98 14.57
1/28/2021 9:15:00 AM -0.04 31.928 0.034 6.91 10.68 14.58
1/28/2021 9:30:00 AM -0.04 31.928 0.034 6.91 2.7 14.59
1/28/2021 9:45:00 AM -0.03 31.946 0.034 6.92 2.81 14.59
1/28/2021 10:00:00 AM -0.03 31.946 0.034 6.91 3.15 14.59
1/28/2021 10:15:00 AM -0.02 31.964 0.034 6.92 3.08 14.59
1/28/2021 10:30:00 AM 0 32 0.034 6.92 2.95 14.58
1/28/2021 10:45:00 AM 0.03 32.054 0.034 6.91 2.94 14.58
1/28/2021 11:00:00 AM 0.09 32.162 0.034 6.92 3 14.57
1/28/2021 11:15:00 AM 0.11 32.198 0.034 6.93 3.03 14.56
1/28/2021 11:30:00 AM 0.12 32.216 0.034 6.89 3.01 14.54
1/28/2021 11:45:00 AM 0.15 32.27 0.034 6.92 3.28 14.53
1/28/2021 12:00:00 PM 0.16 32.288 0.033 6.92 4.61 14.53
1/28/2021 12:15:00 PM 0.22 32.396 0.033 6.91 3.36 14.52
1/28/2021 12:30:00 PM 0.25 32.45 0.033 6.9 3.73 14.49
1/28/2021 12:45:00 PM 0.32 32.576 0.033 6.93 4.14 14.48
1/28/2021 1:00:00 PM 0.42 32.756 0.033 6.93 68.09 14.45
1/28/2021 1:15:00 PM 0.44 32.792 0.033 6.91 1.88 14.43
1/28/2021 1:30:00 PM 0.54 32.972 0.033 6.9 2.35 14.41
1/28/2021 1:45:00 PM 0.6 33.08 0.033 6.93 1.55 14.38
1/28/2021 2:00:00 PM 0.68 33.224 0.033 6.92 11.23 14.36
1/28/2021 2:15:00 PM 0.66 33.188 0.033 6.92 5.35 14.33
1/28/2021 2:30:00 PM 0.61 33.098 0.033 6.92 3.97 14.33
1/28/2021 2:45:00 PM 0.61 33.098 0.033 6.93 4.61 14.34
1/28/2021 3:00:00 PM 0.62 33.116 0.033 6.92 4.73 14.34
1/28/2021 3:15:00 PM 0.6 33.08 0.033 6.9 4.63 14.33
1/28/2021 3:30:00 PM 0.52 32.936 0.033 6.92 6.97 14.35
1/28/2021 3:45:00 PM 0.47 32.846 0.033 6.93 1.57 14.37
1/28/2021 4:00:00 PM 0.38 32.684 0.033 6.94 4.42 14.4
1/28/2021 4:15:00 PM 0.3 32.54 0.033 6.93 2.71 14.42
1/28/2021 4:30:00 PM 0.23 32.414 0.033 6.92 3.9 14.44
1/28/2021 4:45:00 PM 0.15 32.27 0.033 6.89 2.87 14.44
1/28/2021 5:00:00 PM 0.1 32.18 0.033 6.9 4.98 14.44
1/28/2021 5:15:00 PM 0.08 32.144 0.033 6.88 5.19 14.43
1/28/2021 5:30:00 PM 0.05 32.09 0.033 6.9 3.05 14.42
1/28/2021 5:45:00 PM 0.02 32.036 0.033 6.89 3.06 14.41
1/28/2021 6:00:00 PM 0 32 0.033 6.87 3.26 14.4
1/28/2021 6:15:00 PM -0.03 31.946 0.033 6.88 3.03 14.41
1/28/2021 6:30:00 PM -0.05 31.91 0.033 6.88 3.12 14.42
1/28/2021 6:45:00 PM -0.05 31.91 0.033 6.87 3.13 14.42
1/28/2021 7:00:00 PM -0.05 31.91 0.033 6.85 5.35 14.43
1/28/2021 7:15:00 PM -0.05 31.91 0.033 6.85 4.46 14.43
1/28/2021 7:30:00 PM -0.05 31.91 0.034 6.87 5.33 14.43
1/28/2021 7:45:00 PM -0.05 31.91 0.034 6.87 1.6 14.43
1/28/2021 8:00:00 PM -0.05 31.91 0.034 6.86 3.89 14.43
1/28/2021 8:15:00 PM -0.05 31.91 0.034 6.87 1.65 14.43
1/28/2021 8:30:00 PM -0.05 31.91 0.034 6.86 1.56 14.43
1/28/2021 8:45:00 PM -0.05 31.91 0.034 6.87 1.66 14.43
1/28/2021 9:00:00 PM -0.05 31.91 0.034 6.88 1.57 14.42
1/28/2021 9:15:00 PM -0.05 31.91 0.034 6.87 1.57 14.42
1/28/2021 9:30:00 PM -0.04 31.928 0.034 6.86 1.55 14.4
1/28/2021 9:45:00 PM -0.04 31.928 0.034 6.87 1.95 14.41
1/28/2021 10:00:00 PM -0.04 31.928 0.034 6.86 1.68 14.41
1/28/2021 10:15:00 PM -0.05 31.91 0.034 6.87 1.62 14.41
1/28/2021 10:30:00 PM -0.04 31.928 0.034 6.86 1.56 14.4
1/28/2021 10:45:00 PM -0.04 31.928 0.034 6.85 1.55 14.4
1/28/2021 11:00:00 PM -0.04 31.928 0.034 6.86 1.52 14.4
1/28/2021 11:15:00 PM -0.03 31.946 0.034 6.86 1.57 14.39
1/28/2021 11:30:00 PM -0.05 31.91 0.034 6.87 1.53 14.41
1/28/2021 11:45:00 PM -0.03 31.946 0.034 6.85 1.52 14.39
1/29/2021 12:00:00 AM -0.04 31.928 0.034 6.85 1.49 14.39
1/29/2021 12:15:00 AM -0.04 31.928 0.035 6.86 1.54 14.39
1/29/2021 12:30:00 AM -0.04 31.928 0.035 6.86 1.52 14.38
1/29/2021 12:45:00 AM -0.04 31.928 0.035 6.84 1.64 14.38
1/29/2021 1:00:00 AM -0.03 31.946 0.035 6.86 1.55 14.37
1/29/2021 1:15:00 AM -0.04 31.928 0.035 6.85 1.53 14.37
1/29/2021 1:30:00 AM -0.04 31.928 0.035 6.86 1.59 14.37
1/29/2021 1:45:00 AM -0.04 31.928 0.035 6.86 1.56 14.37
1/29/2021 2:00:00 AM -0.04 31.928 0.035 6.87 1.55 14.38
1/29/2021 2:15:00 AM -0.04 31.928 0.035 6.84 1.51 14.37
1/29/2021 2:30:00 AM -0.04 31.928 0.035 6.87 1.81 14.38
1/29/2021 2:45:00 AM -0.04 31.928 0.035 6.87 1.65 14.38
1/29/2021 3:00:00 AM -0.04 31.928 0.035 6.87 1.57 14.37
1/29/2021 3:15:00 AM -0.04 31.928 0.035 6.84 1.52 14.37
1/29/2021 3:30:00 AM -0.04 31.928 0.035 6.85 1.6 14.37
1/29/2021 3:45:00 AM -0.04 31.928 0.035 6.86 1.53 14.37
1/29/2021 4:00:00 AM -0.04 31.928 0.035 6.85 1.69 14.37
1/29/2021 4:15:00 AM -0.04 31.928 0.035 6.86 1.77 14.37
1/29/2021 4:30:00 AM -0.04 31.928 0.035 6.86 1.62 14.38
1/29/2021 4:45:00 AM -0.04 31.928 0.035 6.85 1.49 14.38
1/29/2021 5:00:00 AM -0.04 31.928 0.035 6.84 1.55 14.37
1/29/2021 5:15:00 AM -0.04 31.928 0.035 6.86 1.52 14.38
1/29/2021 5:30:00 AM -0.03 31.946 0.035 6.84 1.47 14.37
1/29/2021 5:45:00 AM -0.04 31.928 0.035 6.85 1.71 14.38
1/29/2021 6:00:00 AM -0.04 31.928 0.035 6.85 1.6 14.39
1/29/2021 6:15:00 AM -0.04 31.928 0.035 6.85 1.51 14.38
1/29/2021 6:30:00 AM -0.04 31.928 0.035 6.88 2.04 14.38
1/29/2021 6:45:00 AM -0.04 31.928 0.035 6.86 1.51 14.38
1/29/2021 7:00:00 AM -0.04 31.928 0.035 6.85 1.55 14.38
1/29/2021 7:15:00 AM -0.04 31.928 0.035 6.87 1.59 14.38
1/29/2021 7:30:00 AM -0.04 31.928 0.035 6.84 1.53 14.38
1/29/2021 7:45:00 AM -0.04 31.928 0.035 6.86 1.71 14.39
1/29/2021 8:00:00 AM -0.03 31.946 0.035 6.86 1.52 14.41
1/29/2021 8:15:00 AM -0.04 31.928 0.035 6.86 1.71 14.44
1/29/2021 8:30:00 AM -0.03 31.946 0.035 6.89 1.5 14.47
1/29/2021 8:45:00 AM -0.03 31.946 0.035 6.87 1.67 14.5
1/29/2021 9:00:00 AM -0.03 31.946 0.035 6.88 1.86 14.52
1/29/2021 9:15:00 AM -0.03 31.946 0.035 6.9 2.18 14.54
1/29/2021 9:30:00 AM -0.02 31.964 0.036 6.89 1.72 14.55
1/29/2021 9:45:00 AM -0.03 31.946 0.036 6.88 2.7 14.55
1/29/2021 10:00:00 AM -0.03 31.946 0.036 6.9 3.93 14.56
1/29/2021 10:15:00 AM -0.02 31.964 0.035 6.91 4.61 14.56
1/29/2021 10:30:00 AM -0.03 31.946 0.035 6.91 4.14 14.56
1/29/2021 10:45:00 AM -0.02 31.964 0.035 6.91 3.19 14.56
1/29/2021 11:00:00 AM -0.02 31.964 0.035 6.9 3.17 14.56
1/29/2021 11:15:00 AM -0.02 31.964 0.035 6.91 3.41 14.55
1/29/2021 11:30:00 AM -0.03 31.946 0.035 6.92 3.32 14.55
1/29/2021 11:45:00 AM -0.02 31.964 0.035 6.91 3.32 14.54
1/29/2021 12:00:00 PM -0.01 31.982 0.035 6.91 3.19 14.53
1/29/2021 12:15:00 PM -0.02 31.964 0.035 6.89 4.08 14.52
1/29/2021 12:30:00 PM -0.02 31.964 0.035 6.93 3.76 14.52
1/29/2021 12:45:00 PM -0.02 31.964 0.035 6.88 3.6 14.52
1/29/2021 1:00:00 PM -0.02 31.964 0.035 6.91 3.35 14.51
1/29/2021 1:15:00 PM -0.02 31.964 0.034 6.9 3.11 14.51
1/29/2021 1:30:00 PM -0.01 31.982 0.034 6.91 3.08 14.51
1/29/2021 1:45:00 PM 0 32 0.034 6.9 4.53 14.5
1/29/2021 2:00:00 PM 0 32 0.034 6.9 4.69 14.49
1/29/2021 2:15:00 PM 0.01 32.018 0.034 6.91 2.16 14.5
1/29/2021 2:30:00 PM 0.01 32.018 0.034 6.9 2.55 14.49
1/29/2021 2:45:00 PM 0.02 32.036 0.034 6.9 2.7 14.5
1/29/2021 3:00:00 PM 0.02 32.036 0.034 6.89 2.6 14.49
1/29/2021 3:15:00 PM 0.02 32.036 0.034 6.89 2.58 14.5
1/29/2021 3:30:00 PM 0.01 32.018 0.034 6.91 2.58 14.51
1/29/2021 3:45:00 PM 0 32 0.034 6.9 2.66 14.51
1/29/2021 4:00:00 PM 0 32 0.034 6.87 2.79 14.51
1/29/2021 4:15:00 PM -0.01 31.982 0.034 6.9 2.52 14.51
1/29/2021 4:30:00 PM -0.02 31.964 0.034 6.9 2.74 14.49
1/29/2021 4:45:00 PM -0.03 31.946 0.034 6.89 2.36 14.48
1/29/2021 5:00:00 PM -0.03 31.946 0.034 6.88 2.44 14.46
1/29/2021 5:15:00 PM -0.03 31.946 0.034 6.88 2.83 14.44
1/29/2021 5:30:00 PM -0.03 31.946 0.034 6.88 14.67 14.42
1/29/2021 5:45:00 PM -0.03 31.946 0.034 6.87 5.42 14.39
1/29/2021 6:00:00 PM -0.03 31.946 0.034 6.86 8.38 14.38
1/29/2021 6:15:00 PM -0.04 31.928 0.034 6.86 3.79 14.37
1/29/2021 6:30:00 PM -0.04 31.928 0.034 6.82 13.16 14.37
1/29/2021 6:45:00 PM -0.03 31.946 0.034 6.85 4.39 14.37
1/29/2021 7:00:00 PM -0.03 31.946 0.034 6.85 2.16 14.37
1/29/2021 7:15:00 PM -0.03 31.946 0.034 6.84 2.93 14.36
1/29/2021 7:30:00 PM -0.03 31.946 0.034 6.84 20.43 14.36
1/29/2021 7:45:00 PM -0.03 31.946 0.034 6.85 9.19 14.36
1/29/2021 8:00:00 PM -0.02 31.964 0.034 6.84 7.08 14.35
1/29/2021 8:15:00 PM -0.03 31.946 0.034 6.83 6.06 14.36
1/29/2021 8:30:00 PM -0.03 31.946 0.034 6.84 4.8 14.36
1/29/2021 8:45:00 PM -0.03 31.946 0.034 6.82 3.64 14.35
1/29/2021 9:00:00 PM -0.03 31.946 0.034 6.83 5.09 14.35
1/29/2021 9:15:00 PM -0.03 31.946 0.034 6.84 9.87 14.35
1/29/2021 9:30:00 PM -0.03 31.946 0.034 6.81 3.99 14.35
1/29/2021 9:45:00 PM -0.04 31.928 0.034 6.84 7.04 14.35
1/29/2021 10:00:00 PM -0.04 31.928 0.034 6.83 4.57 14.35
1/29/2021 10:15:00 PM -0.03 31.946 0.034 6.84 4.57 14.35
1/29/2021 10:30:00 PM -0.04 31.928 0.034 6.84 5.31 14.36
1/29/2021 10:45:00 PM -0.04 31.928 0.034 6.85 4.43 14.36
1/29/2021 11:00:00 PM -0.04 31.928 0.034 6.85 4.46 14.36
1/29/2021 11:15:00 PM -0.04 31.928 0.034 6.82 5.24 14.35
1/29/2021 11:30:00 PM -0.04 31.928 0.034 6.83 4.94 14.37
1/29/2021 11:45:00 PM -0.04 31.928 0.034 6.85 4.81 14.37
1/30/2021 12:00:00 AM -0.04 31.928 0.034 6.84 4.54 14.37
1/30/2021 12:15:00 AM -0.04 31.928 0.034 6.85 3.8 14.37
1/30/2021 12:30:00 AM -0.04 31.928 0.034 6.83 4.46 14.37
1/30/2021 12:45:00 AM -0.03 31.946 0.034 6.84 6.65 14.37
1/30/2021 1:00:00 AM -0.03 31.946 0.034 6.85 4.63 14.37
1/30/2021 1:15:00 AM -0.04 31.928 0.034 6.82 8.66 14.38
1/30/2021 1:30:00 AM -0.04 31.928 0.034 6.85 4.28 14.38
1/30/2021 1:45:00 AM -0.04 31.928 0.034 6.85 4.97 14.37
1/30/2021 2:00:00 AM -0.04 31.928 0.034 6.83 8.78 14.38
1/30/2021 2:15:00 AM -0.04 31.928 0.034 6.84 6.43 14.38
1/30/2021 2:30:00 AM -0.04 31.928 0.034 6.85 5.52 14.38
1/30/2021 2:45:00 AM -0.04 31.928 0.034 6.84 5.68 14.38
1/30/2021 3:00:00 AM -0.04 31.928 0.034 6.84 4.77 14.38
1/30/2021 3:15:00 AM -0.04 31.928 0.034 6.85 4.46 14.38
1/30/2021 3:30:00 AM -0.04 31.928 0.034 6.84 5.65 14.38
1/30/2021 3:45:00 AM -0.04 31.928 0.034 6.83 3.9 14.37
1/30/2021 4:00:00 AM -0.04 31.928 0.034 6.84 3.27 14.38
1/30/2021 4:15:00 AM -0.04 31.928 0.034 6.84 2.6 14.38
1/30/2021 4:30:00 AM -0.04 31.928 0.034 6.86 3.13 14.38
1/30/2021 4:45:00 AM -0.04 31.928 0.035 6.83 3.14 14.38
1/30/2021 5:00:00 AM -0.04 31.928 0.035 6.85 3.15 14.38
1/30/2021 5:15:00 AM -0.04 31.928 0.035 6.82 3.22 14.38
1/30/2021 5:30:00 AM -0.04 31.928 0.035 6.84 3.35 14.38
1/30/2021 5:45:00 AM -0.03 31.946 0.035 6.84 3.38 14.37
1/30/2021 6:00:00 AM -0.03 31.946 0.035 6.83 3.34 14.37
1/30/2021 6:15:00 AM -0.03 31.946 0.035 6.84 3.45 14.38
1/30/2021 6:30:00 AM -0.03 31.946 0.035 6.83 2.92 14.37
1/30/2021 6:45:00 AM -0.03 31.946 0.035 6.82 3 14.38
1/30/2021 7:00:00 AM -0.04 31.928 0.035 6.83 3.09 14.38
1/30/2021 7:15:00 AM -0.04 31.928 0.035 6.83 4.09 14.38
1/30/2021 7:30:00 AM -0.04 31.928 0.035 6.84 4.38 14.39
1/30/2021 7:45:00 AM -0.04 31.928 0.035 6.84 3.56 14.41
1/30/2021 8:00:00 AM -0.04 31.928 0.035 6.84 3.42 14.43
1/30/2021 8:15:00 AM -0.03 31.946 0.035 6.83 4.52 14.47
1/30/2021 8:30:00 AM -0.03 31.946 0.035 6.86 4.41 14.5
1/30/2021 8:45:00 AM -0.03 31.946 0.035 6.85 4.55 14.52
1/30/2021 9:00:00 AM -0.02 31.964 0.035 6.86 4.76 14.55
1/30/2021 9:15:00 AM -0.03 31.946 0.035 6.86 4.69 14.56
1/30/2021 9:30:00 AM -0.03 31.946 0.035 6.88 4.69 14.57
1/30/2021 9:45:00 AM -0.02 31.964 0.035 6.89 4.56 14.58
1/30/2021 10:00:00 AM -0.02 31.964 0.035 6.88 4.84 14.59
1/30/2021 10:15:00 AM -0.01 31.982 0.035 6.85 4.6 14.59
1/30/2021 10:30:00 AM -0.01 31.982 0.035 6.87 4.75 14.59
1/30/2021 10:45:00 AM 0 32 0.035 6.88 4.87 14.59
1/30/2021 11:00:00 AM -0.01 31.982 0.035 6.87 4.63 14.58
1/30/2021 11:15:00 AM 0 32 0.035 6.89 1.5 14.57
1/30/2021 11:30:00 AM -0.02 31.964 0.035 6.9 1.68 14.57
1/30/2021 11:45:00 AM 0 32 0.035 6.88 1.63 14.55
1/30/2021 12:00:00 PM 0.02 32.036 0.035 6.89 3.36 14.56
1/30/2021 12:15:00 PM 0.1 32.18 0.034 6.9 2.63 14.54
1/30/2021 12:30:00 PM 0.15 32.27 0.034 6.9 2.89 14.53
1/30/2021 12:45:00 PM 0.21 32.378 0.034 6.9 2.84 14.51
1/30/2021 1:00:00 PM 0.24 32.432 0.034 6.9 2.7 14.49
1/30/2021 1:15:00 PM 0.22 32.396 0.034 6.91 2.69 14.49
1/30/2021 1:30:00 PM 0.23 32.414 0.034 6.88 2.8 14.48
1/30/2021 1:45:00 PM 0.24 32.432 0.034 6.92 2.55 14.48
1/30/2021 2:00:00 PM 0.26 32.468 0.034 6.91 2.58 14.47
1/30/2021 2:15:00 PM 0.28 32.504 0.034 6.91 2.55 14.46
1/30/2021 2:30:00 PM 0.3 32.54 0.034 6.91 2.88 14.44
1/30/2021 2:45:00 PM 0.29 32.522 0.034 6.92 2.64 14.44
1/30/2021 3:00:00 PM 0.27 32.486 0.034 6.89 2.83 14.44
1/30/2021 3:15:00 PM 0.24 32.432 0.034 6.9 2.55 14.44
1/30/2021 3:30:00 PM 0.18 32.324 0.034 6.88 2.77 14.45
1/30/2021 3:45:00 PM 0.14 32.252 0.034 6.91 2.87 14.46
1/30/2021 4:00:00 PM 0.11 32.198 0.034 6.91 2.76 14.46
1/30/2021 4:15:00 PM 0.07 32.126 0.034 6.91 2.55 14.47
1/30/2021 4:30:00 PM 0.03 32.054 0.034 6.91 2.89 14.47
1/30/2021 4:45:00 PM 0.01 32.018 0.034 6.9 4.31 14.46
1/30/2021 5:00:00 PM -0.01 31.982 0.034 6.9 2.85 14.45
1/30/2021 5:15:00 PM -0.03 31.946 0.034 6.89 3.3 14.43
1/30/2021 5:30:00 PM -0.04 31.928 0.034 6.84 3.79 14.42
1/30/2021 5:45:00 PM -0.05 31.91 0.034 6.89 3.58 14.4
1/30/2021 6:00:00 PM -0.06 31.892 0.034 6.86 4.3 14.38
1/30/2021 6:15:00 PM -0.06 31.892 0.034 6.89 7.95 14.38
1/30/2021 6:30:00 PM -0.06 31.892 0.034 6.87 3.19 14.38
1/30/2021 6:45:00 PM -0.05 31.91 0.034 6.84 6.94 14.38
1/30/2021 7:00:00 PM -0.05 31.91 0.034 6.86 3.75 14.38
1/30/2021 7:15:00 PM -0.04 31.928 0.034 6.86 3.68 14.38
1/30/2021 7:30:00 PM -0.04 31.928 0.034 6.83 3.39 14.38
1/30/2021 7:45:00 PM -0.04 31.928 0.034 6.85 3.39 14.39
1/30/2021 8:00:00 PM -0.05 31.91 0.034 6.85 6.51 14.39
1/30/2021 8:15:00 PM -0.04 31.928 0.034 6.85 1.83 14.39
1/30/2021 8:30:00 PM -0.04 31.928 0.034 6.84 1.51 14.38
1/30/2021 8:45:00 PM -0.04 31.928 0.034 6.85 1.51 14.39
1/30/2021 9:00:00 PM -0.04 31.928 0.034 6.84 1.57 14.4
1/30/2021 9:15:00 PM -0.04 31.928 0.034 6.85 1.54 14.4
1/30/2021 9:30:00 PM -0.04 31.928 0.034 6.84 1.6 14.4
1/30/2021 9:45:00 PM -0.04 31.928 0.034 6.81 1.6 14.38
1/30/2021 10:00:00 PM -0.04 31.928 0.034 6.84 1.52 14.39
1/30/2021 10:15:00 PM -0.04 31.928 0.034 6.83 1.54 14.38
1/30/2021 10:30:00 PM -0.03 31.946 0.034 6.83 1.52 14.37
1/30/2021 10:45:00 PM -0.04 31.928 0.034 6.84 1.53 14.37
1/30/2021 11:00:00 PM -0.03 31.946 0.035 6.84 1.5 14.36
1/30/2021 11:15:00 PM -0.03 31.946 0.035 6.85 1.46 14.36
1/30/2021 11:30:00 PM -0.03 31.946 0.035 6.84 1.46 14.35
1/30/2021 11:45:00 PM -0.03 31.946 0.035 6.83 1.51 14.33
1/31/2021 12:00:00 AM -0.03 31.946 0.035 6.83 1.55 14.35
1/31/2021 12:15:00 AM -0.03 31.946 0.035 6.85 1.73 14.34
1/31/2021 12:30:00 AM -0.03 31.946 0.035 6.85 1.49 14.34
1/31/2021 12:45:00 AM -0.03 31.946 0.035 6.84 1.51 14.33
1/31/2021 1:00:00 AM -0.04 31.928 0.035 6.85 1.65 14.34
1/31/2021 1:15:00 AM -0.03 31.946 0.035 6.83 1.5 14.33
1/31/2021 1:30:00 AM -0.03 31.946 0.035 6.83 1.59 14.29
1/31/2021 1:45:00 AM -0.03 31.946 0.035 6.85 1.49 14.31
1/31/2021 2:00:00 AM -0.04 31.928 0.035 6.85 1.57 14.32
1/31/2021 2:15:00 AM -0.03 31.946 0.035 6.83 1.48 14.3
1/31/2021 2:30:00 AM -0.03 31.946 0.035 6.84 1.51 14.32
1/31/2021 2:45:00 AM -0.03 31.946 0.035 6.84 1.5 14.32
1/31/2021 3:00:00 AM -0.03 31.946 0.035 6.81 1.51 14.31
1/31/2021 3:15:00 AM -0.03 31.946 0.035 6.85 1.52 14.33
1/31/2021 3:30:00 AM -0.03 31.946 0.035 6.81 1.54 14.28
1/31/2021 3:45:00 AM -0.03 31.946 0.035 6.83 1.51 14.29
1/31/2021 4:00:00 AM -0.03 31.946 0.035 6.83 1.54 14.27
1/31/2021 4:15:00 AM -0.03 31.946 0.035 6.81 1.53 14.3
1/31/2021 4:30:00 AM -0.03 31.946 0.035 6.83 1.49 14.28
1/31/2021 4:45:00 AM -0.02 31.964 0.035 6.83 1.54 14.27
1/31/2021 5:00:00 AM -0.04 31.928 0.035 6.85 1.53 14.29
1/31/2021 5:15:00 AM -0.03 31.946 0.035 6.85 1.47 14.28
1/31/2021 5:30:00 AM -0.03 31.946 0.035 6.83 1.54 14.29
1/31/2021 5:45:00 AM -0.03 31.946 0.035 6.84 1.48 14.29
1/31/2021 6:00:00 AM -0.03 31.946 0.035 6.84 1.55 14.29
1/31/2021 6:15:00 AM -0.03 31.946 0.035 6.85 1.48 14.25
1/31/2021 6:30:00 AM -0.03 31.946 0.035 6.86 1.49 14.27
1/31/2021 6:45:00 AM -0.03 31.946 0.035 6.83 1.55 14.27
1/31/2021 7:00:00 AM -0.02 31.964 0.035 6.83 1.54 14.25
1/31/2021 7:15:00 AM -0.02 31.964 0.035 6.84 1.56 14.25
1/31/2021 7:30:00 AM -0.03 31.946 0.035 6.84 1.49 14.29
1/31/2021 7:45:00 AM -0.03 31.946 0.035 6.84 1.56 14.28
1/31/2021 8:00:00 AM -0.03 31.946 0.035 6.85 1.53 14.29
1/31/2021 8:15:00 AM -0.03 31.946 0.035 6.85 1.5 14.3
1/31/2021 8:30:00 AM -0.03 31.946 0.035 6.83 1.68 14.3
1/31/2021 8:45:00 AM -0.03 31.946 0.035 6.85 1.5 14.32
1/31/2021 9:00:00 AM -0.03 31.946 0.035 6.83 1.56 14.34
1/31/2021 9:15:00 AM -0.03 31.946 0.035 6.87 1.49 14.34
1/31/2021 9:30:00 AM -0.02 31.964 0.035 6.85 1.46 14.39
1/31/2021 9:45:00 AM -0.02 31.964 0.035 6.87 1.5 14.41
1/31/2021 10:00:00 AM -0.01 31.982 0.035 6.87 1.5 14.43
1/31/2021 10:15:00 AM -0.01 31.982 0.035 6.87 1.58 14.44
1/31/2021 10:30:00 AM -0.01 31.982 0.035 6.87 1.48 14.46
1/31/2021 10:45:00 AM -0.01 31.982 0.035 6.9 1.51 14.46
1/31/2021 11:00:00 AM 0.01 32.018 0.034 6.88 1.51 14.44
1/31/2021 11:15:00 AM 0.01 32.018 0.034 6.89 1.53 14.45
1/31/2021 11:30:00 AM 0.01 32.018 0.034 6.9 1.64 14.44
1/31/2021 11:45:00 AM 0.06 32.108 0.034 6.91 1.6 14.43
1/31/2021 12:00:00 PM 0.1 32.18 0.034 6.89 1.79 14.43
1/31/2021 12:15:00 PM 0.13 32.234 0.034 6.92 1.56 14.44
1/31/2021 12:30:00 PM 0.14 32.252 0.034 6.92 1.55 14.43
1/31/2021 12:45:00 PM 0.14 32.252 0.034 6.9 1.56 14.42
1/31/2021 1:00:00 PM 0.13 32.234 0.034 6.93 1.6 14.42
1/31/2021 1:15:00 PM 0.14 32.252 0.034 6.89 1.52 14.41
1/31/2021 1:30:00 PM 0.16 32.288 0.034 6.91 1.58 14.41
1/31/2021 1:45:00 PM 0.16 32.288 0.034 6.9 1.57 14.39
1/31/2021 2:00:00 PM 0.14 32.252 0.034 6.92 1.6 14.39
1/31/2021 2:15:00 PM 0.13 32.234 0.034 6.9 1.66 14.39
1/31/2021 2:30:00 PM 0.15 32.27 0.034 6.91 1.52 14.39
1/31/2021 2:45:00 PM 0.16 32.288 0.034 6.92 1.58 14.38
1/31/2021 3:00:00 PM 0.16 32.288 0.033 6.91 1.52 14.37
1/31/2021 3:15:00 PM 0.15 32.27 0.033 6.91 1.52 14.37
1/31/2021 3:30:00 PM 0.13 32.234 0.033 6.91 1.62 14.36
1/31/2021 3:45:00 PM 0.12 32.216 0.033 6.91 1.54 14.35
1/31/2021 4:00:00 PM 0.12 32.216 0.033 6.91 1.57 14.35
1/31/2021 4:15:00 PM 0.12 32.216 0.033 6.9 1.57 14.34
1/31/2021 4:30:00 PM 0.1 32.18 0.033 6.92 1.63 14.32
1/31/2021 4:45:00 PM 0.08 32.144 0.033 6.89 1.51 14.31
1/31/2021 5:00:00 PM 0.05 32.09 0.033 6.89 1.62 14.28
1/31/2021 5:15:00 PM 0.04 32.072 0.033 6.9 1.53 14.26
1/31/2021 5:30:00 PM 0.04 32.072 0.033 6.88 1.56 14.24
1/31/2021 5:45:00 PM 0.04 32.072 0.034 6.87 1.74 14.22
1/31/2021 6:00:00 PM 0.05 32.09 0.034 6.87 1.54 14.21
1/31/2021 6:15:00 PM 0.04 32.072 0.034 6.88 1.54 14.2
1/31/2021 6:30:00 PM 0.04 32.072 0.034 6.87 1.6 14.2
1/31/2021 6:45:00 PM 0.03 32.054 0.034 6.86 1.54 14.2
1/31/2021 7:00:00 PM 0.03 32.054 0.034 6.87 1.81 14.2
1/31/2021 7:15:00 PM 0.02 32.036 0.034 6.88 1.64 14.2
1/31/2021 7:30:00 PM 0.01 32.018 0.034 6.85 1.66 14.2
1/31/2021 7:45:00 PM 0 32 0.034 6.87 1.74 14.2
1/31/2021 8:00:00 PM -0.03 31.946 0.034 6.87 1.59 14.21
1/31/2021 8:15:00 PM -0.04 31.928 0.034 6.86 1.53 14.22
1/31/2021 8:30:00 PM -0.04 31.928 0.034 6.86 1.56 14.22
1/31/2021 8:45:00 PM -0.04 31.928 0.034 6.87 1.5 14.23
1/31/2021 9:00:00 PM -0.04 31.928 0.034 6.87 1.59 14.23
1/31/2021 9:15:00 PM -0.03 31.946 0.034 6.85 1.53 14.23
1/31/2021 9:30:00 PM -0.03 31.946 0.034 6.86 1.59 14.23
1/31/2021 9:45:00 PM -0.04 31.928 0.034 6.86 1.6 14.23
1/31/2021 10:00:00 PM -0.04 31.928 0.034 6.86 1.59 14.24
1/31/2021 10:15:00 PM -0.04 31.928 0.034 6.87 1.59 14.24
1/31/2021 10:30:00 PM -0.04 31.928 0.034 6.87 1.54 14.24
1/31/2021 10:45:00 PM -0.04 31.928 0.034 6.86 1.64 14.24
1/31/2021 11:00:00 PM -0.04 31.928 0.034 6.87 1.56 14.24
1/31/2021 11:15:00 PM -0.04 31.928 0.034 6.86 1.54 14.24
1/31/2021 11:30:00 PM -0.04 31.928 0.034 6.86 1.56 14.23
1/31/2021 11:45:00 PM -0.04 31.928 0.034 6.87 1.54 14.23
2/1/2021 12:00:00 AM -0.02 31.964 0.034 6.86 1.56 14.22
2/1/2021 12:15:00 AM -0.04 31.928 0.034 6.85 1.55 14.23
2/1/2021 12:30:00 AM -0.03 31.946 0.034 6.86 1.56 14.22
2/1/2021 12:45:00 AM -0.03 31.946 0.034 6.85 1.54 14.22
2/1/2021 1:00:00 AM -0.04 31.928 0.034 6.86 1.53 14.22
2/1/2021 1:15:00 AM -0.04 31.928 0.034 6.86 1.54 14.22
2/1/2021 1:30:00 AM -0.03 31.946 0.034 6.86 1.53 14.21
2/1/2021 1:45:00 AM -0.03 31.946 0.034 6.85 1.54 14.21
2/1/2021 2:00:00 AM -0.04 31.928 0.034 6.87 1.54 14.21
2/1/2021 2:15:00 AM -0.03 31.946 0.034 6.85 1.53 14.21
2/1/2021 2:30:00 AM -0.03 31.946 0.034 6.87 1.54 14.2
2/1/2021 2:45:00 AM -0.03 31.946 0.034 6.85 1.58 14.19
2/1/2021 3:00:00 AM -0.03 31.946 0.034 6.87 1.54 14.19
2/1/2021 3:15:00 AM -0.03 31.946 0.034 6.87 1.56 14.2
2/1/2021 3:30:00 AM -0.03 31.946 0.034 6.86 1.58 14.2
2/1/2021 3:45:00 AM -0.03 31.946 0.034 6.87 1.53 14.19
2/1/2021 4:00:00 AM -0.03 31.946 0.034 6.85 1.57 14.19
2/1/2021 4:15:00 AM -0.02 31.964 0.034 6.85 1.52 14.19
2/1/2021 4:30:00 AM -0.02 31.964 0.034 6.86 3.58 14.19
2/1/2021 4:45:00 AM -0.02 31.964 0.034 6.87 1.53 14.18
2/1/2021 5:00:00 AM -0.02 31.964 0.034 6.86 1.55 14.19
2/1/2021 5:15:00 AM -0.03 31.946 0.034 6.87 1.6 14.18
2/1/2021 5:30:00 AM -0.03 31.946 0.034 6.86 1.58 14.19
2/1/2021 5:45:00 AM -0.03 31.946 0.034 6.85 1.51 14.19
2/1/2021 6:00:00 AM -0.03 31.946 0.034 6.86 1.55 14.2
2/1/2021 6:15:00 AM -0.03 31.946 0.034 6.85 5.84 14.2
2/1/2021 6:30:00 AM -0.03 31.946 0.034 6.85 1.55 14.19
2/1/2021 6:45:00 AM -0.04 31.928 0.034 6.87 1.53 14.19
2/1/2021 7:00:00 AM -0.03 31.946 0.034 6.83 1.57 14.2
2/1/2021 7:15:00 AM -0.03 31.946 0.034 6.86 1.52 14.2
2/1/2021 7:30:00 AM -0.03 31.946 0.034 6.86 1.52 14.2
2/1/2021 7:45:00 AM -0.03 31.946 0.034 6.86 1.52 14.21
2/1/2021 8:00:00 AM -0.02 31.964 0.034 6.87 1.54 14.23
2/1/2021 8:15:00 AM -0.01 31.982 0.034 6.88 1.5 14.25
2/1/2021 8:30:00 AM 0 32 0.034 6.88 1.53 14.27
2/1/2021 8:45:00 AM 0.01 32.018 0.034 6.89 1.52 14.29
2/1/2021 9:00:00 AM 0.02 32.036 0.034 6.89 1.51 14.3
2/1/2021 9:15:00 AM 0.03 32.054 0.034 6.91 1.49 14.32
2/1/2021 9:30:00 AM 0.04 32.072 0.034 6.9 1.51 14.33
2/1/2021 9:45:00 AM 0.06 32.108 0.034 6.91 1.49 14.33
2/1/2021 10:00:00 AM 0.07 32.126 0.034 6.91 1.52 14.33
2/1/2021 10:15:00 AM 0.09 32.162 0.034 6.9 1.55 14.34
2/1/2021 10:30:00 AM 0.1 32.18 0.034 6.91 1.5 14.34
2/1/2021 10:45:00 AM 0.12 32.216 0.034 6.91 1.52 14.33
2/1/2021 11:00:00 AM 0.14 32.252 0.033 6.88 1.55 14.33
2/1/2021 11:15:00 AM 0.15 32.27 0.033 6.91 1.53 14.33
2/1/2021 11:30:00 AM 0.16 32.288 0.033 6.92 1.49 14.32
2/1/2021 11:45:00 AM 0.17 32.306 0.033 6.9 1.49 14.31
2/1/2021 12:00:00 PM 0.18 32.324 0.033 6.91 1.57 14.29
2/1/2021 12:15:00 PM 0.19 32.342 0.033 6.92 1.54 14.29
2/1/2021 12:30:00 PM 0.21 32.378 0.033 6.9 1.51 14.27
2/1/2021 12:45:00 PM 0.23 32.414 0.033 6.93 1.77 14.26
2/1/2021 1:00:00 PM 0.24 32.432 0.033 6.91 1.56 14.25
2/1/2021 1:15:00 PM 0.28 32.504 0.033 6.91 8.03 14.24
2/1/2021 1:30:00 PM 0.32 32.576 0.033 6.93 1.52 14.23
2/1/2021 1:45:00 PM 0.35 32.63 0.033 6.91 1.53 14.21
2/1/2021 2:00:00 PM 0.39 32.702 0.033 6.92 1.51 14.2
2/1/2021 2:15:00 PM 0.47 32.846 0.033 6.9 1.81 14.17
2/1/2021 2:30:00 PM 0.52 32.936 0.033 6.94 1.55 14.15
2/1/2021 2:45:00 PM 0.51 32.918 0.033 6.91 1.47 14.13
2/1/2021 3:00:00 PM 0.49 32.882 0.033 6.91 1.56 14.11
2/1/2021 3:15:00 PM 0.47 32.846 0.033 6.92 1.54 14.11
2/1/2021 3:30:00 PM 0.46 32.828 0.033 6.92 1.49 14.1
2/1/2021 3:45:00 PM 0.48 32.864 0.033 6.91 1.56 14.1
2/1/2021 4:00:00 PM 0.48 32.864 0.033 6.88 1.53 14.09
2/1/2021 4:15:00 PM 0.48 32.864 0.033 6.91 1.52 14.07
2/1/2021 4:30:00 PM 0.48 32.864 0.033 6.87 1.61 14.05
2/1/2021 4:45:00 PM 0.47 32.846 0.033 6.9 3.34 14.05
2/1/2021 5:00:00 PM 0.44 32.792 0.033 6.9 1.57 14.03
2/1/2021 5:15:00 PM 0.45 32.81 0.033 6.92 1.7 14.02
2/1/2021 5:30:00 PM 0.45 32.81 0.033 6.89 1.54 13.99
2/1/2021 5:45:00 PM 0.44 32.792 0.033 6.89 1.62 13.97
2/1/2021 6:00:00 PM 0.43 32.774 0.033 6.89 1.52 13.96
2/1/2021 6:15:00 PM 0.41 32.738 0.033 6.88 1.54 13.94
2/1/2021 6:30:00 PM 0.39 32.702 0.033 6.86 1.58 13.95
2/1/2021 6:45:00 PM 0.37 32.666 0.033 6.86 1.48 13.95
2/1/2021 7:00:00 PM 0.35 32.63 0.033 6.88 1.56 13.96
2/1/2021 7:15:00 PM 0.34 32.612 0.033 6.87 1.56 13.97
2/1/2021 7:30:00 PM 0.31 32.558 0.033 6.87 1.58 13.97
2/1/2021 7:45:00 PM 0.3 32.54 0.033 6.86 1.6 13.99
2/1/2021 8:00:00 PM 0.31 32.558 0.033 6.87 1.54 13.99
2/1/2021 8:15:00 PM 0.3 32.54 0.033 6.86 1.57 14.01
2/1/2021 8:30:00 PM 0.3 32.54 0.033 6.87 1.57 14.01
2/1/2021 8:45:00 PM 0.28 32.504 0.033 6.85 1.59 14.01
2/1/2021 9:00:00 PM 0.25 32.45 0.033 6.87 1.59 14.02
2/1/2021 9:15:00 PM 0.22 32.396 0.033 6.88 1.51 14.04
2/1/2021 9:30:00 PM 0.2 32.36 0.033 6.88 1.52 14.05
2/1/2021 9:45:00 PM 0.19 32.342 0.033 6.86 1.54 14.06
2/1/2021 10:00:00 PM 0.18 32.324 0.033 6.88 1.56 14.06
2/1/2021 10:15:00 PM 0.17 32.306 0.033 6.85 1.57 14.07
2/1/2021 10:30:00 PM 0.18 32.324 0.033 6.86 1.59 14.07
2/1/2021 10:45:00 PM 0.17 32.306 0.033 6.87 1.54 14.07
2/1/2021 11:00:00 PM 0.16 32.288 0.033 6.87 1.52 14.08
2/1/2021 11:15:00 PM 0.16 32.288 0.033 6.85 3.94 14.08
2/1/2021 11:30:00 PM 0.16 32.288 0.034 6.86 1.54 14.08
2/1/2021 11:45:00 PM 0.16 32.288 0.034 6.88 1.53 14.08
2/2/2021 12:00:00 AM 0.16 32.288 0.034 6.86 1.57 14.08
2/2/2021 12:15:00 AM 0.17 32.306 0.034 6.86 1.55 14.08
2/2/2021 12:30:00 AM 0.16 32.288 0.034 6.87 1.55 14.08
2/2/2021 12:45:00 AM 0.16 32.288 0.034 6.87 1.62 14.08
2/2/2021 1:00:00 AM 0.16 32.288 0.034 6.85 1.54 14.08
2/2/2021 1:15:00 AM 0.17 32.306 0.034 6.86 1.53 14.07
2/2/2021 1:30:00 AM 0.17 32.306 0.034 6.87 1.58 14.07
2/2/2021 1:45:00 AM 0.17 32.306 0.034 6.87 1.58 14.07
2/2/2021 2:00:00 AM 0.17 32.306 0.034 6.87 1.55 14.07
2/2/2021 2:15:00 AM 0.17 32.306 0.034 6.88 1.54 14.06
2/2/2021 2:30:00 AM 0.17 32.306 0.034 6.88 1.51 14.06
2/2/2021 2:45:00 AM 0.17 32.306 0.034 6.87 1.78 14.06
2/2/2021 3:00:00 AM 0.17 32.306 0.034 6.86 1.61 14.05
2/2/2021 3:15:00 AM 0.17 32.306 0.034 6.86 1.57 14.06
2/2/2021 3:30:00 AM 0.17 32.306 0.034 6.87 1.54 14.05
2/2/2021 3:45:00 AM 0.17 32.306 0.034 6.87 1.52 14.05
2/2/2021 4:00:00 AM 0.16 32.288 0.034 6.86 1.76 14.05
2/2/2021 4:15:00 AM 0.14 32.252 0.034 6.86 1.62 14.05
2/2/2021 4:30:00 AM 0.13 32.234 0.034 6.88 1.56 14.06
2/2/2021 4:45:00 AM 0.12 32.216 0.034 6.85 1.56 14.05
2/2/2021 5:00:00 AM 0.09 32.162 0.034 6.87 1.51 14.06
2/2/2021 5:15:00 AM 0.07 32.126 0.034 6.87 1.52 14.07
2/2/2021 5:30:00 AM 0.06 32.108 0.034 6.87 1.52 14.07
2/2/2021 5:45:00 AM 0.03 32.054 0.034 6.89 1.56 14.08
2/2/2021 6:00:00 AM 0.01 32.018 0.034 6.86 1.55 14.09
2/2/2021 6:15:00 AM 0.02 32.036 0.034 6.89 1.57 14.1
2/2/2021 6:30:00 AM 0.02 32.036 0.034 6.82 1.55 14.09
2/2/2021 6:45:00 AM 0.01 32.018 0.034 6.88 1.53 14.1
2/2/2021 7:00:00 AM 0.01 32.018 0.034 6.87 1.57 14.11
2/2/2021 7:15:00 AM 0.02 32.036 0.034 6.88 1.49 14.11
2/2/2021 7:30:00 AM 0.02 32.036 0.034 6.88 1.5 14.12
2/2/2021 7:45:00 AM 0.03 32.054 0.034 6.88 1.5 14.12
2/2/2021 8:00:00 AM 0.04 32.072 0.034 6.88 1.63 14.13
2/2/2021 8:15:00 AM 0.04 32.072 0.034 6.88 1.55 14.16
2/2/2021 8:30:00 AM 0.04 32.072 0.034 6.9 1.57 14.19
2/2/2021 8:45:00 AM 0.06 32.108 0.034 6.9 1.58 14.2
2/2/2021 9:00:00 AM 0.08 32.144 0.034 6.92 1.7 14.22
2/2/2021 9:15:00 AM 0.11 32.198 0.034 6.87 94.81 14.22
2/2/2021 9:30:00 AM 0.14 32.252 0.034 6.91 2.04 14.23
2/2/2021 9:45:00 AM 0.15 32.27 0.034 6.92 1.55 14.23
2/2/2021 10:00:00 AM 0.17 32.306 0.034 6.9 1.54 14.23
2/2/2021 10:15:00 AM 0.2 32.36 0.034 6.95 1.52 14.23
2/2/2021 10:30:00 AM 0.22 32.396 0.034 6.93 1.53 14.23
2/2/2021 10:45:00 AM 0.26 32.468 0.033 6.92 1.5 14.22
2/2/2021 11:00:00 AM 0.3 32.54 0.033 6.93 1.55 14.21
2/2/2021 11:15:00 AM 0.34 32.612 0.034 6.91 1.52 14.2
2/2/2021 11:30:00 AM 0.36 32.648 0.033 6.94 1.47 14.18
2/2/2021 11:45:00 AM 0.38 32.684 0.033 6.93 1.53 14.17
2/2/2021 12:00:00 PM 0.42 32.756 0.033 6.92 1.5 14.15
2/2/2021 12:15:00 PM 0.45 32.81 0.033 6.93 1.6 14.14
2/2/2021 12:30:00 PM 0.48 32.864 0.033 6.93 1.52 14.12
2/2/2021 12:45:00 PM 0.47 32.846 0.033 6.92 1.53 14.1
2/2/2021 1:00:00 PM 0.46 32.828 0.033 6.93 1.49 14.1
2/2/2021 1:15:00 PM 0.43 32.774 0.033 6.93 1.57 14.09
2/2/2021 1:30:00 PM 0.42 32.756 0.033 6.93 1.59 14.09
2/2/2021 1:45:00 PM 0.42 32.756 0.033 6.93 1.55 14.08
2/2/2021 2:00:00 PM 0.41 32.738 0.033 6.92 1.55 14.08
2/2/2021 2:15:00 PM 0.4 32.72 0.033 6.94 1.55 14.09
2/2/2021 2:30:00 PM 0.38 32.684 0.033 6.94 1.52 14.09
2/2/2021 2:45:00 PM 0.37 32.666 0.033 6.93 1.46 14.08
2/2/2021 3:00:00 PM 0.38 32.684 0.033 6.92 1.48 14.08
2/2/2021 3:15:00 PM 0.37 32.666 0.033 6.94 1.49 14.09
2/2/2021 3:30:00 PM 0.36 32.648 0.033 6.91 2.83 14.08
2/2/2021 3:45:00 PM 0.36 32.648 0.033 6.93 1.51 14.08
2/2/2021 4:00:00 PM 0.35 32.63 0.033 6.93 1.53 14.07
2/2/2021 4:15:00 PM 0.33 32.594 0.033 6.94 1.55 14.07
2/2/2021 4:30:00 PM 0.32 32.576 0.033 6.93 1.48 14.07
2/2/2021 4:45:00 PM 0.31 32.558 0.033 6.92 1.54 14.07
2/2/2021 5:00:00 PM 0.29 32.522 0.033 6.93 1.64 14.07
2/2/2021 5:15:00 PM 0.27 32.486 0.033 6.93 1.52 14.06
2/2/2021 5:30:00 PM 0.25 32.45 0.033 6.88 2.1 14.05
2/2/2021 5:45:00 PM 0.22 32.396 0.033 6.91 1.53 14.03
2/2/2021 6:00:00 PM 0.2 32.36 0.033 6.91 1.51 14.01
2/2/2021 6:15:00 PM 0.19 32.342 0.033 6.89 1.59 14
2/2/2021 6:30:00 PM 0.16 32.288 0.034 6.89 1.57 14.01
2/2/2021 6:45:00 PM 0.15 32.27 0.034 6.89 2.08 14.01
2/2/2021 7:00:00 PM 0.14 32.252 0.034 6.89 1.52 14.01
2/2/2021 7:15:00 PM 0.14 32.252 0.034 6.88 1.52 14.01
2/2/2021 7:30:00 PM 0.13 32.234 0.034 6.88 1.49 14.02
2/2/2021 7:45:00 PM 0.12 32.216 0.034 6.9 1.51 14.02
2/2/2021 8:00:00 PM 0.11 32.198 0.034 6.88 1.51 14.02
2/2/2021 8:15:00 PM 0.11 32.198 0.034 6.89 1.52 14.02
2/2/2021 8:30:00 PM 0.08 32.144 0.034 6.88 1.54 14.02
2/2/2021 8:45:00 PM 0.06 32.108 0.034 6.87 1.53 14.03
2/2/2021 9:00:00 PM 0.05 32.09 0.034 6.89 22.61 14.04
2/2/2021 9:15:00 PM 0.05 32.09 0.034 6.88 1.46 14.04
2/2/2021 9:30:00 PM 0.05 32.09 0.034 6.9 1.51 14.04
2/2/2021 9:45:00 PM 0.06 32.108 0.034 6.9 1.48 14.03
2/2/2021 10:00:00 PM 0.05 32.09 0.034 6.86 1.53 14.04
2/2/2021 10:15:00 PM 0.05 32.09 0.034 6.89 1.81 14.04
2/2/2021 10:30:00 PM 0.05 32.09 0.034 6.89 13.14 14.04
2/2/2021 10:45:00 PM 0.05 32.09 0.034 6.87 49.62 14.05
2/2/2021 11:00:00 PM 0.04 32.072 0.034 6.87 1.56 14.05
2/2/2021 11:15:00 PM 0.04 32.072 0.034 6.89 1.65 14.04
2/2/2021 11:30:00 PM 0.05 32.09 0.034 6.86 12.57 14.05
2/2/2021 11:45:00 PM 0.05 32.09 0.034 6.9 3.14 14.04
2/3/2021 12:00:00 AM 0.05 32.09 0.034 6.87 2.99 14.04
2/3/2021 12:15:00 AM 0.05 32.09 0.034 6.89 2.96 14.04
2/3/2021 12:30:00 AM 0.06 32.108 0.034 6.88 3.69 14.04
2/3/2021 12:45:00 AM 0.07 32.126 0.034 6.88 3.58 14.03
2/3/2021 1:00:00 AM 0.07 32.126 0.034 6.88 3.92 14.03
2/3/2021 1:15:00 AM 0.08 32.144 0.034 6.87 3.51 14.03
2/3/2021 1:30:00 AM 0.09 32.162 0.034 6.88 3.34 14.03
2/3/2021 1:45:00 AM 0.1 32.18 0.034 6.9 3.9 14.03
2/3/2021 2:00:00 AM 0.1 32.18 0.034 6.86 3.71 14.02
2/3/2021 2:15:00 AM 0.11 32.198 0.034 6.88 3.54 14.01
2/3/2021 2:30:00 AM 0.11 32.198 0.034 6.86 3.67 14.01
2/3/2021 2:45:00 AM 0.11 32.198 0.034 6.88 4.86 14.01
2/3/2021 3:00:00 AM 0.1 32.18 0.034 6.89 3.37 14.02
2/3/2021 3:15:00 AM 0.1 32.18 0.034 6.88 3.21 14.02
2/3/2021 3:30:00 AM 0.1 32.18 0.034 6.9 3.43 14.02
2/3/2021 3:45:00 AM 0.11 32.198 0.034 6.88 4.18 14.01
2/3/2021 4:00:00 AM 0.11 32.198 0.034 6.9 3.54 14.01
2/3/2021 4:15:00 AM 0.12 32.216 0.034 6.85 5.37 14
2/3/2021 4:30:00 AM 0.13 32.234 0.034 6.89 5 14
2/3/2021 4:45:00 AM 0.13 32.234 0.034 6.86 1.8 14.01
2/3/2021 5:00:00 AM 0.14 32.252 0.034 6.89 3.3 14.01
2/3/2021 5:15:00 AM 0.14 32.252 0.034 6.89 3.55 14.01
2/3/2021 5:30:00 AM 0.14 32.252 0.034 6.89 2.55 14.01
2/3/2021 5:45:00 AM 0.14 32.252 0.034 6.87 3.07 14.01
2/3/2021 6:00:00 AM 0.14 32.252 0.034 6.88 4.07 14.01
2/3/2021 6:15:00 AM 0.14 32.252 0.034 6.88 3.27 14
2/3/2021 6:30:00 AM 0.14 32.252 0.034 6.89 3.48 14.01
2/3/2021 6:45:00 AM 0.14 32.252 0.034 6.86 3.25 14.01
2/3/2021 7:00:00 AM 0.14 32.252 0.034 6.87 2.01 14.01
2/3/2021 7:15:00 AM 0.13 32.234 0.034 6.91 2.12 14.02
2/3/2021 7:30:00 AM 0.13 32.234 0.034 6.87 2.11 14.02
2/3/2021 7:45:00 AM 0.12 32.216 0.034 6.88 2.21 14.04
2/3/2021 8:00:00 AM 0.12 32.216 0.034 6.88 2.07 14.05
2/3/2021 8:15:00 AM 0.12 32.216 0.034 6.89 2.18 14.06
2/3/2021 8:30:00 AM 0.11 32.198 0.034 6.89 2.02 14.08
2/3/2021 8:45:00 AM 0.11 32.198 0.034 6.91 2.3 14.11
2/3/2021 9:00:00 AM 0.13 32.234 0.034 6.88 2.02 14.13
2/3/2021 9:15:00 AM 0.15 32.27 0.034 6.91 2.08 14.15
2/3/2021 9:30:00 AM 0.18 32.324 0.034 6.92 2.08 14.16
2/3/2021 9:45:00 AM 0.19 32.342 0.034 6.9 1.97 14.18
2/3/2021 10:00:00 AM 0.23 32.414 0.034 6.92 2.22 14.19
2/3/2021 10:15:00 AM 0.28 32.504 0.034 6.92 1.96 14.19
2/3/2021 10:30:00 AM 0.36 32.648 0.034 6.94 1.99 14.19
2/3/2021 10:45:00 AM 0.45 32.81 0.034 6.94 1.95 14.17
2/3/2021 11:00:00 AM 0.53 32.954 0.034 6.92 2.05 14.15
2/3/2021 11:15:00 AM 0.57 33.026 0.034 6.95 2.06 14.13
2/3/2021 11:30:00 AM 0.63 33.134 0.034 6.92 2.04 14.11
2/3/2021 11:45:00 AM 0.67 33.206 0.034 6.95 1.93 14.09
2/3/2021 12:00:00 PM 0.69 33.242 0.033 6.95 2.11 14.08
2/3/2021 12:15:00 PM 0.74 33.332 0.033 6.92 2 14.06
2/3/2021 12:30:00 PM 0.81 33.458 0.033 6.93 1.95 14.02
2/3/2021 12:45:00 PM 0.85 33.53 0.033 6.94 2.98 13.99
2/3/2021 1:00:00 PM 0.92 33.656 0.033 6.91 2.44 13.96
2/3/2021 1:15:00 PM 1.05 33.89 0.033 6.92 2.64 13.92
2/3/2021 1:30:00 PM 1.12 34.016 0.033 6.94 3.63 13.89
2/3/2021 1:45:00 PM 1.2 34.16 0.033 6.91 2.33 13.86
2/3/2021 2:00:00 PM 1.28 34.304 0.033 6.93 2.59 13.83
2/3/2021 2:15:00 PM 1.39 34.502 0.033 6.95 2.55 13.81
2/3/2021 2:30:00 PM 1.48 34.664 0.033 6.91 2.75 13.78
2/3/2021 2:45:00 PM 1.51 34.718 0.033 6.94 2.32 13.76
2/3/2021 3:00:00 PM 1.5 34.7 0.033 6.94 2.38 13.74
2/3/2021 3:15:00 PM 1.48 34.664 0.033 6.94 2.97 13.74
2/3/2021 3:30:00 PM 1.44 34.592 0.033 6.91 1.71 13.73
2/3/2021 3:45:00 PM 1.36 34.448 0.033 6.91 2.56 13.74
2/3/2021 4:00:00 PM 1.29 34.322 0.033 6.94 4.48 13.75
2/3/2021 4:15:00 PM 1.23 34.214 0.033 6.93 4.04 13.76
2/3/2021 4:30:00 PM 1.15 34.07 0.033 6.94 4.42 13.78
2/3/2021 4:45:00 PM 1.09 33.962 0.033 6.91 2.63 13.79
2/3/2021 5:00:00 PM 1.05 33.89 0.033 6.93 3.37 13.78
2/3/2021 5:15:00 PM 1 33.8 0.033 6.92 3.59 13.78
2/3/2021 5:30:00 PM 0.96 33.728 0.033 6.9 4.67 13.77
2/3/2021 5:45:00 PM 0.89 33.602 0.033 6.92 5.22 13.77
2/3/2021 6:00:00 PM 0.85 33.53 0.033 6.9 1.48 13.77
2/3/2021 6:15:00 PM 0.8 33.44 0.033 6.9 3.08 13.77
2/3/2021 6:30:00 PM 0.76 33.368 0.034 6.9 2 13.79
2/3/2021 6:45:00 PM 0.71 33.278 0.034 6.9 1.63 13.81
2/3/2021 7:00:00 PM 0.66 33.188 0.034 6.88 1.57 13.82
2/3/2021 7:15:00 PM 0.6 33.08 0.034 6.9 1.51 13.86
2/3/2021 7:30:00 PM 0.56 33.008 0.034 6.88 1.5 13.88
2/3/2021 7:45:00 PM 0.5 32.9 0.034 6.91 1.55 13.91
2/3/2021 8:00:00 PM 0.46 32.828 0.034 6.87 1.48 13.92
2/3/2021 8:15:00 PM 0.41 32.738 0.034 6.89 1.5 13.94
2/3/2021 8:30:00 PM 0.37 32.666 0.034 6.88 1.45 13.97
2/3/2021 8:45:00 PM 0.32 32.576 0.034 6.88 1.63 13.99
2/3/2021 9:00:00 PM 0.28 32.504 0.034 6.89 1.47 14.01
2/3/2021 9:15:00 PM 0.24 32.432 0.034 6.9 1.47 14.03
2/3/2021 9:30:00 PM 0.2 32.36 0.034 6.88 1.53 14.05
2/3/2021 9:45:00 PM 0.15 32.27 0.034 6.89 1.51 14.07
2/3/2021 10:00:00 PM 0.11 32.198 0.034 6.88 1.47 14.08
2/3/2021 10:15:00 PM 0.07 32.126 0.034 6.88 1.5 14.1
2/3/2021 10:30:00 PM 0.04 32.072 0.034 6.9 1.49 14.12
2/3/2021 10:45:00 PM 0.01 32.018 0.034 6.87 1.5 14.13
2/3/2021 11:00:00 PM -0.03 31.946 0.034 6.89 1.47 14.15
2/3/2021 11:15:00 PM -0.07 31.874 0.034 6.89 1.45 14.17
2/3/2021 11:30:00 PM -0.08 31.856 0.034 6.87 1.49 14.18
2/3/2021 11:45:00 PM -0.05 31.91 0.034 6.88 1.5 14.18
2/4/2021 12:00:00 AM -0.06 31.892 0.034 6.87 1.54 14.21
2/4/2021 12:15:00 AM -0.06 31.892 0.034 6.88 1.57 14.21
2/4/2021 12:30:00 AM -0.06 31.892 0.034 6.87 1.78 14.22
2/4/2021 12:45:00 AM -0.06 31.892 0.034 6.88 1.56 14.22
2/4/2021 1:00:00 AM -0.05 31.91 0.034 6.83 1.59 14.22
2/4/2021 1:15:00 AM -0.06 31.892 0.034 6.87 1.5 14.24
2/4/2021 1:30:00 AM -0.06 31.892 0.034 6.87 1.54 14.24
2/4/2021 1:45:00 AM -0.04 31.928 0.034 6.86 1.5 14.24
2/4/2021 2:00:00 AM -0.05 31.91 0.034 6.86 1.51 14.24
2/4/2021 2:15:00 AM -0.06 31.892 0.034 6.87 1.61 14.25
2/4/2021 2:30:00 AM -0.05 31.91 0.034 6.86 1.52 14.24
2/4/2021 2:45:00 AM -0.05 31.91 0.034 6.85 1.7 14.25
2/4/2021 3:00:00 AM -0.05 31.91 0.035 6.86 1.51 14.24
2/4/2021 3:15:00 AM -0.05 31.91 0.035 6.87 1.54 14.25
2/4/2021 3:30:00 AM -0.05 31.91 0.035 6.86 5.39 14.24
2/4/2021 3:45:00 AM -0.05 31.91 0.035 6.86 8.75 14.23
2/4/2021 4:00:00 AM -0.04 31.928 0.035 6.85 3.43 14.23
2/4/2021 4:15:00 AM -0.04 31.928 0.035 6.85 3.63 14.22
2/4/2021 4:30:00 AM -0.04 31.928 0.035 6.85 3.53 14.23
2/4/2021 4:45:00 AM -0.04 31.928 0.035 6.84 3.79 14.23
2/4/2021 5:00:00 AM -0.04 31.928 0.035 6.86 3.18 14.23
2/4/2021 5:15:00 AM -0.04 31.928 0.035 6.83 3.12 14.23
2/4/2021 5:30:00 AM -0.04 31.928 0.035 6.85 3.19 14.23
2/4/2021 5:45:00 AM -0.04 31.928 0.035 6.79 3.13 14.23
2/4/2021 6:00:00 AM -0.04 31.928 0.035 6.84 3.16 14.23
2/4/2021 6:15:00 AM -0.04 31.928 0.035 6.84 3.11 14.23
2/4/2021 6:30:00 AM -0.04 31.928 0.035 6.84 3.15 14.24
2/4/2021 6:45:00 AM -0.04 31.928 0.036 6.83 3.07 14.23
2/4/2021 7:00:00 AM -0.04 31.928 0.036 6.81 2.98 14.23
2/4/2021 7:15:00 AM -0.04 31.928 0.036 6.83 3.14 14.23
2/4/2021 7:30:00 AM -0.03 31.946 0.036 6.83 3.1 14.24
2/4/2021 7:45:00 AM -0.03 31.946 0.036 6.82 3.05 14.25
2/4/2021 8:00:00 AM -0.03 31.946 0.036 6.82 3.37 14.26
2/4/2021 8:15:00 AM -0.04 31.928 0.036 6.85 3.31 14.3
2/4/2021 8:30:00 AM -0.03 31.946 0.036 6.86 3.43 14.33
2/4/2021 8:45:00 AM -0.02 31.964 0.036 6.84 3.1 14.36
2/4/2021 9:00:00 AM -0.03 31.946 0.036 6.84 3.15 14.39
2/4/2021 9:15:00 AM -0.03 31.946 0.036 6.88 3.13 14.4
2/4/2021 9:30:00 AM -0.02 31.964 0.036 6.83 3 14.41
2/4/2021 9:45:00 AM -0.02 31.964 0.036 6.87 3.15 14.42
2/4/2021 10:00:00 AM -0.02 31.964 0.036 6.89 3 14.42
2/4/2021 10:15:00 AM -0.01 31.982 0.036 6.88 3.41 14.43
2/4/2021 10:30:00 AM 0 32 0.036 6.87 3.1 14.41
2/4/2021 10:45:00 AM 0.01 32.018 0.036 6.89 3.13 14.41
2/4/2021 11:00:00 AM 0.01 32.018 0.036 6.88 3.33 14.39
2/4/2021 11:15:00 AM 0.01 32.018 0.036 6.89 3.05 14.38
2/4/2021 11:30:00 AM 0.01 32.018 0.035 6.89 3.86 14.36
2/4/2021 11:45:00 AM 0.01 32.018 0.035 6.87 3.2 14.35
2/4/2021 12:00:00 PM 0 32 0.035 6.89 3.35 14.33
2/4/2021 12:15:00 PM 0 32 0.035 6.89 2.38 14.31
2/4/2021 12:30:00 PM 0 32 0.035 6.89 2.94 14.3
2/4/2021 12:45:00 PM 0.01 32.018 0.035 6.9 2.69 14.28
2/4/2021 1:00:00 PM 0.03 32.054 0.035 6.89 3.07 14.26
2/4/2021 1:15:00 PM 0.05 32.09 0.035 6.89 3.06 14.26
2/4/2021 1:30:00 PM 0.04 32.072 0.035 6.93 3.29 14.25
2/4/2021 1:45:00 PM 0.05 32.09 0.035 6.92 3.01 14.24
2/4/2021 2:00:00 PM 0.14 32.252 0.035 6.93 3.53 14.24
2/4/2021 2:15:00 PM 0.23 32.414 0.035 6.88 2.93 14.24
2/4/2021 2:30:00 PM 0.27 32.486 0.034 6.92 4.15 14.25
2/4/2021 2:45:00 PM 0.26 32.468 0.034 6.9 4.62 14.24
2/4/2021 3:00:00 PM 0.26 32.468 0.034 6.9 2.92 14.25
2/4/2021 3:15:00 PM 0.31 32.558 0.034 6.92 3.73 14.25
2/4/2021 3:30:00 PM 0.29 32.522 0.034 6.94 3.09 14.25
2/4/2021 3:45:00 PM 0.25 32.45 0.034 6.88 1.94 14.25
2/4/2021 4:00:00 PM 0.19 32.342 0.034 6.92 3.62 14.27
2/4/2021 4:15:00 PM 0.14 32.252 0.034 6.94 3.56 14.27
2/4/2021 4:30:00 PM 0.09 32.162 0.034 6.93 3.5 14.27
2/4/2021 4:45:00 PM 0.05 32.09 0.034 6.92 3.56 14.25
2/4/2021 5:00:00 PM 0.02 32.036 0.034 6.93 2.79 14.24
2/4/2021 5:15:00 PM 0 32 0.034 6.88 3.16 14.24
2/4/2021 5:30:00 PM 0 32 0.034 6.89 2.96 14.22
2/4/2021 5:45:00 PM -0.01 31.982 0.033 6.9 2.87 14.2
2/4/2021 6:00:00 PM -0.02 31.964 0.033 6.88 4.05 14.19
2/4/2021 6:15:00 PM -0.02 31.964 0.033 6.89 4.4 14.18
2/4/2021 6:30:00 PM -0.02 31.964 0.033 6.8 3.99 14.16
2/4/2021 6:45:00 PM -0.02 31.964 0.033 6.88 5.79 14.18
2/4/2021 7:00:00 PM -0.02 31.964 0.033 6.88 2.78 14.18
2/4/2021 7:15:00 PM -0.01 31.982 0.033 6.86 2.23 14.16
2/4/2021 7:30:00 PM -0.01 31.982 0.033 6.84 2.24 14.16
2/4/2021 7:45:00 PM -0.01 31.982 0.033 6.87 2.3 14.16
2/4/2021 8:00:00 PM -0.01 31.982 0.033 6.87 2.61 14.16
2/4/2021 8:15:00 PM -0.01 31.982 0.033 6.86 2.51 14.15
2/4/2021 8:30:00 PM 0 32 0.033 6.88 2.34 14.15
2/4/2021 8:45:00 PM 0 32 0.033 6.85 2.55 14.14
2/4/2021 9:00:00 PM 0.01 32.018 0.033 6.86 2.61 14.13
2/4/2021 9:15:00 PM 0.02 32.036 0.033 6.84 2.51 14.12
2/4/2021 9:30:00 PM 0.03 32.054 0.033 6.85 2.39 14.11
2/4/2021 9:45:00 PM 0.03 32.054 0.033 6.86 2.22 14.1
2/4/2021 10:00:00 PM 0.04 32.072 0.033 6.85 2.66 14.1
2/4/2021 10:15:00 PM 0.05 32.09 0.033 6.86 2.78 14.09
2/4/2021 10:30:00 PM 0.06 32.108 0.033 6.86 2.78 14.08
2/4/2021 10:45:00 PM 0.07 32.126 0.034 6.86 3.06 14.07
2/4/2021 11:00:00 PM 0.08 32.144 0.034 6.87 2.89 14.07
2/4/2021 11:15:00 PM 0.08 32.144 0.034 6.87 4.73 14.06
2/4/2021 11:30:00 PM 0.04 32.072 0.034 6.86 3.96 14.05
2/4/2021 11:45:00 PM 0.02 32.036 0.034 6.88 3.02 14.05
2/5/2021 12:00:00 AM 0.04 32.072 0.034 6.87 4.79 14.05
2/5/2021 12:15:00 AM 0.06 32.108 0.034 6.88 5.22 14.05
2/5/2021 12:30:00 AM 0.08 32.144 0.034 6.86 5.44 14.05
2/5/2021 12:45:00 AM 0.11 32.198 0.034 6.86 5.11 14.03
2/5/2021 1:00:00 AM 0.12 32.216 0.034 6.87 4.83 14.03
2/5/2021 1:15:00 AM 0.14 32.252 0.034 6.86 6.83 14.01
2/5/2021 1:30:00 AM 0.16 32.288 0.034 6.89 4.88 14
2/5/2021 1:45:00 AM 0.18 32.324 0.034 6.84 6.54 13.98
2/5/2021 2:00:00 AM 0.19 32.342 0.034 6.89 1.94 13.97
2/5/2021 2:15:00 AM 0.21 32.378 0.034 6.87 1.86 13.96
2/5/2021 2:30:00 AM 0.23 32.414 0.034 6.89 1.84 13.94
2/5/2021 2:45:00 AM 0.25 32.45 0.034 6.87 1.88 13.94
2/5/2021 3:00:00 AM 0.26 32.468 0.034 6.9 1.91 13.92
2/5/2021 3:15:00 AM 0.29 32.522 0.034 6.88 2 13.91
2/5/2021 3:30:00 AM 0.31 32.558 0.034 6.88 1.82 13.89
2/5/2021 3:45:00 AM 0.34 32.612 0.034 6.89 1.91 13.88
2/5/2021 4:00:00 AM 0.36 32.648 0.034 6.9 1.95 13.87
2/5/2021 4:15:00 AM 0.38 32.684 0.034 6.89 1.94 13.85
2/5/2021 4:30:00 AM 0.41 32.738 0.034 6.89 2.27 13.84
2/5/2021 4:45:00 AM 0.43 32.774 0.034 6.89 2.92 13.83
2/5/2021 5:00:00 AM 0.45 32.81 0.034 6.9 2.19 13.82
2/5/2021 5:15:00 AM 0.48 32.864 0.034 6.87 2.3 13.8
2/5/2021 5:30:00 AM 0.5 32.9 0.034 6.87 3.31 13.8
2/5/2021 5:45:00 AM 0.52 32.936 0.034 6.89 2.53 13.78
2/5/2021 6:00:00 AM 0.54 32.972 0.034 6.9 2.47 13.77
2/5/2021 6:15:00 AM 0.56 33.008 0.034 6.83 2.42 13.76
2/5/2021 6:30:00 AM 0.59 33.062 0.034 6.89 2.81 13.76
2/5/2021 6:45:00 AM 0.6 33.08 0.034 6.9 2.37 13.75
2/5/2021 7:00:00 AM 0.62 33.116 0.034 6.9 2.97 13.74
2/5/2021 7:15:00 AM 0.63 33.134 0.034 6.89 2.63 13.74
2/5/2021 7:30:00 AM 0.65 33.17 0.034 6.87 3.4 13.73
2/5/2021 7:45:00 AM 0.67 33.206 0.034 6.92 2.37 13.75
2/5/2021 8:00:00 AM 0.69 33.242 0.034 6.92 3.31 13.77
2/5/2021 8:15:00 AM 0.72 33.296 0.034 6.88 2.98 13.79
2/5/2021 8:30:00 AM 0.75 33.35 0.034 6.91 2.62 13.8
2/5/2021 8:45:00 AM 0.8 33.44 0.034 6.92 3.7 13.83
2/5/2021 9:00:00 AM 0.85 33.53 0.034 6.92 2.04 13.84
2/5/2021 9:15:00 AM 0.9 33.62 0.034 6.88 2.56 13.84
2/5/2021 9:30:00 AM 0.93 33.674 0.034 6.96 4.27 13.84
2/5/2021 9:45:00 AM 0.97 33.746 0.034 6.95 1.62 13.84
2/5/2021 10:00:00 AM 1 33.8 0.034 6.91 1.47 13.84
2/5/2021 10:15:00 AM 1.05 33.89 0.034 6.96 1.58 13.84